Time,TemperatureF,DewpointF,PressureIn,WindDirection,WindDirectionDegrees,WindSpeedMPH,WindSpeedGustMPH,Humidity,HourlyPrecipIn,Conditions,Clouds,dailyrainin,SolarRadiationWatts/m^2,SoftwareType,DateUTC
2013-08-27 00:00:00,90.4,66.7,29.21,South,191,3.9,5.0,45,-99.99,,,0.00,0,rob ver 1B,2013-08-27 07:00:00,
2013-08-27 00:01:00,90.4,66.6,29.21,SSW,193,4.8,5.5,45,-99.99,,,0.00,0,rob ver 1B,2013-08-27 07:01:00,
2013-08-27 00:02:00,90.4,66.6,29.21,SSW,194,4.4,4.9,45,-99.99,,,0.00,0,rob ver 1B,2013-08-27 07:02:00,
2013-08-27 00:03:00,84.6,63.7,29.29,NNW,330,3.6,4.3,49,-99.99,,,0.00,0,rob ver 1A,2013-08-27 07:03:00,
2013-08-27 00:04:00,90.4,66.6,29.21,SSW,199,4.1,5.1,45,-99.99,,,0.00,0,rob ver 1B,2013-08-27 07:04:00,
2013-08-27 00:05:00,90.4,66.6,29.21,South,190,3.3,4.2,45,-99.99,,,0.00,0,rob ver 1B,2013-08-27 07:05:00,
2013-08-27 00:06:00,90.4,66.6,29.21,SSW,194,2.9,3.5,45,-99.99,,,0.00,0,rob ver 1B,2013-08-27 07:06:00,
2013-08-27 00:07:00,90.4,66.7,29.21,SSW,194,2.5,2.9,45,-99.99,,,0.00,0,rob ver 1B,2013-08-27 07:07:00,
2013-08-27 00:08:00,84.5,63.5,29.29,NW,310,4.5,5.6,49,-99.99,,,0.00,0,rob ver 1A,2013-08-27 07:08:00,
2013-08-27 00:09:00,90.2,66.7,29.21,SSW,204,3.3,4.4,46,-99.99,,,0.00,0,rob ver 1B,2013-08-27 07:09:00,
2013-08-27 00:10:00,90.2,66.7,29.21,SSW,207,3.6,4.3,45,-99.99,,,0.00,0,rob ver 1B,2013-08-27 07:10:00,
2013-08-27 00:11:00,90.2,66.7,29.21,SSW,211,4.0,5.0,46,-99.99,,,0.00,0,rob ver 1B,2013-08-27 07:11:00,
2013-08-27 00:12:00,90.2,66.6,29.21,SW,214,3.9,4.8,45,-99.99,,,0.00,0,rob ver 1B,2013-08-27 07:12:00,
2013-08-27 00:13:00,90.2,66.6,29.21,SW,218,3.4,3.8,45,-99.99,,,0.00,0,rob ver 1B,2013-08-27 07:13:00,
2013-08-27 00:14:00,84.8,63.1,29.29,NW,308,7.6,9.4,48,-99.99,,,0.00,0,rob ver 1A,2013-08-27 07:14:00,
2013-08-27 00:15:00,90.2,66.5,29.21,SW,224,3.9,4.8,45,-99.99,,,0.00,0,rob ver 1B,2013-08-27 07:15:00,
2013-08-27 00:16:00,90.2,66.4,29.21,SW,220,4.0,4.7,45,-99.99,,,0.00,0,rob ver 1B,2013-08-27 07:16:00,
2013-08-27 00:17:00,90.2,66.4,29.21,SW,218,4.5,5.4,45,-99.99,,,0.00,0,rob ver 1B,2013-08-27 07:17:00,
2013-08-27 00:18:00,90.2,66.3,29.21,SW,215,5.0,6.1,45,-99.99,,,0.00,0,rob ver 1B,2013-08-27 07:18:00,
2013-08-27 00:19:00,84.7,63.3,29.29,WNW,301,6.7,8.0,48,-99.99,,,0.00,0,rob ver 1A,2013-08-27 07:19:00,
2013-08-27 00:20:00,90.2,66.2,29.21,SSW,213,5.5,6.3,45,-99.99,,,0.00,0,rob ver 1B,2013-08-27 07:20:00,
2013-08-27 00:21:00,90.2,66.2,29.21,SSW,212,5.5,6.4,45,-99.99,,,0.00,0,rob ver 1B,2013-08-27 07:21:00,
2013-08-27 00:22:00,90.2,66.2,29.21,SW,215,5.9,6.9,45,-99.99,,,0.00,0,rob ver 1B,2013-08-27 07:22:00,
2013-08-27 00:23:00,90.2,66.2,29.21,SW,216,5.3,6.5,45,-99.99,,,0.00,0,rob ver 1B,2013-08-27 07:23:00,
2013-08-27 00:24:00,84.6,63.6,29.29,WNW,291,7.8,8.6,49,-99.99,,,0.00,0,rob ver 1A,2013-08-27 07:24:00,
2013-08-27 00:25:00,90.2,66.1,29.21,SW,218,4.7,5.6,45,-99.99,,,0.00,0,rob ver 1B,2013-08-27 07:25:00,
2013-08-27 00:26:00,90.2,66.0,29.21,SW,218,4.7,5.9,45,-99.99,,,0.00,0,rob ver 1B,2013-08-27 07:26:00,
2013-08-27 00:27:00,90.1,66.0,29.21,SW,220,4.6,5.9,45,-99.99,,,0.00,0,rob ver 1B,2013-08-27 07:27:00,
2013-08-27 00:28:00,90.2,65.9,29.21,SW,222,4.9,5.8,44,-99.99,,,0.00,0,rob ver 1B,2013-08-27 07:28:00,
2013-08-27 00:29:00,84.3,63.9,29.29,WNW,283,7.4,8.7,50,-99.99,,,0.00,0,rob ver 1A,2013-08-27 07:29:00,
2013-08-27 00:30:00,90.2,65.8,29.21,SW,220,6.2,7.3,44,-99.99,,,0.00,0,rob ver 1B,2013-08-27 07:30:00,
2013-08-27 00:31:00,90.2,65.7,29.21,SW,222,6.4,7.4,44,-99.99,,,0.00,0,rob ver 1B,2013-08-27 07:31:00,
2013-08-27 00:32:00,90.3,65.7,29.21,SW,223,6.0,6.8,44,-99.99,,,0.00,0,rob ver 1B,2013-08-27 07:32:00,
2013-08-27 00:33:00,90.3,65.7,29.21,SW,225,5.5,6.5,44,-99.99,,,0.00,0,rob ver 1B,2013-08-27 07:33:00,
2013-08-27 00:34:00,84.0,64.4,29.29,WNW,288,7.0,8.3,51,-99.99,,,0.00,0,rob ver 1A,2013-08-27 07:34:00,
2013-08-27 00:35:00,90.3,65.7,29.21,SW,223,6.0,7.2,44,-99.99,,,0.00,0,rob ver 1B,2013-08-27 07:35:00,
2013-08-27 00:36:00,90.3,65.6,29.21,SW,223,6.0,6.8,44,-99.99,,,0.00,0,rob ver 1B,2013-08-27 07:36:00,
2013-08-27 00:37:00,90.3,65.7,29.21,SW,225,6.3,7.7,44,-99.99,,,0.00,0,rob ver 1B,2013-08-27 07:37:00,
2013-08-27 00:38:00,90.3,65.7,29.21,SW,226,5.6,6.7,44,-99.99,,,0.00,0,rob ver 1B,2013-08-27 07:38:00,
2013-08-27 00:39:00,83.9,64.8,29.29,WNW,292,7.1,8.4,52,-99.99,,,0.00,0,rob ver 1A,2013-08-27 07:39:00,
2013-08-27 00:40:00,90.2,65.7,29.21,SW,230,5.6,6.2,44,-99.99,,,0.00,0,rob ver 1B,2013-08-27 07:40:00,
2013-08-27 00:41:00,90.2,65.7,29.21,SW,229,5.4,6.4,44,-99.99,,,0.00,0,rob ver 1B,2013-08-27 07:41:00,
2013-08-27 00:42:00,90.2,65.7,29.21,SW,232,5.2,6.0,44,-99.99,,,0.00,0,rob ver 1B,2013-08-27 07:42:00,
2013-08-27 00:43:00,90.2,65.7,29.21,SW,231,5.0,6.6,44,-99.99,,,0.00,0,rob ver 1B,2013-08-27 07:43:00,
2013-08-27 00:44:00,83.8,65.1,29.29,WNW,301,6.9,8.1,53,-99.99,,,0.00,0,rob ver 1A,2013-08-27 07:44:00,
2013-08-27 00:45:00,90.1,65.7,29.21,SW,228,4.6,5.8,44,-99.99,,,0.00,0,rob ver 1B,2013-08-27 07:45:00,
2013-08-27 00:46:00,90.1,65.7,29.21,SW,230,4.5,5.7,44,-99.99,,,0.00,0,rob ver 1B,2013-08-27 07:46:00,
2013-08-27 00:47:00,90.0,65.7,29.21,SW,234,3.9,4.7,44,-99.99,,,0.00,0,rob ver 1B,2013-08-27 07:47:00,
2013-08-27 00:48:00,89.9,65.7,29.21,SW,233,3.6,5.0,44,-99.99,,,0.00,0,rob ver 1B,2013-08-27 07:48:00,
2013-08-27 00:49:00,83.7,65.6,29.29,WNW,298,7.1,8.5,54,-99.99,,,0.00,0,rob ver 1A,2013-08-27 07:49:00,
2013-08-27 00:50:00,89.9,65.7,29.21,SW,232,3.3,4.1,44,-99.99,,,0.00,0,rob ver 1B,2013-08-27 07:50:00,
2013-08-27 00:51:00,89.9,65.7,29.21,SW,233,3.7,4.8,44,-99.99,,,0.00,0,rob ver 1B,2013-08-27 07:51:00,
2013-08-27 00:52:00,89.9,65.7,29.21,SW,228,3.2,4.3,44,-99.99,,,0.00,0,rob ver 1B,2013-08-27 07:52:00,
2013-08-27 00:53:00,89.9,65.7,29.21,SW,225,2.9,3.5,45,-99.99,,,0.00,0,rob ver 1B,2013-08-27 07:53:00,
2013-08-27 00:54:00,89.9,65.7,29.21,SW,218,3.1,3.9,44,-99.99,,,0.00,0,rob ver 1B,2013-08-27 07:54:00,
2013-08-27 00:55:00,83.5,65.7,29.29,WNW,297,6.7,7.6,55,-99.99,,,0.00,0,rob ver 1A,2013-08-27 07:55:00,
2013-08-27 00:56:00,89.8,65.7,29.21,SW,217,3.5,4.1,45,-99.99,,,0.00,0,rob ver 1B,2013-08-27 07:56:00,
2013-08-27 00:57:00,89.8,65.7,29.21,SW,215,3.3,4.1,45,-99.99,,,0.00,0,rob ver 1B,2013-08-27 07:57:00,
2013-08-27 00:58:00,89.8,65.6,29.21,SW,214,3.3,4.1,45,-99.99,,,0.00,0,rob ver 1B,2013-08-27 07:58:00,
2013-08-27 00:59:00,89.8,65.6,29.21,SW,215,3.1,3.7,45,-99.99,,,0.00,0,rob ver 1B,2013-08-27 07:59:00,
2013-08-27 01:00:00,83.4,65.9,29.29,WNW,295,7.4,8.9,55,-99.99,,,0.00,0,rob ver 1A,2013-08-27 08:00:00,
2013-08-27 01:01:00,89.7,65.6,29.21,SSW,210,3.3,4.0,45,-99.99,,,0.00,0,rob ver 1B,2013-08-27 08:01:00,
2013-08-27 01:02:00,89.7,65.6,29.21,SSW,211,3.3,4.0,45,-99.99,,,0.00,0,rob ver 1B,2013-08-27 08:02:00,
2013-08-27 01:03:00,89.7,65.5,29.21,SSW,213,3.4,4.3,44,-99.99,,,0.00,0,rob ver 1B,2013-08-27 08:03:00,
2013-08-27 01:04:00,89.7,65.5,29.21,SW,214,3.1,3.6,44,-99.99,,,0.00,0,rob ver 1B,2013-08-27 08:04:00,
2013-08-27 01:05:00,83.3,66.1,29.29,WNW,301,7.4,8.5,56,-99.99,,,0.00,0,rob ver 1A,2013-08-27 08:05:00,
2013-08-27 01:06:00,89.7,65.5,29.21,SW,215,2.5,3.0,44,-99.99,,,0.00,0,rob ver 1B,2013-08-27 08:06:00,
2013-08-27 01:07:00,89.7,65.5,29.21,SW,214,2.2,2.9,44,-99.99,,,0.00,0,rob ver 1B,2013-08-27 08:07:00,
2013-08-27 01:08:00,89.6,65.5,29.21,SW,214,2.2,2.7,45,-99.99,,,0.00,0,rob ver 1B,2013-08-27 08:08:00,
2013-08-27 01:09:00,89.6,65.5,29.21,SSW,209,2.6,3.3,45,-99.99,,,0.00,0,rob ver 1B,2013-08-27 08:09:00,
2013-08-27 01:10:00,83.2,66.3,29.29,WNW,299,6.6,8.4,56,-99.99,,,0.00,0,rob ver 1A,2013-08-27 08:10:00,
2013-08-27 01:11:00,89.6,65.5,29.21,SSW,203,2.5,3.0,45,-99.99,,,0.00,0,rob ver 1B,2013-08-27 08:11:00,
2013-08-27 01:12:00,89.5,65.5,29.21,SSW,201,2.8,3.5,45,-99.99,,,0.00,0,rob ver 1B,2013-08-27 08:12:00,
2013-08-27 01:13:00,89.5,65.5,29.21,SSW,198,3.0,3.5,45,-99.99,,,0.00,0,rob ver 1B,2013-08-27 08:13:00,
2013-08-27 01:14:00,89.5,65.5,29.21,South,187,2.8,3.2,45,-99.99,,,0.00,0,rob ver 1B,2013-08-27 08:14:00,
2013-08-27 01:15:00,83.2,66.5,29.29,NW,307,5.8,6.8,57,-99.99,,,0.00,0,rob ver 1A,2013-08-27 08:15:00,
2013-08-27 01:16:00,89.4,65.6,29.21,South,181,3.3,3.7,45,-99.99,,,0.00,0,rob ver 1B,2013-08-27 08:16:00,
2013-08-27 01:17:00,89.3,65.6,29.21,South,182,3.7,4.4,45,-99.99,,,0.00,0,rob ver 1B,2013-08-27 08:17:00,
2013-08-27 01:18:00,89.3,65.6,29.21,South,173,3.3,3.9,45,-99.99,,,0.00,0,rob ver 1B,2013-08-27 08:18:00,
2013-08-27 01:19:00,89.3,65.8,29.21,SSE,164,3.3,3.5,46,-99.99,,,0.00,0,rob ver 1B,2013-08-27 08:19:00,
2013-08-27 01:20:00,83.2,66.7,29.29,NW,311,6.8,7.9,57,-99.99,,,0.00,0,rob ver 1A,2013-08-27 08:20:00,
2013-08-27 01:21:00,89.1,65.9,29.21,SSE,160,2.6,3.1,46,-99.99,,,0.00,0,rob ver 1B,2013-08-27 08:21:00,
2013-08-27 01:22:00,89.0,66.2,29.21,SSE,156,2.9,3.2,47,-99.99,,,0.00,0,rob ver 1B,2013-08-27 08:22:00,
2013-08-27 01:23:00,88.9,66.3,29.21,SSE,155,2.6,2.9,47,-99.99,,,0.00,0,rob ver 1B,2013-08-27 08:23:00,
2013-08-27 01:24:00,88.8,66.4,29.21,SSE,155,2.4,3.2,47,-99.99,,,0.00,0,rob ver 1B,2013-08-27 08:24:00,
2013-08-27 01:25:00,83.1,66.9,29.29,NW,310,4.7,5.6,58,-99.99,,,0.00,0,rob ver 1A,2013-08-27 08:25:00,
2013-08-27 01:26:00,88.7,66.4,29.21,SSE,165,2.3,2.8,47,-99.99,,,0.00,0,rob ver 1B,2013-08-27 08:26:00,
2013-08-27 01:27:00,88.6,66.4,29.21,South,170,2.3,2.6,48,-99.99,,,0.00,0,rob ver 1B,2013-08-27 08:27:00,
2013-08-27 01:28:00,88.6,66.5,29.21,South,171,2.7,3.4,48,-99.99,,,0.00,0,rob ver 1B,2013-08-27 08:28:00,
2013-08-27 01:29:00,88.5,66.5,29.21,South,173,3.3,3.8,48,-99.99,,,0.00,0,rob ver 1B,2013-08-27 08:29:00,
2013-08-27 01:30:00,82.9,67.3,29.29,NW,304,5.2,6.1,59,-99.99,,,0.00,0,rob ver 1A,2013-08-27 08:30:00,
2013-08-27 01:31:00,88.4,66.5,29.21,South,181,3.1,4.0,48,-99.99,,,0.00,0,rob ver 1B,2013-08-27 08:31:00,
2013-08-27 01:32:00,88.4,66.5,29.21,South,176,2.9,3.7,48,-99.99,,,0.00,0,rob ver 1B,2013-08-27 08:32:00,
2013-08-27 01:33:00,88.3,66.5,29.21,South,175,2.5,3.2,48,-99.99,,,0.00,0,rob ver 1B,2013-08-27 08:33:00,
2013-08-27 01:34:00,88.3,66.4,29.21,South,178,2.6,3.4,48,-99.99,,,0.00,0,rob ver 1B,2013-08-27 08:34:00,
2013-08-27 01:35:00,88.3,66.3,29.21,South,181,2.8,3.5,48,-99.99,,,0.00,0,rob ver 1B,2013-08-27 08:35:00,
2013-08-27 01:36:00,82.9,67.5,29.29,NW,316,5.4,6.9,59,-99.99,,,0.00,0,rob ver 1A,2013-08-27 08:36:00,
2013-08-27 01:37:00,88.4,66.4,29.21,SSW,198,1.7,2.1,48,-99.99,,,0.00,0,rob ver 1B,2013-08-27 08:37:00,
2013-08-27 01:38:00,88.3,66.4,29.21,SSW,208,1.6,2.1,48,-99.99,,,0.00,0,rob ver 1B,2013-08-27 08:38:00,
2013-08-27 01:39:00,88.3,66.4,29.21,SW,219,1.3,2.0,48,-99.99,,,0.00,0,rob ver 1B,2013-08-27 08:39:00,
2013-08-27 01:40:00,88.3,66.3,29.21,SW,226,1.2,2.2,48,-99.99,,,0.00,0,rob ver 1B,2013-08-27 08:40:00,
2013-08-27 01:41:00,82.7,67.6,29.26,NW,326,4.5,5.9,60,-99.99,,,0.00,0,rob ver 1A,2013-08-27 08:41:00,
2013-08-27 01:42:00,88.3,65.9,29.21,SW,232,1.7,2.3,47,-99.99,,,0.00,0,rob ver 1B,2013-08-27 08:42:00,
2013-08-27 01:43:00,88.3,65.7,29.21,SW,234,1.9,2.5,46,-99.99,,,0.00,0,rob ver 1B,2013-08-27 08:43:00,
2013-08-27 01:44:00,88.4,65.5,29.21,WSW,241,2.3,3.0,46,-99.99,,,0.00,0,rob ver 1B,2013-08-27 08:44:00,
2013-08-27 01:45:00,88.5,65.4,29.21,WSW,241,2.6,3.0,46,-99.99,,,0.00,0,rob ver 1B,2013-08-27 08:45:00,
2013-08-27 01:46:00,82.6,67.7,29.26,NNW,330,5.0,6.2,60,-99.99,,,0.00,0,rob ver 1A,2013-08-27 08:46:00,
2013-08-27 01:47:00,88.6,65.5,29.21,WSW,249,2.3,2.7,46,-99.99,,,0.00,0,rob ver 1B,2013-08-27 08:47:00,
2013-08-27 01:48:00,88.6,65.4,29.21,WSW,251,2.4,2.8,46,-99.99,,,0.00,0,rob ver 1B,2013-08-27 08:48:00,
2013-08-27 01:49:00,88.7,65.3,29.21,WSW,254,2.5,2.8,46,-99.99,,,0.00,0,rob ver 1B,2013-08-27 08:49:00,
2013-08-27 01:50:00,88.7,65.3,29.21,WSW,258,2.5,3.2,46,-99.99,,,0.00,0,rob ver 1B,2013-08-27 08:50:00,
2013-08-27 01:51:00,82.6,67.7,29.26,NNW,331,6.2,7.2,60,-99.99,,,0.00,0,rob ver 1A,2013-08-27 08:51:00,
2013-08-27 01:52:00,88.7,65.3,29.21,West,275,1.9,2.3,46,-99.99,,,0.00,0,rob ver 1B,2013-08-27 08:52:00,
2013-08-27 01:53:00,88.7,65.4,29.21,WNW,287,2.2,2.5,46,-99.99,,,0.00,0,rob ver 1B,2013-08-27 08:53:00,
2013-08-27 01:54:00,88.6,65.4,29.21,WNW,290,2.4,2.8,46,-99.99,,,0.00,0,rob ver 1B,2013-08-27 08:54:00,
2013-08-27 01:55:00,88.6,65.4,29.21,WNW,289,2.4,2.9,46,-99.99,,,0.00,0,rob ver 1B,2013-08-27 08:55:00,
2013-08-27 01:56:00,82.5,67.7,29.26,NNW,331,6.4,7.5,60,-99.99,,,0.00,0,rob ver 1A,2013-08-27 08:56:00,
2013-08-27 01:57:00,88.6,65.5,29.21,WNW,294,1.8,2.2,46,-99.99,,,0.00,0,rob ver 1B,2013-08-27 08:57:00,
2013-08-27 01:58:00,88.6,65.6,29.21,WNW,296,1.7,2.2,46,-99.99,,,0.00,0,rob ver 1B,2013-08-27 08:58:00,
2013-08-27 01:59:00,88.6,65.6,29.21,WNW,302,1.3,1.9,46,-99.99,,,0.00,0,rob ver 1B,2013-08-27 08:59:00,
2013-08-27 02:00:00,88.5,65.6,29.21,WNW,302,1.1,1.5,46,-99.99,,,0.00,0,rob ver 1B,2013-08-27 09:00:00,
2013-08-27 02:01:00,82.5,67.5,29.26,NNW,330,5.9,7.0,60,-99.99,,,0.00,0,rob ver 1A,2013-08-27 09:01:00,
2013-08-27 02:02:00,88.4,65.6,29.21,NW,317,0.9,1.2,46,-99.99,,,0.00,0,rob ver 1B,2013-08-27 09:02:00,
2013-08-27 02:03:00,88.4,65.6,29.21,NNW,337,0.7,0.9,46,-99.99,,,0.00,0,rob ver 1B,2013-08-27 09:03:00,
2013-08-27 02:04:00,88.3,65.6,29.21,NNW,346,0.9,1.2,47,-99.99,,,0.00,0,rob ver 1B,2013-08-27 09:04:00,
2013-08-27 02:05:00,88.3,65.6,29.21,North,351,1.3,1.4,47,-99.99,,,0.00,0,rob ver 1B,2013-08-27 09:05:00,
2013-08-27 02:06:00,82.7,67.3,29.26,NNW,334,5.2,6.4,59,-99.99,,,0.00,0,rob ver 1A,2013-08-27 09:06:00,
2013-08-27 02:07:00,88.2,65.6,29.21,NNW,334,1.0,1.3,47,-99.99,,,0.00,0,rob ver 1B,2013-08-27 09:07:00,
2013-08-27 02:08:00,88.1,65.6,29.21,NNW,336,1.0,1.4,47,-99.99,,,0.00,0,rob ver 1B,2013-08-27 09:08:00,
2013-08-27 02:09:00,88.1,65.6,29.21,NNW,342,1.8,2.1,47,-99.99,,,0.00,0,rob ver 1B,2013-08-27 09:09:00,
2013-08-27 02:10:00,88.1,65.7,29.21,NNW,338,1.6,1.9,47,-99.99,,,0.00,0,rob ver 1B,2013-08-27 09:10:00,
2013-08-27 02:11:00,82.8,67.1,29.26,NNW,348,4.8,5.9,58,-99.99,,,0.00,0,rob ver 1A,2013-08-27 09:11:00,
2013-08-27 02:12:00,88.0,65.7,29.21,NNW,342,2.1,2.4,47,-99.99,,,0.00,0,rob ver 1B,2013-08-27 09:12:00,
2013-08-27 02:13:00,88.1,65.7,29.21,NNW,343,2.0,2.4,47,-99.99,,,0.00,0,rob ver 1B,2013-08-27 09:13:00,
2013-08-27 02:14:00,88.1,65.7,29.21,NNW,343,2.4,2.7,47,-99.99,,,0.00,0,rob ver 1B,2013-08-27 09:14:00,
2013-08-27 02:15:00,88.1,65.6,29.21,NNW,341,2.4,3.0,47,-99.99,,,0.00,0,rob ver 1B,2013-08-27 09:15:00,
2013-08-27 02:16:00,88.1,65.6,29.21,NNW,347,2.8,3.0,47,-99.99,,,0.00,0,rob ver 1B,2013-08-27 09:16:00,
2013-08-27 02:17:00,82.9,67.0,29.26,NNW,332,3.1,4.7,58,-99.99,,,0.00,0,rob ver 1A,2013-08-27 09:17:00,
2013-08-27 02:18:00,88.0,65.7,29.21,North,350,2.6,2.7,47,-99.99,,,0.00,0,rob ver 1B,2013-08-27 09:18:00,
2013-08-27 02:19:00,88.0,65.6,29.21,North,355,2.2,2.4,47,-99.99,,,0.00,0,rob ver 1B,2013-08-27 09:19:00,
2013-08-27 02:20:00,87.9,65.7,29.21,North,353,1.7,2.0,47,-99.99,,,0.00,0,rob ver 1B,2013-08-27 09:20:00,
2013-08-27 02:21:00,88.0,65.6,29.21,North,353,1.4,1.5,47,-99.99,,,0.00,0,rob ver 1B,2013-08-27 09:21:00,
2013-08-27 02:22:00,82.9,67.0,29.26,NNW,337,2.3,2.8,58,-99.99,,,0.00,0,rob ver 1A,2013-08-27 09:22:00,
2013-08-27 02:23:00,88.0,65.6,29.21,North,11,1.0,1.1,47,-99.99,,,0.00,0,rob ver 1B,2013-08-27 09:23:00,
2013-08-27 02:24:00,88.0,65.6,29.21,NNE,13,0.9,1.0,47,-99.99,,,0.00,0,rob ver 1B,2013-08-27 09:24:00,
2013-08-27 02:25:00,88.0,65.6,29.21,NNE,30,0.8,0.9,47,-99.99,,,0.00,0,rob ver 1B,2013-08-27 09:25:00,
2013-08-27 02:26:00,88.0,65.5,29.21,NE,46,0.8,1.0,47,-99.99,,,0.00,0,rob ver 1B,2013-08-27 09:26:00,
2013-08-27 02:27:00,82.9,66.9,29.29,NNW,327,1.4,2.0,58,-99.99,,,0.00,0,rob ver 1A,2013-08-27 09:27:00,
2013-08-27 02:28:00,88.0,65.5,29.21,NE,52,1.0,1.3,47,-99.99,,,0.00,0,rob ver 1B,2013-08-27 09:28:00,
2013-08-27 02:29:00,87.9,65.5,29.21,ENE,64,1.3,1.4,47,-99.99,,,0.00,0,rob ver 1B,2013-08-27 09:29:00,
2013-08-27 02:30:00,87.9,65.5,29.21,ENE,67,1.3,1.5,47,-99.99,,,0.00,0,rob ver 1B,2013-08-27 09:30:00,
2013-08-27 02:31:00,87.8,65.5,29.21,ENE,70,1.4,1.6,47,-99.99,,,0.00,0,rob ver 1B,2013-08-27 09:31:00,
2013-08-27 02:32:00,82.9,67.0,29.29,North,5,0.9,1.1,58,-99.99,,,0.00,0,rob ver 1A,2013-08-27 09:32:00,
2013-08-27 02:33:00,87.7,65.4,29.21,ENE,77,1.6,1.7,47,-99.99,,,0.00,0,rob ver 1B,2013-08-27 09:33:00,
2013-08-27 02:34:00,87.7,65.3,29.21,ENE,74,1.6,1.8,47,-99.99,,,0.00,0,rob ver 1B,2013-08-27 09:34:00,
2013-08-27 02:35:00,87.7,65.3,29.21,ENE,70,1.8,1.9,47,-99.99,,,0.00,0,rob ver 1B,2013-08-27 09:35:00,
2013-08-27 02:36:00,87.7,65.3,29.21,ENE,61,1.7,1.9,47,-99.99,,,0.00,0,rob ver 1B,2013-08-27 09:36:00,
2013-08-27 02:37:00,82.8,67.0,29.29,NNE,17,1.8,2.1,58,-99.99,,,0.00,0,rob ver 1A,2013-08-27 09:37:00,
2013-08-27 02:38:00,87.6,65.3,29.21,NE,53,1.9,2.0,47,-99.99,,,0.00,0,rob ver 1B,2013-08-27 09:38:00,
2013-08-27 02:39:00,87.6,65.4,29.21,NE,50,2.0,2.2,47,-99.99,,,0.00,0,rob ver 1B,2013-08-27 09:39:00,
2013-08-27 02:40:00,87.6,65.4,29.21,NE,43,2.2,2.3,47,-99.99,,,0.00,0,rob ver 1B,2013-08-27 09:40:00,
2013-08-27 02:41:00,87.5,65.4,29.21,NE,40,2.5,2.6,48,-99.99,,,0.00,0,rob ver 1B,2013-08-27 09:41:00,
2013-08-27 02:42:00,82.9,67.1,29.29,NE,49,1.4,1.8,59,-99.99,,,0.00,0,rob ver 1A,2013-08-27 09:42:00,
2013-08-27 02:43:00,87.4,65.4,29.21,NE,41,2.6,3.1,48,-99.99,,,0.00,0,rob ver 1B,2013-08-27 09:43:00,
2013-08-27 02:44:00,87.4,65.4,29.21,NE,40,2.9,3.2,48,-99.99,,,0.00,0,rob ver 1B,2013-08-27 09:44:00,
2013-08-27 02:45:00,87.3,65.4,29.21,NE,41,2.8,3.0,48,-99.99,,,0.00,0,rob ver 1B,2013-08-27 09:45:00,
2013-08-27 02:46:00,87.3,65.4,29.21,NE,42,2.3,2.8,48,-99.99,,,0.00,0,rob ver 1B,2013-08-27 09:46:00,
2013-08-27 02:47:00,82.8,66.7,29.29,ENE,68,2.0,2.6,58,-99.99,,,0.00,0,rob ver 1A,2013-08-27 09:47:00,
2013-08-27 02:48:00,87.3,65.4,29.21,NE,43,2.5,2.8,48,-99.99,,,0.00,0,rob ver 1B,2013-08-27 09:48:00,
2013-08-27 02:49:00,87.2,65.4,29.18,NE,47,2.2,2.6,48,-99.99,,,0.00,0,rob ver 1B,2013-08-27 09:49:00,
2013-08-27 02:50:00,87.2,65.3,29.18,NE,50,1.9,2.2,48,-99.99,,,0.00,0,rob ver 1B,2013-08-27 09:50:00,
2013-08-27 02:51:00,87.2,65.3,29.21,NE,53,1.8,2.2,48,-99.99,,,0.00,0,rob ver 1B,2013-08-27 09:51:00,
2013-08-27 02:52:00,82.8,65.8,29.29,East,79,2.7,3.1,56,-99.99,,,0.00,0,rob ver 1A,2013-08-27 09:52:00,
2013-08-27 02:53:00,87.2,65.2,29.18,NE,44,1.4,2.0,48,-99.99,,,0.00,0,rob ver 1B,2013-08-27 09:53:00,
2013-08-27 02:54:00,87.2,65.2,29.18,NE,42,1.2,1.4,48,-99.99,,,0.00,0,rob ver 1B,2013-08-27 09:54:00,
2013-08-27 02:55:00,87.2,65.2,29.18,NE,41,1.1,1.4,48,-99.99,,,0.00,0,rob ver 1B,2013-08-27 09:55:00,
2013-08-27 02:56:00,87.2,65.1,29.18,NE,44,1.1,1.3,48,-99.99,,,0.00,0,rob ver 1B,2013-08-27 09:56:00,
2013-08-27 02:57:00,87.2,65.1,29.18,NE,41,1.0,1.2,48,-99.99,,,0.00,0,rob ver 1B,2013-08-27 09:57:00,
2013-08-27 02:58:00,82.6,65.5,29.29,East,100,3.5,4.0,56,-99.99,,,0.00,0,rob ver 1A,2013-08-27 09:58:00,
2013-08-27 02:59:00,87.2,65.1,29.18,NNE,25,1.1,1.3,48,-99.99,,,0.00,0,rob ver 1B,2013-08-27 09:59:00,
2013-08-27 03:00:00,87.2,65.1,29.18,NNE,23,1.2,1.4,47,-99.99,,,0.00,0,rob ver 1B,2013-08-27 10:00:00,
2013-08-27 03:01:00,87.2,65.1,29.21,NNE,23,1.3,1.4,47,-99.99,,,0.00,0,rob ver 1B,2013-08-27 10:01:00,
2013-08-27 03:02:00,87.3,65.1,29.21,NNE,26,1.4,1.5,47,-99.99,,,0.00,0,rob ver 1B,2013-08-27 10:02:00,
2013-08-27 03:03:00,82.4,65.5,29.29,East,101,3.4,4.4,56,-99.99,,,0.00,0,rob ver 1A,2013-08-27 10:03:00,
2013-08-27 03:04:00,87.3,65.0,29.18,NNE,31,1.8,1.9,47,-99.99,,,0.00,0,rob ver 1B,2013-08-27 10:04:00,
2013-08-27 03:05:00,87.3,64.9,29.21,NNE,31,1.8,1.9,47,-99.99,,,0.00,0,rob ver 1B,2013-08-27 10:05:00,
2013-08-27 03:06:00,87.3,64.9,29.21,NNE,28,1.6,1.8,47,-99.99,,,0.00,0,rob ver 1B,2013-08-27 10:06:00,
2013-08-27 03:07:00,87.3,64.8,29.18,NNE,33,1.6,1.7,47,-99.99,,,0.00,0,rob ver 1B,2013-08-27 10:07:00,
2013-08-27 03:08:00,82.4,65.4,29.29,East,85,2.7,3.2,56,-99.99,,,0.00,0,rob ver 1A,2013-08-27 10:08:00,
2013-08-27 03:09:00,87.3,64.8,29.21,NNE,31,1.3,1.5,47,-99.99,,,0.00,0,rob ver 1B,2013-08-27 10:09:00,
2013-08-27 03:10:00,87.3,64.8,29.21,NNE,33,1.2,1.3,47,-99.99,,,0.00,0,rob ver 1B,2013-08-27 10:10:00,
2013-08-27 03:11:00,87.2,64.8,29.18,NE,34,1.1,1.1,47,-99.99,,,0.00,0,rob ver 1B,2013-08-27 10:11:00,
2013-08-27 03:12:00,87.2,64.8,29.18,NE,36,1.0,1.2,47,-99.99,,,0.00,0,rob ver 1B,2013-08-27 10:12:00,
2013-08-27 03:13:00,82.3,65.1,29.29,East,85,2.0,2.5,56,-99.99,,,0.00,0,rob ver 1A,2013-08-27 10:13:00,
2013-08-27 03:14:00,87.1,64.8,29.21,NE,42,1.5,1.7,47,-99.99,,,0.00,0,rob ver 1B,2013-08-27 10:14:00,
2013-08-27 03:15:00,87.1,64.7,29.21,NE,45,1.7,1.8,47,-99.99,,,0.00,0,rob ver 1B,2013-08-27 10:15:00,
2013-08-27 03:16:00,87.0,64.7,29.18,NE,42,1.7,1.9,47,-99.99,,,0.00,0,rob ver 1B,2013-08-27 10:16:00,
2013-08-27 03:17:00,87.0,64.7,29.18,NE,40,1.9,2.3,47,-99.99,,,0.00,0,rob ver 1B,2013-08-27 10:17:00,
2013-08-27 03:18:00,82.2,65.4,29.29,East,84,3.8,5.4,57,-99.99,,,0.00,0,rob ver 1A,2013-08-27 10:18:00,
2013-08-27 03:19:00,86.9,64.8,29.21,NE,37,2.4,2.8,47,-99.99,,,0.00,0,rob ver 1B,2013-08-27 10:19:00,
2013-08-27 03:20:00,86.9,64.8,29.18,NE,36,2.6,2.8,47,-99.99,,,0.00,0,rob ver 1B,2013-08-27 10:20:00,
2013-08-27 03:21:00,86.9,64.8,29.18,NNE,33,2.7,2.8,47,-99.99,,,0.00,0,rob ver 1B,2013-08-27 10:21:00,
2013-08-27 03:22:00,86.9,64.7,29.18,NNE,28,2.6,2.7,47,-99.99,,,0.00,0,rob ver 1B,2013-08-27 10:22:00,
2013-08-27 03:23:00,81.5,66.6,29.29,ENE,75,9.0,11.4,60,-99.99,,,0.00,0,rob ver 1A,2013-08-27 10:23:00,
2013-08-27 03:24:00,87.1,64.8,29.18,NNE,19,2.2,2.4,47,-99.99,,,0.00,0,rob ver 1B,2013-08-27 10:24:00,
2013-08-27 03:25:00,87.3,64.7,29.18,NNE,21,2.0,2.1,47,-99.99,,,0.00,0,rob ver 1B,2013-08-27 10:25:00,
2013-08-27 03:26:00,87.2,64.6,29.18,NNE,27,1.7,2.0,47,-99.99,,,0.00,0,rob ver 1B,2013-08-27 10:26:00,
2013-08-27 03:27:00,87.2,64.6,29.18,NNE,19,1.5,1.7,47,-99.99,,,0.00,0,rob ver 1B,2013-08-27 10:27:00,
2013-08-27 03:28:00,80.8,66.7,29.29,ENE,67,10.2,16.3,62,-99.99,,,0.00,0,rob ver 1A,2013-08-27 10:28:00,
2013-08-27 03:29:00,87.2,64.7,29.18,North,355,1.5,1.7,47,-99.99,,,0.00,0,rob ver 1B,2013-08-27 10:29:00,
2013-08-27 03:30:00,87.2,64.8,29.18,North,356,1.6,1.9,47,-99.99,,,0.00,0,rob ver 1B,2013-08-27 10:30:00,
2013-08-27 03:31:00,87.2,64.8,29.18,North,351,1.8,2.4,47,-99.99,,,0.00,0,rob ver 1B,2013-08-27 10:31:00,
2013-08-27 03:32:00,87.2,64.6,29.18,North,352,2.5,2.8,47,-99.99,,,0.00,0,rob ver 1B,2013-08-27 10:32:00,
2013-08-27 03:33:00,80.5,66.7,29.29,ENE,72,10.1,13.0,62,-99.99,,,0.00,0,rob ver 1A,2013-08-27 10:33:00,
2013-08-27 03:34:00,87.1,64.5,29.18,NNW,348,2.8,4.0,47,-99.99,,,0.00,0,rob ver 1B,2013-08-27 10:34:00,
2013-08-27 03:35:00,87.1,64.5,29.18,NNW,346,2.9,3.2,47,-99.99,,,0.00,0,rob ver 1B,2013-08-27 10:35:00,
2013-08-27 03:36:00,87.0,64.5,29.18,NNW,346,2.8,3.4,47,-99.99,,,0.00,0,rob ver 1B,2013-08-27 10:36:00,
2013-08-27 03:37:00,87.0,64.4,29.18,NNW,346,3.1,3.7,47,-99.99,,,0.00,0,rob ver 1B,2013-08-27 10:37:00,
2013-08-27 03:38:00,86.8,64.3,29.18,NNW,344,3.2,3.6,47,-99.99,,,0.00,0,rob ver 1B,2013-08-27 10:38:00,
2013-08-27 03:39:00,80.3,66.7,29.29,ENE,68,9.6,13.6,63,-99.99,,,0.00,0,rob ver 1A,2013-08-27 10:39:00,
2013-08-27 03:40:00,86.7,64.1,29.18,NNW,343,3.1,3.6,47,-99.99,,,0.00,0,rob ver 1B,2013-08-27 10:40:00,
2013-08-27 03:41:00,86.6,64.0,29.18,NNW,342,3.1,3.6,46,-99.99,,,0.00,0,rob ver 1B,2013-08-27 10:41:00,
2013-08-27 03:42:00,86.6,63.9,29.18,NNW,340,2.9,3.4,46,-99.99,,,0.00,0,rob ver 1B,2013-08-27 10:42:00,
2013-08-27 03:43:00,86.6,63.9,29.18,NNW,340,2.7,3.3,46,-99.99,,,0.00,0,rob ver 1B,2013-08-27 10:43:00,
2013-08-27 03:44:00,80.2,66.7,29.29,ENE,68,9.7,13.0,63,-99.99,,,0.00,0,rob ver 1A,2013-08-27 10:44:00,
2013-08-27 03:45:00,86.6,63.7,29.18,NNW,341,2.4,2.8,46,-99.99,,,0.00,0,rob ver 1B,2013-08-27 10:45:00,
2013-08-27 03:46:00,86.7,63.6,29.18,NNW,342,2.5,2.9,46,-99.99,,,0.00,0,rob ver 1B,2013-08-27 10:46:00,
2013-08-27 03:47:00,86.7,63.6,29.18,NNW,343,2.2,2.8,46,-99.99,,,0.00,0,rob ver 1B,2013-08-27 10:47:00,
2013-08-27 03:48:00,86.8,63.5,29.18,NNW,343,2.2,2.8,45,-99.99,,,0.00,0,rob ver 1B,2013-08-27 10:48:00,
2013-08-27 03:49:00,80.2,66.7,29.29,ENE,67,7.9,10.2,63,-99.99,,,0.00,0,rob ver 1A,2013-08-27 10:49:00,
2013-08-27 03:50:00,86.9,63.4,29.21,NNW,344,1.6,1.9,45,-99.99,,,0.00,0,rob ver 1B,2013-08-27 10:50:00,
2013-08-27 03:51:00,86.9,63.4,29.21,NNW,348,1.5,2.1,45,-99.99,,,0.00,0,rob ver 1B,2013-08-27 10:51:00,
2013-08-27 03:52:00,87.0,63.4,29.21,NNW,344,1.5,1.9,45,-99.99,,,0.00,0,rob ver 1B,2013-08-27 10:52:00,
2013-08-27 03:53:00,87.0,63.3,29.21,NNW,346,1.5,2.1,45,-99.99,,,0.00,0,rob ver 1B,2013-08-27 10:53:00,
2013-08-27 03:54:00,80.2,66.6,29.29,ENE,65,6.5,8.4,63,-99.99,,,0.00,0,rob ver 1A,2013-08-27 10:54:00,
2013-08-27 03:55:00,87.1,63.3,29.21,NNW,334,0.9,1.4,44,-99.99,,,0.00,0,rob ver 1B,2013-08-27 10:55:00,
2013-08-27 03:56:00,87.2,63.3,29.21,NW,324,0.5,0.8,45,-99.99,,,0.00,0,rob ver 1B,2013-08-27 10:56:00,
2013-08-27 03:57:00,87.2,63.4,29.21,SSW,212,0.3,0.7,45,-99.99,,,0.00,0,rob ver 1B,2013-08-27 10:57:00,
2013-08-27 03:58:00,87.2,64.1,29.21,South,175,2.1,3.2,47,-99.99,,,0.00,0,rob ver 1B,2013-08-27 10:58:00,
2013-08-27 03:59:00,80.1,66.5,29.26,ENE,63,8.7,11.9,63,-99.99,,,0.00,0,rob ver 1A,2013-08-27 10:59:00,
2013-08-27 04:00:00,86.7,65.2,29.21,South,180,3.7,4.0,49,-99.99,,,0.00,0,rob ver 1B,2013-08-27 11:00:00,
2013-08-27 04:01:00,86.4,65.6,29.21,South,183,3.1,3.6,50,-99.99,,,0.00,0,rob ver 1B,2013-08-27 11:01:00,
2013-08-27 04:02:00,86.1,65.7,29.21,South,188,2.9,3.1,50,-99.99,,,0.00,0,rob ver 1B,2013-08-27 11:02:00,
2013-08-27 04:03:00,85.9,65.7,29.21,SSW,195,2.7,2.8,50,-99.99,,,0.00,0,rob ver 1B,2013-08-27 11:03:00,
2013-08-27 04:04:00,80.1,66.5,29.26,ENE,61,6.8,8.9,63,-99.99,,,0.00,0,rob ver 1A,2013-08-27 11:04:00,
2013-08-27 04:05:00,85.8,65.8,29.21,SSW,202,2.0,2.3,51,-99.99,,,0.00,0,rob ver 1B,2013-08-27 11:05:00,
2013-08-27 04:06:00,85.7,65.7,29.21,SSW,211,1.7,1.9,51,-99.99,,,0.00,0,rob ver 1B,2013-08-27 11:06:00,
2013-08-27 04:07:00,85.7,65.7,29.21,SW,225,1.6,1.7,51,-99.99,,,0.00,0,rob ver 1B,2013-08-27 11:07:00,
2013-08-27 04:08:00,85.7,65.6,29.21,SW,220,1.3,1.5,51,-99.99,,,0.00,0,rob ver 1B,2013-08-27 11:08:00,
2013-08-27 04:09:00,80.0,66.6,29.26,ENE,64,4.2,5.9,63,-99.99,,,0.00,0,rob ver 1A,2013-08-27 11:09:00,
2013-08-27 04:10:00,85.7,65.6,29.21,SSW,200,0.7,1.1,51,-99.99,,,0.00,0,rob ver 1B,2013-08-27 11:10:00,
2013-08-27 04:11:00,85.7,65.8,29.21,SSE,167,0.5,1.0,51,-99.99,,,0.00,0,rob ver 1B,2013-08-27 11:11:00,
2013-08-27 04:12:00,85.7,65.0,29.21,North,359,0.5,0.9,49,-99.99,,,0.00,0,rob ver 1B,2013-08-27 11:12:00,
2013-08-27 04:13:00,85.7,64.7,29.21,NNW,341,0.5,0.8,49,-99.99,,,0.00,0,rob ver 1B,2013-08-27 11:13:00,
2013-08-27 04:14:00,80.0,66.5,29.26,ENE,66,4.5,5.7,63,-99.99,,,0.00,0,rob ver 1A,2013-08-27 11:14:00,
2013-08-27 04:15:00,85.9,64.4,29.21,North,6,0.7,1.0,48,-99.99,,,0.00,0,rob ver 1B,2013-08-27 11:15:00,
2013-08-27 04:16:00,86.1,64.3,29.21,NNE,14,0.6,1.1,48,-99.99,,,0.00,0,rob ver 1B,2013-08-27 11:16:00,
2013-08-27 04:17:00,86.2,64.2,29.21,NNE,14,0.8,1.1,47,-99.99,,,0.00,0,rob ver 1B,2013-08-27 11:17:00,
2013-08-27 04:18:00,86.3,64.1,29.21,North,10,0.8,1.0,47,-99.99,,,0.00,0,rob ver 1B,2013-08-27 11:18:00,
2013-08-27 04:19:00,86.5,64.0,29.21,NNE,31,0.8,1.2,47,-99.99,,,0.00,0,rob ver 1B,2013-08-27 11:19:00,
2013-08-27 04:20:00,80.0,66.6,29.26,ENE,67,3.8,5.4,63,-99.99,,,0.00,0,rob ver 1A,2013-08-27 11:20:00,
2013-08-27 04:21:00,86.6,63.9,29.21,NNE,27,0.7,1.0,46,-99.99,,,0.00,0,rob ver 1B,2013-08-27 11:21:00,
2013-08-27 04:22:00,86.7,63.9,29.21,NE,35,0.7,0.9,46,-99.99,,,0.00,0,rob ver 1B,2013-08-27 11:22:00,
2013-08-27 04:23:00,86.7,63.9,29.21,NE,45,0.6,0.9,46,-99.99,,,0.00,0,rob ver 1B,2013-08-27 11:23:00,
2013-08-27 04:24:00,86.8,64.0,29.21,ENE,73,0.5,0.8,46,-99.99,,,0.00,0,rob ver 1B,2013-08-27 11:24:00,
2013-08-27 04:25:00,79.9,66.6,29.26,NE,53,4.1,5.5,63,-99.99,,,0.00,0,rob ver 1A,2013-08-27 11:25:00,
2013-08-27 04:26:00,86.8,64.6,29.21,SE,132,1.7,2.2,48,-99.99,,,0.00,0,rob ver 1B,2013-08-27 11:26:00,
2013-08-27 04:27:00,86.6,64.6,29.21,SE,137,2.2,2.6,48,-99.99,,,0.00,0,rob ver 1B,2013-08-27 11:27:00,
2013-08-27 04:28:00,86.6,65.0,29.21,SE,140,2.8,3.1,49,-99.99,,,0.00,0,rob ver 1B,2013-08-27 11:28:00,
2013-08-27 04:29:00,86.4,65.2,29.21,SE,139,3.4,4.0,49,-99.99,,,0.00,0,rob ver 1B,2013-08-27 11:29:00,
2013-08-27 04:30:00,79.9,66.6,29.26,ENE,62,4.0,5.1,63,-99.99,,,0.00,0,rob ver 1A,2013-08-27 11:30:00,
2013-08-27 04:31:00,85.8,65.5,29.21,SSE,148,4.1,4.7,51,-99.99,,,0.00,0,rob ver 1B,2013-08-27 11:31:00,
2013-08-27 04:32:00,85.6,65.6,29.21,SSE,153,4.2,5.0,51,-99.99,,,0.00,0,rob ver 1B,2013-08-27 11:32:00,
2013-08-27 04:33:00,85.4,65.7,29.21,SSE,152,4.2,5.0,52,-99.99,,,0.00,0,rob ver 1B,2013-08-27 11:33:00,
2013-08-27 04:34:00,85.3,65.8,29.21,SSE,152,4.5,5.3,52,-99.99,,,0.00,0,rob ver 1B,2013-08-27 11:34:00,
2013-08-27 04:35:00,79.8,66.6,29.26,NE,56,3.2,4.2,64,-99.99,,,0.00,0,rob ver 1A,2013-08-27 11:35:00,
2013-08-27 04:36:00,85.2,65.9,29.21,SSE,158,3.5,4.1,52,-99.99,,,0.00,0,rob ver 1B,2013-08-27 11:36:00,
2013-08-27 04:37:00,85.1,65.9,29.21,SSE,160,2.9,3.5,52,-99.99,,,0.00,0,rob ver 1B,2013-08-27 11:37:00,
2013-08-27 04:38:00,85.2,65.9,29.21,SSE,162,2.9,3.4,52,-99.99,,,0.00,0,rob ver 1B,2013-08-27 11:38:00,
2013-08-27 04:39:00,85.2,65.9,29.21,SSE,163,2.5,3.1,52,-99.99,,,0.00,0,rob ver 1B,2013-08-27 11:39:00,
2013-08-27 04:40:00,79.8,66.6,29.26,NE,38,2.9,3.4,64,-99.99,,,0.00,0,rob ver 1A,2013-08-27 11:40:00,
2013-08-27 04:41:00,85.2,65.9,29.21,SSE,159,2.4,2.8,52,-99.99,,,0.00,0,rob ver 1B,2013-08-27 11:41:00,
2013-08-27 04:42:00,85.2,65.9,29.21,SSE,150,2.2,2.7,52,-99.99,,,0.00,0,rob ver 1B,2013-08-27 11:42:00,
2013-08-27 04:43:00,85.2,65.9,29.21,SSE,153,2.2,2.5,52,-99.99,,,0.00,0,rob ver 1B,2013-08-27 11:43:00,
2013-08-27 04:44:00,85.1,66.0,29.21,SE,142,2.2,2.7,52,-99.99,,,0.00,0,rob ver 1B,2013-08-27 11:44:00,
2013-08-27 04:45:00,79.8,66.7,29.26,NNE,32,1.8,3.0,64,-99.99,,,0.00,0,rob ver 1A,2013-08-27 11:45:00,
2013-08-27 04:46:00,85.1,65.9,29.21,SE,134,1.6,2.1,52,-99.99,,,0.00,0,rob ver 1B,2013-08-27 11:46:00,
2013-08-27 04:47:00,85.1,65.9,29.21,SE,137,2.1,2.7,52,-99.99,,,0.00,0,rob ver 1B,2013-08-27 11:47:00,
2013-08-27 04:48:00,85.1,65.9,29.21,SE,135,2.1,2.3,52,-99.99,,,0.00,0,rob ver 1B,2013-08-27 11:48:00,
2013-08-27 04:49:00,85.0,65.9,29.21,SE,136,1.9,2.4,52,-99.99,,,0.00,0,rob ver 1B,2013-08-27 11:49:00,
2013-08-27 04:50:00,79.7,66.7,29.26,NE,50,1.8,3.0,64,-99.99,,,0.00,0,rob ver 1A,2013-08-27 11:50:00,
2013-08-27 04:51:00,85.0,65.9,29.21,SE,130,2.3,2.7,52,-99.99,,,0.00,0,rob ver 1B,2013-08-27 11:51:00,
2013-08-27 04:52:00,84.9,65.8,29.21,SE,131,2.0,2.2,52,-99.99,,,0.00,0,rob ver 1B,2013-08-27 11:52:00,
2013-08-27 04:53:00,84.9,65.9,29.21,SE,133,2.3,2.6,53,-99.99,,,0.00,0,rob ver 1B,2013-08-27 11:53:00,
2013-08-27 04:54:00,84.9,66.0,29.21,SE,137,2.4,3.0,53,-99.99,,,0.00,0,rob ver 1B,2013-08-27 11:54:00,
2013-08-27 04:55:00,79.7,66.7,29.26,ENE,64,2.3,2.8,64,-99.99,,,0.00,0,rob ver 1A,2013-08-27 11:55:00,
2013-08-27 04:56:00,84.8,66.1,29.21,SE,139,1.9,2.4,53,-99.99,,,0.00,0,rob ver 1B,2013-08-27 11:56:00,
2013-08-27 04:57:00,84.7,66.1,29.21,SE,142,2.3,2.8,53,-99.99,,,0.00,0,rob ver 1B,2013-08-27 11:57:00,
2013-08-27 04:58:00,84.7,66.2,29.21,SE,145,2.4,3.0,53,-99.99,,,0.00,0,rob ver 1B,2013-08-27 11:58:00,
2013-08-27 04:59:00,84.7,66.2,29.21,SE,144,2.9,3.5,53,-99.99,,,0.00,0,rob ver 1B,2013-08-27 11:59:00,
2013-08-27 05:00:00,84.7,66.3,29.21,SSE,149,2.8,3.2,54,-99.99,,,0.00,0,rob ver 1B,2013-08-27 12:00:00,
2013-08-27 05:01:00,79.6,66.7,29.26,East,82,1.9,2.4,64,-99.99,,,0.00,0,rob ver 1A,2013-08-27 12:01:00,
2013-08-27 05:02:00,84.7,66.4,29.21,SE,145,3.0,3.5,54,-99.99,,,0.00,0,rob ver 1B,2013-08-27 12:02:00,
2013-08-27 05:03:00,84.7,66.4,29.21,SSE,149,2.6,3.1,54,-99.99,,,0.00,0,rob ver 1B,2013-08-27 12:03:00,
2013-08-27 05:04:00,84.7,66.4,29.21,SSE,159,2.6,3.2,54,-99.99,,,0.00,0,rob ver 1B,2013-08-27 12:04:00,
2013-08-27 05:05:00,84.7,66.4,29.21,SSE,151,2.6,3.0,54,-99.99,,,0.00,0,rob ver 1B,2013-08-27 12:05:00,
2013-08-27 05:06:00,79.6,66.8,29.26,ENE,77,2.1,2.4,65,-99.99,,,0.00,0,rob ver 1A,2013-08-27 12:06:00,
2013-08-27 05:07:00,84.7,66.5,29.21,SE,145,2.5,3.0,54,-99.99,,,0.00,0,rob ver 1B,2013-08-27 12:07:00,
2013-08-27 05:08:00,84.7,66.5,29.21,SSE,147,2.5,2.9,54,-99.99,,,0.00,0,rob ver 1B,2013-08-27 12:08:00,
2013-08-27 05:09:00,84.7,66.5,29.21,SSE,148,2.8,3.2,54,-99.99,,,0.00,0,rob ver 1B,2013-08-27 12:09:00,
2013-08-27 05:10:00,84.7,66.5,29.21,SSE,155,2.5,3.0,54,-99.99,,,0.00,0,rob ver 1B,2013-08-27 12:10:00,
2013-08-27 05:11:00,79.4,66.9,29.26,East,101,3.1,3.6,65,-99.99,,,0.00,0,rob ver 1A,2013-08-27 12:11:00,
2013-08-27 05:12:00,84.8,66.5,29.21,SSE,150,2.6,2.8,54,-99.99,,,0.00,0,rob ver 1B,2013-08-27 12:12:00,
2013-08-27 05:13:00,84.8,66.6,29.21,SE,143,2.5,2.8,54,-99.99,,,0.00,0,rob ver 1B,2013-08-27 12:13:00,
2013-08-27 05:14:00,84.8,66.6,29.21,SE,137,2.3,2.6,54,-99.99,,,0.00,0,rob ver 1B,2013-08-27 12:14:00,
2013-08-27 05:15:00,84.8,66.5,29.21,SE,128,2.0,2.4,54,-99.99,,,0.00,0,rob ver 1B,2013-08-27 12:15:00,
2013-08-27 05:16:00,79.4,66.9,29.26,East,96,2.2,2.5,65,-99.99,,,0.00,0,rob ver 1A,2013-08-27 12:16:00,
2013-08-27 05:17:00,84.7,66.5,29.21,SE,124,1.8,2.3,54,-99.99,,,0.00,0,rob ver 1B,2013-08-27 12:17:00,
2013-08-27 05:18:00,84.7,66.4,29.21,SE,127,1.7,2.1,54,-99.99,,,0.00,0,rob ver 1B,2013-08-27 12:18:00,
2013-08-27 05:19:00,84.6,66.5,29.21,SE,134,1.9,2.3,54,-99.99,,,0.00,0,rob ver 1B,2013-08-27 12:19:00,
2013-08-27 05:20:00,84.6,66.5,29.21,SE,132,1.8,2.3,54,-99.99,,,0.00,0,rob ver 1B,2013-08-27 12:20:00,
2013-08-27 05:21:00,79.2,67.0,29.26,East,95,2.1,2.7,66,-99.99,,,0.00,0,rob ver 1A,2013-08-27 12:21:00,
2013-08-27 05:22:00,84.6,66.6,29.21,SE,145,2.2,2.4,54,-99.99,,,0.00,0,rob ver 1B,2013-08-27 12:22:00,
2013-08-27 05:23:00,84.6,66.6,29.21,SSE,150,2.1,2.5,54,-99.99,,,0.00,0,rob ver 1B,2013-08-27 12:23:00,
2013-08-27 05:24:00,84.6,66.6,29.21,SSE,152,2.4,2.8,54,-99.99,,,0.00,0,rob ver 1B,2013-08-27 12:24:00,
2013-08-27 05:25:00,84.6,66.6,29.21,SSE,158,2.5,2.9,54,-99.99,,,0.00,0,rob ver 1B,2013-08-27 12:25:00,
2013-08-27 05:26:00,79.1,67.0,29.29,East,90,2.3,3.2,66,-99.99,,,0.00,0,rob ver 1A,2013-08-27 12:26:00,
2013-08-27 05:27:00,84.6,66.5,29.21,South,172,2.4,2.8,54,-99.99,,,0.00,0,rob ver 1B,2013-08-27 12:27:00,
2013-08-27 05:28:00,84.7,66.4,29.21,South,173,2.4,2.6,54,-99.99,,,0.00,0,rob ver 1B,2013-08-27 12:28:00,
2013-08-27 05:29:00,84.7,66.4,29.21,South,171,2.3,2.6,54,-99.99,,,0.00,0,rob ver 1B,2013-08-27 12:29:00,
2013-08-27 05:30:00,84.7,66.3,29.21,South,173,2.1,2.2,54,-99.99,,,0.00,0,rob ver 1B,2013-08-27 12:30:00,
2013-08-27 05:31:00,79.1,67.0,29.29,East,93,2.2,2.6,66,-99.99,,,0.00,0,rob ver 1A,2013-08-27 12:31:00,
2013-08-27 05:32:00,84.7,66.2,29.21,South,185,1.8,2.1,53,-99.99,,,0.00,0,rob ver 1B,2013-08-27 12:32:00,
2013-08-27 05:33:00,84.7,66.0,29.21,South,187,1.8,2.0,53,-99.99,,,0.00,0,rob ver 1B,2013-08-27 12:33:00,
2013-08-27 05:34:00,84.7,65.9,29.21,South,187,1.7,2.0,53,-99.99,,,0.00,0,rob ver 1B,2013-08-27 12:34:00,
2013-08-27 05:35:00,84.7,65.9,29.21,South,189,1.7,1.9,53,-99.99,,,0.00,0,rob ver 1B,2013-08-27 12:35:00,
2013-08-27 05:36:00,79.0,67.0,29.29,East,94,1.9,2.4,66,-99.99,,,0.00,0,rob ver 1A,2013-08-27 12:36:00,
2013-08-27 05:37:00,84.7,65.7,29.21,SSW,201,1.4,1.7,53,-99.99,,,0.00,0,rob ver 1B,2013-08-27 12:37:00,
2013-08-27 05:38:00,84.6,65.6,29.21,SSW,206,1.5,1.8,52,-99.99,,,0.00,0,rob ver 1B,2013-08-27 12:38:00,
2013-08-27 05:39:00,84.7,65.6,29.21,SSW,211,1.4,1.7,52,-99.99,,,0.00,0,rob ver 1B,2013-08-27 12:39:00,
2013-08-27 05:40:00,84.6,65.5,29.21,SSW,213,1.2,1.4,52,-99.99,,,0.00,0,rob ver 1B,2013-08-27 12:40:00,
2013-08-27 05:41:00,84.7,65.5,29.21,SW,217,1.1,1.2,52,-99.99,,,0.00,0,rob ver 1B,2013-08-27 12:41:00,
2013-08-27 05:42:00,79.0,67.0,29.29,ESE,115,1.6,2.0,66,-99.99,,,0.00,0,rob ver 1A,2013-08-27 12:42:00,
2013-08-27 05:43:00,84.6,65.5,29.21,SW,231,1.0,1.0,52,-99.99,,,0.00,0,rob ver 1B,2013-08-27 12:43:00,
2013-08-27 05:44:00,84.7,65.5,29.21,WSW,251,0.8,1.0,52,-99.99,,,0.00,0,rob ver 1B,2013-08-27 12:44:00,
2013-08-27 05:45:00,84.7,65.4,29.21,WSW,257,0.8,0.9,52,-99.99,,,0.00,.165,rob ver 1B,2013-08-27 12:45:00,
2013-08-27 05:46:00,84.7,65.5,29.21,West,273,0.7,0.9,52,-99.99,,,0.00,0,rob ver 1B,2013-08-27 12:46:00,
2013-08-27 05:47:00,79.0,67.0,29.29,ESE,103,0.7,0.9,66,-99.99,,,0.00,.33,rob ver 1A,2013-08-27 12:47:00,
2013-08-27 05:48:00,84.7,65.5,29.21,West,269,0.9,1.2,52,-99.99,,,0.00,.33,rob ver 1B,2013-08-27 12:48:00,
2013-08-27 05:49:00,84.7,65.4,29.21,West,259,1.1,1.2,52,-99.99,,,0.00,.33,rob ver 1B,2013-08-27 12:49:00,
2013-08-27 05:50:00,84.7,65.3,29.21,West,265,1.0,1.3,52,-99.99,,,0.00,.33,rob ver 1B,2013-08-27 12:50:00,
2013-08-27 05:51:00,84.7,65.3,29.21,West,279,1.0,1.3,52,-99.99,,,0.00,.494,rob ver 1B,2013-08-27 12:51:00,
2013-08-27 05:52:00,78.9,67.0,29.29,NE,39,1.3,1.5,66,-99.99,,,0.00,.989,rob ver 1A,2013-08-27 12:52:00,
2013-08-27 05:53:00,84.8,65.2,29.21,WNW,294,1.4,1.6,52,-99.99,,,0.00,.989,rob ver 1B,2013-08-27 12:53:00,
2013-08-27 05:54:00,84.8,65.4,29.21,WNW,297,1.5,1.7,52,-99.99,,,0.00,1.648,rob ver 1B,2013-08-27 12:54:00,
2013-08-27 05:55:00,84.9,65.6,29.21,WNW,303,1.6,1.8,52,-99.99,,,0.00,1.648,rob ver 1B,2013-08-27 12:55:00,
2013-08-27 05:56:00,84.8,65.6,29.21,NW,308,1.7,1.9,52,-99.99,,,0.00,2.307,rob ver 1B,2013-08-27 12:56:00,
2013-08-27 05:57:00,78.9,67.0,29.29,NNE,23,1.9,2.1,66,-99.99,,,0.00,3.956,rob ver 1A,2013-08-27 12:57:00,
2013-08-27 05:58:00,84.7,65.5,29.23,NW,311,2.1,2.4,52,-99.99,,,0.00,3.956,rob ver 1B,2013-08-27 12:58:00,
2013-08-27 05:59:00,84.6,65.5,29.21,NW,315,2.2,2.3,52,-99.99,,,0.00,4.945,rob ver 1B,2013-08-27 12:59:00,
2013-08-27 06:00:00,84.6,65.4,29.21,NW,315,2.3,2.4,52,-99.99,,,0.00,5.933,rob ver 1B,2013-08-27 13:00:00,
2013-08-27 06:01:00,84.6,65.3,29.21,NW,315,2.3,2.5,52,-99.99,,,0.00,7.25,rob ver 1B,2013-08-27 13:01:00,
2013-08-27 06:02:00,78.9,67.0,29.29,NNE,24,3.0,3.2,66,-99.99,,,0.00,9.56,rob ver 1A,2013-08-27 13:02:00,
2013-08-27 06:03:00,84.5,65.2,29.21,NW,310,2.2,2.5,52,-99.99,,,0.00,9.89,rob ver 1B,2013-08-27 13:03:00,
2013-08-27 06:04:00,84.5,65.2,29.21,WNW,303,2.4,2.7,52,-99.99,,,0.00,11.87,rob ver 1B,2013-08-27 13:04:00,
2013-08-27 06:05:00,84.5,65.1,29.21,WNW,295,2.2,2.7,52,-99.99,,,0.00,13.19,rob ver 1B,2013-08-27 13:05:00,
2013-08-27 06:06:00,84.6,65.2,29.21,WNW,285,2.5,3.0,52,-99.99,,,0.00,15.16,rob ver 1B,2013-08-27 13:06:00,
2013-08-27 06:07:00,78.8,66.9,29.29,NE,34,3.9,4.3,66,-99.99,,,0.00,17.8,rob ver 1A,2013-08-27 13:07:00,
2013-08-27 06:08:00,84.7,65.1,29.21,West,278,3.1,3.6,51,-99.99,,,0.00,19.78,rob ver 1B,2013-08-27 13:08:00,
2013-08-27 06:09:00,84.7,65.2,29.21,West,272,3.2,3.4,52,-99.99,,,0.00,22.42,rob ver 1B,2013-08-27 13:09:00,
2013-08-27 06:10:00,84.7,65.3,29.23,West,268,3.2,3.4,52,-99.99,,,0.00,25.05,rob ver 1B,2013-08-27 13:10:00,
2013-08-27 06:11:00,84.7,65.3,29.23,West,267,3.1,3.3,52,-99.99,,,0.00,28.35,rob ver 1B,2013-08-27 13:11:00,
2013-08-27 06:12:00,78.7,66.9,29.29,NE,43,3.6,4.2,67,-99.99,,,0.00,28.02,rob ver 1A,2013-08-27 13:12:00,
2013-08-27 06:13:00,84.6,65.4,29.21,West,259,2.9,3.3,52,-99.99,,,0.00,35.6,rob ver 1B,2013-08-27 13:13:00,
2013-08-27 06:14:00,84.5,65.4,29.23,West,262,2.5,3.0,52,-99.99,,,0.00,39.56,rob ver 1B,2013-08-27 13:14:00,
2013-08-27 06:15:00,84.5,65.4,29.23,West,266,2.2,2.7,52,-99.99,,,0.00,44.17,rob ver 1B,2013-08-27 13:15:00,
2013-08-27 06:16:00,84.4,65.4,29.23,West,276,1.9,2.5,52,-99.99,,,0.00,50.11,rob ver 1B,2013-08-27 13:16:00,
2013-08-27 06:17:00,84.5,65.4,29.23,WNW,293,1.6,2.4,52,-99.99,,,0.00,60.65,rob ver 1B,2013-08-27 13:17:00,
2013-08-27 06:18:00,78.7,66.9,29.29,NE,37,3.6,4.0,67,-99.99,,,0.00,44.84,rob ver 1A,2013-08-27 13:18:00,
2013-08-27 06:19:00,84.5,65.4,29.23,NNW,337,1.6,1.9,52,-99.99,,,0.00,77.1,rob ver 1B,2013-08-27 13:19:00,
2013-08-27 06:20:00,84.5,65.4,29.23,North,359,2.0,2.4,52,-99.99,,,0.00,84.9,rob ver 1B,2013-08-27 13:20:00,
2013-08-27 06:21:00,84.5,65.3,29.23,North,5,2.3,2.5,52,-99.99,,,0.00,91.6,rob ver 1B,2013-08-27 13:21:00,
2013-08-27 06:22:00,84.5,65.3,29.23,North,9,2.4,2.6,52,-99.99,,,0.00,98.6,rob ver 1B,2013-08-27 13:22:00,
2013-08-27 06:23:00,78.8,66.9,29.29,NE,38,4.9,5.7,66,-99.99,,,0.00,61.48,rob ver 1A,2013-08-27 13:23:00,
2013-08-27 06:24:00,84.6,65.3,29.23,North,2,1.8,2.3,52,-99.99,,,0.00,117.4,rob ver 1B,2013-08-27 13:24:00,
2013-08-27 06:25:00,84.7,65.2,29.23,North,359,1.4,1.6,52,-99.99,,,0.00,129.9,rob ver 1B,2013-08-27 13:25:00,
2013-08-27 06:26:00,84.8,65.2,29.23,North,4,1.1,1.3,51,-99.99,,,0.00,141.7,rob ver 1B,2013-08-27 13:26:00,
2013-08-27 06:27:00,84.9,65.2,29.23,North,0,0.9,1.0,51,-99.99,,,0.00,152.6,rob ver 1B,2013-08-27 13:27:00,
2013-08-27 06:28:00,78.9,66.9,29.29,NE,39,4.3,5.5,66,-99.99,,,0.00,107.1,rob ver 1A,2013-08-27 13:28:00,
2013-08-27 06:29:00,85.3,65.2,29.23,North,355,0.7,0.8,50,-99.99,,,0.00,178,rob ver 1B,2013-08-27 13:29:00,
2013-08-27 06:30:00,85.4,65.2,29.23,NNW,332,0.7,0.9,50,-99.99,,,0.00,190.5,rob ver 1B,2013-08-27 13:30:00,
2013-08-27 06:31:00,85.5,65.1,29.23,NNW,328,0.8,0.9,50,-99.99,,,0.00,203.6,rob ver 1B,2013-08-27 13:31:00,
2013-08-27 06:32:00,85.7,65.1,29.23,NW,317,0.8,1.0,50,-99.99,,,0.00,217.6,rob ver 1B,2013-08-27 13:32:00,
2013-08-27 06:33:00,78.9,66.9,29.29,NE,48,3.2,3.9,66,-99.99,,,0.00,106.2,rob ver 1A,2013-08-27 13:33:00,
2013-08-27 06:34:00,85.9,65.2,29.23,NW,322,1.2,1.4,50,-99.99,,,0.00,229.8,rob ver 1B,2013-08-27 13:34:00,
2013-08-27 06:35:00,85.9,65.2,29.23,NNW,328,1.3,1.4,50,-99.99,,,0.00,241.3,rob ver 1B,2013-08-27 13:35:00,
2013-08-27 06:36:00,85.9,65.2,29.23,NNW,341,1.3,1.5,50,-99.99,,,0.00,264.7,rob ver 1B,2013-08-27 13:36:00,
2013-08-27 06:37:00,86.0,65.3,29.23,NNW,328,0.8,1.1,49,-99.99,,,0.00,276.2,rob ver 1B,2013-08-27 13:37:00,
2013-08-27 06:38:00,79.1,66.9,29.29,NE,46,3.0,4.0,66,-99.99,,,0.00,250.2,rob ver 1A,2013-08-27 13:38:00,
2013-08-27 06:39:00,86.2,65.2,29.23,WNW,291,0.7,0.8,49,-99.99,,,0.00,294,rob ver 1B,2013-08-27 13:39:00,
2013-08-27 06:40:00,86.3,65.1,29.23,West,269,0.7,1.0,49,-99.99,,,0.00,299.3,rob ver 1B,2013-08-27 13:40:00,
2013-08-27 06:41:00,86.4,65.2,29.23,WSW,252,0.9,1.3,49,-99.99,,,0.00,335.6,rob ver 1B,2013-08-27 13:41:00,
2013-08-27 06:42:00,86.5,65.2,29.23,West,274,0.9,1.1,49,-99.99,,,0.00,343.5,rob ver 1B,2013-08-27 13:42:00,
2013-08-27 06:43:00,79.6,67.0,29.29,NNE,33,2.3,2.8,65,-99.99,,,0.00,391.3,rob ver 1A,2013-08-27 13:43:00,
2013-08-27 06:44:00,86.6,65.2,29.23,WNW,283,1.0,1.4,49,-99.99,,,0.00,311.2,rob ver 1B,2013-08-27 13:44:00,
2013-08-27 06:45:00,86.6,65.2,29.23,WNW,297,1.0,1.2,49,-99.99,,,0.00,351.4,rob ver 1B,2013-08-27 13:45:00,
2013-08-27 06:46:00,86.6,65.2,29.23,NW,319,1.1,1.4,49,-99.99,,,0.00,413.4,rob ver 1B,2013-08-27 13:46:00,
2013-08-27 06:47:00,86.5,65.2,29.23,NNW,348,1.3,1.6,49,-99.99,,,0.00,437.1,rob ver 1B,2013-08-27 13:47:00,
2013-08-27 06:48:00,80.2,67.0,29.29,NNE,20,2.1,2.9,64,-99.99,,,0.00,517.4,rob ver 1A,2013-08-27 13:48:00,
2013-08-27 06:49:00,86.2,64.8,29.23,North,10,2.4,2.7,49,-99.99,,,0.00,470.1,rob ver 1B,2013-08-27 13:49:00,
2013-08-27 06:50:00,86.1,64.9,29.23,North,9,2.6,2.9,49,-99.99,,,0.00,486.1,rob ver 1B,2013-08-27 13:50:00,
2013-08-27 06:51:00,86.1,65.0,29.23,North,8,2.4,2.7,49,-99.99,,,0.00,503.7,rob ver 1B,2013-08-27 13:51:00,
2013-08-27 06:52:00,86.1,65.2,29.23,North,2,2.1,2.4,49,-99.99,,,0.00,520.5,rob ver 1B,2013-08-27 13:52:00,
2013-08-27 06:53:00,80.7,67.1,29.29,NE,44,2.1,2.8,63,-99.99,,,0.00,637.3,rob ver 1A,2013-08-27 13:53:00,
2013-08-27 06:54:00,86.4,65.4,29.23,NNW,344,1.3,1.7,49,-99.99,,,0.00,555.1,rob ver 1B,2013-08-27 13:54:00,
2013-08-27 06:55:00,86.6,65.3,29.23,NNW,338,1.5,1.7,48,-99.99,,,0.00,572.6,rob ver 1B,2013-08-27 13:55:00,
2013-08-27 06:56:00,86.8,65.2,29.23,NW,322,1.7,2.0,48,-99.99,,,0.00,588.8,rob ver 1B,2013-08-27 13:56:00,
2013-08-27 06:57:00,86.9,65.2,29.23,NNW,327,1.7,1.8,48,-99.99,,,0.00,603.9,rob ver 1B,2013-08-27 13:57:00,
2013-08-27 06:58:00,86.9,65.1,29.23,NNW,328,1.7,2.0,48,-99.99,,,0.00,619.1,rob ver 1B,2013-08-27 13:58:00,
2013-08-27 06:59:00,81.1,66.9,29.29,NNE,19,1.9,2.2,62,-99.99,,,0.00,747,rob ver 1A,2013-08-27 13:59:00,
2013-08-27 07:00:00,86.9,65.1,29.23,NNW,339,1.8,2.1,48,-99.99,,,0.00,651.4,rob ver 1B,2013-08-27 14:00:00,
2013-08-27 07:01:00,87.0,65.1,29.23,NNW,343,2.0,2.3,48,-99.99,,,0.00,672.5,rob ver 1B,2013-08-27 14:01:00,
2013-08-27 07:02:00,86.9,65.3,29.23,NNW,345,1.9,2.3,48,-99.99,,,0.00,690.9,rob ver 1B,2013-08-27 14:02:00,
2013-08-27 07:03:00,87.0,65.3,29.23,North,353,2.2,2.5,48,-99.99,,,0.00,709,rob ver 1B,2013-08-27 14:03:00,
2013-08-27 07:04:00,81.8,67.0,29.29,NNW,329,1.8,2.1,61,-99.99,,,0.00,838,rob ver 1A,2013-08-27 14:04:00,
2013-08-27 07:05:00,87.1,65.3,29.23,North,5,1.9,2.2,48,-99.99,,,0.00,747,rob ver 1B,2013-08-27 14:05:00,
2013-08-27 07:06:00,87.1,65.3,29.23,North,7,1.9,2.4,48,-99.99,,,0.00,763,rob ver 1B,2013-08-27 14:06:00,
2013-08-27 07:07:00,87.2,65.3,29.26,North,10,1.9,2.2,48,-99.99,,,0.00,781,rob ver 1B,2013-08-27 14:07:00,
2013-08-27 07:08:00,87.3,65.3,29.26,NNE,12,1.7,2.0,48,-99.99,,,0.00,802,rob ver 1B,2013-08-27 14:08:00,
2013-08-27 07:09:00,82.1,67.2,29.29,NW,312,1.5,2.1,60,-99.99,,,0.00,907,rob ver 1A,2013-08-27 14:09:00,
2013-08-27 07:10:00,87.6,65.3,29.23,NNE,19,1.6,1.9,47,-99.99,,,0.00,838,rob ver 1B,2013-08-27 14:10:00,
2013-08-27 07:11:00,87.7,65.3,29.26,NNE,29,1.6,1.9,47,-99.99,,,0.00,856,rob ver 1B,2013-08-27 14:11:00,
2013-08-27 07:12:00,87.9,65.3,29.26,NNE,19,1.5,2.0,47,-99.99,,,0.00,871,rob ver 1B,2013-08-27 14:12:00,
2013-08-27 07:13:00,88.0,65.3,29.23,NNE,13,1.4,1.8,46,-99.99,,,0.00,892,rob ver 1B,2013-08-27 14:13:00,
2013-08-27 07:14:00,82.5,67.3,29.29,WNW,294,2.4,3.0,60,-99.99,,,0.00,1011,rob ver 1A,2013-08-27 14:14:00,
2013-08-27 07:15:00,88.5,65.4,29.26,North,2,1.1,1.3,46,-99.99,,,0.00,938,rob ver 1B,2013-08-27 14:15:00,
2013-08-27 07:16:00,88.7,65.3,29.26,NNW,345,1.0,1.3,45,-99.99,,,0.00,954,rob ver 1B,2013-08-27 14:16:00,
2013-08-27 07:17:00,88.9,65.3,29.26,NNW,343,1.4,1.6,45,-99.99,,,0.00,972,rob ver 1B,2013-08-27 14:17:00,
2013-08-27 07:18:00,88.9,65.2,29.26,North,357,1.5,2.1,45,-99.99,,,0.00,996,rob ver 1B,2013-08-27 14:18:00,
2013-08-27 07:19:00,82.3,67.2,29.29,WNW,291,2.6,3.1,60,-99.99,,,0.00,1115,rob ver 1A,2013-08-27 14:19:00,
2013-08-27 07:20:00,88.8,65.2,29.26,North,359,2.4,2.7,45,-99.99,,,0.00,1047,rob ver 1B,2013-08-27 14:20:00,
2013-08-27 07:21:00,88.8,65.2,29.26,North,352,2.3,2.7,45,-99.99,,,0.00,1081,rob ver 1B,2013-08-27 14:21:00,
2013-08-27 07:22:00,88.8,65.3,29.26,NNW,340,1.9,2.2,45,-99.99,,,0.00,1110,rob ver 1B,2013-08-27 14:22:00,
2013-08-27 07:23:00,88.9,65.2,29.26,NW,326,1.3,1.7,45,-99.99,,,0.00,1138,rob ver 1B,2013-08-27 14:23:00,
2013-08-27 07:24:00,82.3,67.0,29.29,NW,320,3.3,4.3,59,-99.99,,,0.00,1227,rob ver 1A,2013-08-27 14:24:00,
2013-08-27 07:25:00,89.5,65.4,29.26,WNW,283,1.3,1.7,44,-99.99,,,0.00,1193,rob ver 1B,2013-08-27 14:25:00,
2013-08-27 07:26:00,89.6,65.4,29.26,WSW,258,1.6,2.6,44,-99.99,,,0.00,1217,rob ver 1B,2013-08-27 14:26:00,
2013-08-27 07:27:00,89.6,65.4,29.26,WSW,254,2.5,3.0,44,-99.99,,,0.00,1241,rob ver 1B,2013-08-27 14:27:00,
2013-08-27 07:28:00,89.5,65.6,29.26,WSW,249,2.7,3.0,45,-99.99,,,0.00,1264,rob ver 1B,2013-08-27 14:28:00,
2013-08-27 07:29:00,82.1,67.0,29.29,NW,315,2.5,3.2,60,-99.99,,,0.00,1342,rob ver 1A,2013-08-27 14:29:00,
2013-08-27 07:30:00,89.4,65.6,29.26,SW,232,3.2,3.8,45,-99.99,,,0.00,1310,rob ver 1B,2013-08-27 14:30:00,
2013-08-27 07:31:00,89.4,65.7,29.26,SW,228,3.2,3.6,45,-99.99,,,0.00,1332,rob ver 1B,2013-08-27 14:31:00,
2013-08-27 07:32:00,89.4,65.4,29.26,WSW,240,3.5,3.8,45,-99.99,,,0.00,1350,rob ver 1B,2013-08-27 14:32:00,
2013-08-27 07:33:00,89.4,65.6,29.26,SW,221,3.4,4.0,45,-99.99,,,0.00,1368,rob ver 1B,2013-08-27 14:33:00,
2013-08-27 07:34:00,82.4,67.2,29.29,WNW,290,3.2,4.7,59,-99.99,,,0.00,1441,rob ver 1A,2013-08-27 14:34:00,
2013-08-27 07:35:00,89.6,65.6,29.26,SW,223,3.2,4.0,44,-99.99,,,0.00,1405,rob ver 1B,2013-08-27 14:35:00,
2013-08-27 07:36:00,89.6,65.5,29.26,SW,217,3.5,4.1,44,-99.99,,,0.00,1426,rob ver 1B,2013-08-27 14:36:00,
2013-08-27 07:37:00,89.7,65.4,29.26,SW,220,3.1,3.6,44,-99.99,,,0.00,1440,rob ver 1B,2013-08-27 14:37:00,
2013-08-27 07:38:00,89.8,65.5,29.26,SSW,198,2.9,3.2,44,-99.99,,,0.00,1462,rob ver 1B,2013-08-27 14:38:00,
2013-08-27 07:39:00,90.0,65.5,29.26,SSW,205,2.6,3.3,44,-99.99,,,0.00,1482,rob ver 1B,2013-08-27 14:39:00,
2013-08-27 07:40:00,82.6,67.2,29.29,NW,308,3.5,4.6,59,-99.99,,,0.00,1588,rob ver 1A,2013-08-27 14:40:00,
2013-08-27 07:41:00,90.3,65.6,29.26,South,181,2.1,2.7,43,-99.99,,,0.00,1527,rob ver 1B,2013-08-27 14:41:00,
2013-08-27 07:42:00,90.5,65.5,29.26,South,170,2.0,2.4,43,-99.99,,,0.00,1556,rob ver 1B,2013-08-27 14:42:00,
2013-08-27 07:43:00,90.6,65.4,29.26,SSE,166,2.1,2.8,43,-99.99,,,0.00,1580,rob ver 1B,2013-08-27 14:43:00,
2013-08-27 07:44:00,90.6,65.4,29.26,South,175,2.1,2.7,43,-99.99,,,0.00,1604,rob ver 1B,2013-08-27 14:44:00,
2013-08-27 07:45:00,82.9,67.3,29.29,West,280,3.2,4.3,59,-99.99,,,0.00,1722,rob ver 1A,2013-08-27 14:45:00,
2013-08-27 07:46:00,90.8,65.5,29.26,SSE,159,1.6,2.3,43,-99.99,,,0.00,1644,rob ver 1B,2013-08-27 14:46:00,
2013-08-27 07:47:00,90.8,65.5,29.26,SSE,159,1.4,2.1,42,-99.99,,,0.00,1666,rob ver 1B,2013-08-27 14:47:00,
2013-08-27 07:48:00,91.0,65.3,29.26,South,182,1.8,2.4,42,-99.99,,,0.00,1687,rob ver 1B,2013-08-27 14:48:00,
2013-08-27 07:49:00,91.2,65.3,29.26,South,188,1.3,1.9,42,-99.99,,,0.00,1706,rob ver 1B,2013-08-27 14:49:00,
2013-08-27 07:50:00,83.4,67.2,29.29,WSW,250,4.3,5.1,58,-99.99,,,0.00,1898,rob ver 1A,2013-08-27 14:50:00,
2013-08-27 07:51:00,91.6,65.1,29.26,SE,130,1.3,1.8,41,-99.99,,,0.00,1753,rob ver 1B,2013-08-27 14:51:00,
2013-08-27 07:52:00,91.5,65.2,29.26,SE,141,1.0,1.7,41,-99.99,,,0.00,1776,rob ver 1B,2013-08-27 14:52:00,
2013-08-27 07:53:00,91.7,65.2,29.26,SE,131,0.3,0.6,41,-99.99,,,0.00,1801,rob ver 1B,2013-08-27 14:53:00,
2013-08-27 07:54:00,92.0,65.0,29.26,SSE,149,1.3,1.9,40,-99.99,,,0.00,1828,rob ver 1B,2013-08-27 14:54:00,
2013-08-27 07:55:00,83.4,67.1,29.29,WSW,248,5.1,6.2,57,-99.99,,,0.00,2119,rob ver 1A,2013-08-27 14:55:00,
2013-08-27 07:56:00,92.3,65.2,29.26,SSE,160,1.5,2.3,40,-99.99,,,0.00,1880,rob ver 1B,2013-08-27 14:56:00,
2013-08-27 07:57:00,92.5,65.0,29.26,South,187,1.9,2.6,40,-99.99,,,0.00,1909,rob ver 1B,2013-08-27 14:57:00,
2013-08-27 07:58:00,92.6,65.1,29.26,SW,215,2.0,2.9,40,-99.99,,,0.00,1935,rob ver 1B,2013-08-27 14:58:00,
2013-08-27 07:59:00,92.6,64.8,29.26,SSW,210,2.3,3.2,39,-99.99,,,0.00,1962,rob ver 1B,2013-08-27 14:59:00,
2013-08-27 08:00:00,83.6,67.1,29.29,WSW,251,4.9,6.4,57,-99.99,,,0.00,2133,rob ver 1A,2013-08-27 15:00:00,
2013-08-27 08:01:00,92.3,64.6,29.26,SW,222,2.8,3.8,40,-99.99,,,0.00,2012,rob ver 1B,2013-08-27 15:01:00,
2013-08-27 08:02:00,92.3,64.6,29.26,SW,234,2.7,3.6,40,-99.99,,,0.00,2038,rob ver 1B,2013-08-27 15:02:00,
2013-08-27 08:03:00,92.3,64.6,29.26,WSW,239,2.1,3.1,39,-99.99,,,0.00,2060,rob ver 1B,2013-08-27 15:03:00,
2013-08-27 08:04:00,92.3,64.6,29.26,WSW,246,1.8,2.5,40,-99.99,,,0.00,2084,rob ver 1B,2013-08-27 15:04:00,
2013-08-27 08:05:00,83.8,66.7,29.29,West,273,5.8,6.8,56,-99.99,,,0.00,2266,rob ver 1A,2013-08-27 15:05:00,
2013-08-27 08:06:00,92.3,63.9,29.26,SW,224,3.7,4.6,39,-99.99,,,0.00,2129,rob ver 1B,2013-08-27 15:06:00,
2013-08-27 08:07:00,92.3,64.0,29.26,SW,215,3.4,4.3,39,-99.99,,,0.00,2150,rob ver 1B,2013-08-27 15:07:00,
2013-08-27 08:08:00,92.4,63.3,29.26,SW,219,2.6,3.7,38,-99.99,,,0.00,2178,rob ver 1B,2013-08-27 15:08:00,
2013-08-27 08:09:00,92.5,63.4,29.26,SW,221,3.3,4.0,38,-99.99,,,0.00,2204,rob ver 1B,2013-08-27 15:09:00,
2013-08-27 08:10:00,84.0,66.4,29.29,West,262,5.7,7.3,54,-99.99,,,0.00,2469,rob ver 1A,2013-08-27 15:10:00,
2013-08-27 08:11:00,92.6,63.6,29.26,SW,233,4.0,4.7,38,-99.99,,,0.00,2248,rob ver 1B,2013-08-27 15:11:00,
2013-08-27 08:12:00,92.4,63.4,29.26,WSW,242,3.4,4.1,38,-99.99,,,0.00,2266,rob ver 1B,2013-08-27 15:12:00,
2013-08-27 08:13:00,92.4,63.5,29.26,WSW,241,3.1,4.0,38,-99.99,,,0.00,2287,rob ver 1B,2013-08-27 15:13:00,
2013-08-27 08:14:00,92.4,63.4,29.26,SW,231,2.4,3.9,38,-99.99,,,0.00,2307,rob ver 1B,2013-08-27 15:14:00,
2013-08-27 08:15:00,84.3,66.5,29.29,West,269,5.8,8.1,54,-99.99,,,0.00,0,rob ver 1A,2013-08-27 15:15:00,
2013-08-27 08:16:00,92.8,63.7,29.26,SW,233,2.4,3.4,37,-99.99,,,0.00,2362,rob ver 1B,2013-08-27 15:16:00,
2013-08-27 08:17:00,92.9,63.7,29.26,WSW,242,2.4,3.5,38,-99.99,,,0.00,2390,rob ver 1B,2013-08-27 15:17:00,
2013-08-27 08:18:00,92.9,63.7,29.26,West,259,3.3,5.1,37,-99.99,,,0.00,2416,rob ver 1B,2013-08-27 15:18:00,
2013-08-27 08:19:00,92.8,63.6,29.26,WSW,243,3.5,4.9,37,-99.99,,,0.00,2440,rob ver 1B,2013-08-27 15:19:00,
2013-08-27 08:20:00,92.7,62.8,29.26,WSW,245,4.8,5.3,37,-99.99,,,0.00,2463,rob ver 1B,2013-08-27 15:20:00,
2013-08-27 08:21:00,84.5,66.4,29.32,West,264,4.1,5.6,54,-99.99,,,0.00,0,rob ver 1A,2013-08-27 15:21:00,
2013-08-27 08:22:00,92.5,63.0,29.26,SW,227,3.4,4.7,37,-99.99,,,0.00,2515,rob ver 1B,2013-08-27 15:22:00,
2013-08-27 08:23:00,92.6,62.8,29.26,WSW,250,4.9,6.5,37,-99.99,,,0.00,2539,rob ver 1B,2013-08-27 15:23:00,
2013-08-27 08:24:00,92.6,62.6,29.26,West,262,5.1,6.8,36,-99.99,,,0.00,2565,rob ver 1B,2013-08-27 15:24:00,
2013-08-27 08:26:00,84.7,66.2,29.32,West,265,5.9,8.1,53,-99.99,,,0.00,0,rob ver 1A,2013-08-27 15:26:00,
2013-08-27 08:27:00,92.7,62.9,29.26,West,261,3.8,6.7,37,-99.99,,,0.00,2633,rob ver 1B,2013-08-27 15:27:00,
2013-08-27 08:28:00,92.7,62.5,29.26,WSW,255,5.4,6.6,37,-99.99,,,0.00,2648,rob ver 1B,2013-08-27 15:28:00,
2013-08-27 08:29:00,92.7,62.8,29.26,WSW,257,4.8,6.0,37,-99.99,,,0.00,2682,rob ver 1B,2013-08-27 15:29:00,
2013-08-27 08:30:00,92.7,62.8,29.26,WNW,293,5.1,6.7,37,-99.99,,,0.00,0,rob ver 1B,2013-08-27 15:30:00,
2013-08-27 08:31:00,85.0,66.3,29.32,West,264,5.2,6.9,53,-99.99,,,0.00,2523,rob ver 1A,2013-08-27 15:31:00,
2013-08-27 08:32:00,92.6,62.7,29.26,WNW,283,4.7,6.7,36,-99.99,,,0.00,0,rob ver 1B,2013-08-27 15:32:00,
2013-08-27 08:33:00,92.7,62.9,29.26,WNW,285,6.1,7.4,37,-99.99,,,0.00,0,rob ver 1B,2013-08-27 15:33:00,
2013-08-27 08:34:00,92.8,63.1,29.26,WSW,258,5.4,7.0,37,-99.99,,,0.00,0,rob ver 1B,2013-08-27 15:34:00,
2013-08-27 08:35:00,92.9,63.0,29.26,WSW,256,5.6,8.1,37,-99.99,,,0.00,0,rob ver 1B,2013-08-27 15:35:00,
2013-08-27 08:36:00,84.7,66.3,29.32,West,267,6.8,9.0,54,-99.99,,,0.00,0,rob ver 1A,2013-08-27 15:36:00,
2013-08-27 08:37:00,92.8,62.8,29.26,WNW,285,5.7,6.9,37,-99.99,,,0.00,0,rob ver 1B,2013-08-27 15:37:00,
2013-08-27 08:38:00,92.8,62.9,29.26,WNW,283,5.3,6.7,36,-99.99,,,0.00,0,rob ver 1B,2013-08-27 15:38:00,
2013-08-27 08:39:00,92.9,62.9,29.26,WNW,282,4.9,5.9,36,-99.99,,,0.00,0,rob ver 1B,2013-08-27 15:39:00,
2013-08-27 08:40:00,92.9,62.7,29.26,WNW,287,4.7,5.8,36,-99.99,,,0.00,0,rob ver 1B,2013-08-27 15:40:00,
2013-08-27 08:41:00,85.3,66.3,29.32,WNW,299,6.5,7.9,52,-99.99,,,0.00,0,rob ver 1A,2013-08-27 15:41:00,
2013-08-27 08:42:00,93.2,62.5,29.26,WNW,293,5.7,7.2,36,-99.99,,,0.00,0,rob ver 1B,2013-08-27 15:42:00,
2013-08-27 08:43:00,93.1,62.6,29.26,West,275,5.3,6.8,36,-99.99,,,0.00,0,rob ver 1B,2013-08-27 15:43:00,
2013-08-27 08:44:00,93.1,62.8,29.26,West,277,5.1,6.4,36,-99.99,,,0.00,0,rob ver 1B,2013-08-27 15:44:00,
2013-08-27 08:45:00,93.3,62.0,29.26,WNW,291,5.6,7.6,35,-99.99,,,0.00,0,rob ver 1B,2013-08-27 15:45:00,
2013-08-27 08:46:00,85.4,66.2,29.32,WSW,258,8.0,9.7,52,-99.99,,,0.00,0,rob ver 1A,2013-08-27 15:46:00,
2013-08-27 08:47:00,93.5,62.0,29.26,WNW,289,5.8,8.0,35,-99.99,,,0.00,0,rob ver 1B,2013-08-27 15:47:00,
2013-08-27 08:48:00,93.5,62.2,29.26,West,260,5.1,7.0,35,-99.99,,,0.00,0,rob ver 1B,2013-08-27 15:48:00,
2013-08-27 08:49:00,93.5,62.2,29.26,WSW,254,5.1,6.3,35,-99.99,,,0.00,0,rob ver 1B,2013-08-27 15:49:00,
2013-08-27 08:50:00,93.6,62.2,29.26,West,268,4.9,5.8,35,-99.99,,,0.00,0,rob ver 1B,2013-08-27 15:50:00,
2013-08-27 08:51:00,85.5,66.5,29.29,West,268,6.0,7.8,53,-99.99,,,0.00,0,rob ver 1A,2013-08-27 15:51:00,
2013-08-27 08:52:00,93.6,62.0,29.26,West,266,4.9,7.0,34,-99.99,,,0.00,0,rob ver 1B,2013-08-27 15:52:00,
2013-08-27 08:53:00,93.6,61.7,29.26,West,281,6.9,8.7,35,-99.99,,,0.00,0,rob ver 1B,2013-08-27 15:53:00,
2013-08-27 08:54:00,93.6,61.7,29.26,West,272,6.6,8.4,34,-99.99,,,0.00,0,rob ver 1B,2013-08-27 15:54:00,
2013-08-27 08:55:00,93.7,61.7,29.26,West,262,5.1,8.5,34,-99.99,,,0.00,0,rob ver 1B,2013-08-27 15:55:00,
2013-08-27 08:56:00,85.6,66.7,29.29,West,265,7.6,10.0,53,-99.99,,,0.00,0,rob ver 1A,2013-08-27 15:56:00,
2013-08-27 08:57:00,93.8,61.6,29.26,WNW,293,6.7,8.3,34,-99.99,,,0.00,0,rob ver 1B,2013-08-27 15:57:00,
2013-08-27 08:58:00,93.8,61.6,29.26,WNW,295,4.9,6.4,34,-99.99,,,0.00,0,rob ver 1B,2013-08-27 15:58:00,
2013-08-27 08:59:00,93.8,61.8,29.26,WNW,288,4.4,6.8,34,-99.99,,,0.00,0,rob ver 1B,2013-08-27 15:59:00,
2013-08-27 09:00:00,94.0,61.7,29.26,WNW,289,5.5,7.2,33,-99.99,,,0.00,0,rob ver 1B,2013-08-27 16:00:00,
2013-08-27 09:01:00,85.6,66.8,29.29,West,269,7.3,10.9,53,-99.99,,,0.00,2265,rob ver 1A,2013-08-27 16:01:00,
2013-08-27 09:02:00,94.3,61.5,29.26,NW,318,3.7,4.5,33,-99.99,,,0.00,0,rob ver 1B,2013-08-27 16:02:00,
2013-08-27 09:03:00,94.5,61.6,29.26,West,270,4.8,6.0,33,-99.99,,,0.00,0,rob ver 1B,2013-08-27 16:03:00,
2013-08-27 09:04:00,94.5,61.7,29.26,West,268,4.5,6.1,33,-99.99,,,0.00,0,rob ver 1B,2013-08-27 16:04:00,
2013-08-27 09:05:00,94.5,61.8,29.26,WSW,257,5.6,8.1,33,-99.99,,,0.00,0,rob ver 1B,2013-08-27 16:05:00,
2013-08-27 09:06:00,85.7,66.8,29.32,West,277,5.9,7.5,52,-99.99,,,0.00,0,rob ver 1A,2013-08-27 16:06:00,
2013-08-27 09:07:00,94.4,61.8,29.26,West,272,4.7,7.4,34,-99.99,,,0.00,0,rob ver 1B,2013-08-27 16:07:00,
2013-08-27 09:08:00,94.4,61.8,29.26,West,276,4.0,6.4,33,-99.99,,,0.00,0,rob ver 1B,2013-08-27 16:08:00,
2013-08-27 09:09:00,94.5,61.7,29.26,WNW,303,3.3,5.4,33,-99.99,,,0.00,0,rob ver 1B,2013-08-27 16:09:00,
2013-08-27 09:10:00,94.7,61.7,29.26,West,275,4.4,7.8,33,-99.99,,,0.00,0,rob ver 1B,2013-08-27 16:10:00,
2013-08-27 09:11:00,94.8,61.6,29.26,WNW,284,6.6,7.9,33,-99.99,,,0.00,0,rob ver 1B,2013-08-27 16:11:00,
2013-08-27 09:12:00,86.4,66.7,29.32,NW,305,5.0,6.2,52,-99.99,,,0.00,0,rob ver 1A,2013-08-27 16:12:00,
2013-08-27 09:13:00,95.0,61.4,29.26,WNW,292,5.4,6.7,33,-99.99,,,0.00,0,rob ver 1B,2013-08-27 16:13:00,
2013-08-27 09:14:00,94.9,61.5,29.26,West,268,5.1,6.7,33,-99.99,,,0.00,0,rob ver 1B,2013-08-27 16:14:00,
2013-08-27 09:15:00,94.8,61.7,29.26,West,273,4.6,6.6,33,-99.99,,,0.00,0,rob ver 1B,2013-08-27 16:15:00,
2013-08-27 09:16:00,95.0,61.7,29.26,WNW,283,4.2,7.2,33,-99.99,,,0.00,0,rob ver 1B,2013-08-27 16:16:00,
2013-08-27 09:17:00,86.6,66.6,29.32,WSW,251,8.3,10.5,52,-99.99,,,0.00,0,rob ver 1A,2013-08-27 16:17:00,
2013-08-27 09:18:00,95.3,61.3,29.26,NW,306,5.2,7.7,32,-99.99,,,0.00,0,rob ver 1B,2013-08-27 16:18:00,
2013-08-27 09:19:00,95.3,61.4,29.26,NW,310,4.3,8.1,32,-99.99,,,0.00,0,rob ver 1B,2013-08-27 16:19:00,
2013-08-27 09:20:00,95.3,61.3,29.26,WNW,297,5.5,7.8,32,-99.99,,,0.00,0,rob ver 1B,2013-08-27 16:20:00,
2013-08-27 09:21:00,95.4,61.4,29.26,WNW,291,4.9,6.9,32,-99.99,,,0.00,0,rob ver 1B,2013-08-27 16:21:00,
2013-08-27 09:22:00,86.7,66.2,29.32,WNW,288,7.1,9.6,50,-99.99,,,0.00,0,rob ver 1A,2013-08-27 16:22:00,
2013-08-27 09:23:00,95.7,61.6,29.26,WNW,298,3.0,4.5,32,-99.99,,,0.00,0,rob ver 1B,2013-08-27 16:23:00,
2013-08-27 09:24:00,96.0,61.5,29.26,NW,312,4.2,6.0,31,-99.99,,,0.00,0,rob ver 1B,2013-08-27 16:24:00,
2013-08-27 09:25:00,96.1,61.4,29.26,WNW,287,5.2,6.6,32,-99.99,,,0.00,0,rob ver 1B,2013-08-27 16:25:00,
2013-08-27 09:26:00,96.0,61.4,29.26,WNW,290,5.7,8.2,31,-99.99,,,0.00,0,rob ver 1B,2013-08-27 16:26:00,
2013-08-27 09:27:00,87.0,66.3,29.32,WNW,284,7.7,11.0,50,-99.99,,,0.00,0,rob ver 1A,2013-08-27 16:27:00,
2013-08-27 09:28:00,95.8,61.4,29.26,West,279,1.8,3.4,32,-99.99,,,0.00,0,rob ver 1B,2013-08-27 16:28:00,
2013-08-27 09:29:00,96.1,61.5,29.26,West,262,3.2,6.1,32,-99.99,,,0.00,0,rob ver 1B,2013-08-27 16:29:00,
2013-08-27 09:30:00,96.2,61.5,29.26,West,267,7.5,10.3,31,-99.99,,,0.00,0,rob ver 1B,2013-08-27 16:30:00,
2013-08-27 09:31:00,96.4,61.4,29.26,West,266,8.1,10.2,31,-99.99,,,0.00,0,rob ver 1B,2013-08-27 16:31:00,
2013-08-27 09:32:00,87.4,66.0,29.32,WNW,292,7.3,10.0,48,-99.99,,,0.00,0,rob ver 1A,2013-08-27 16:32:00,
2013-08-27 09:33:00,96.1,61.4,29.26,West,281,3.5,4.6,31,-99.99,,,0.00,0,rob ver 1B,2013-08-27 16:33:00,
2013-08-27 09:34:00,96.2,61.2,29.26,West,274,7.0,9.0,31,-99.99,,,0.00,0,rob ver 1B,2013-08-27 16:34:00,
2013-08-27 09:35:00,96.1,61.2,29.26,WNW,284,4.8,6.1,31,-99.99,,,0.00,0,rob ver 1B,2013-08-27 16:35:00,
2013-08-27 09:36:00,96.1,61.2,29.26,WNW,288,5.9,7.5,31,-99.99,,,0.00,0,rob ver 1B,2013-08-27 16:36:00,
2013-08-27 09:37:00,87.5,66.0,29.32,WNW,290,6.4,8.1,48,-99.99,,,0.00,0,rob ver 1A,2013-08-27 16:37:00,
2013-08-27 09:38:00,96.1,61.2,29.26,NW,305,4.8,5.8,31,-99.99,,,0.00,0,rob ver 1B,2013-08-27 16:38:00,
2013-08-27 09:39:00,96.2,61.3,29.26,WNW,295,2.9,4.1,31,-99.99,,,0.00,0,rob ver 1B,2013-08-27 16:39:00,
2013-08-27 09:40:00,96.5,61.4,29.26,NNW,338,1.9,3.2,31,-99.99,,,0.00,0,rob ver 1B,2013-08-27 16:40:00,
2013-08-27 09:41:00,96.8,61.3,29.26,NNW,342,1.0,2.0,30,-99.99,,,0.00,0,rob ver 1B,2013-08-27 16:41:00,
2013-08-27 09:42:00,87.9,65.9,29.32,West,273,5.3,8.1,47,-99.99,,,0.00,0,rob ver 1A,2013-08-27 16:42:00,
2013-08-27 09:43:00,97.6,61.2,29.26,WSW,257,4.8,6.3,30,-99.99,,,0.00,0,rob ver 1B,2013-08-27 16:43:00,
2013-08-27 09:44:00,97.5,61.4,29.26,West,266,2.1,3.3,30,-99.99,,,0.00,0,rob ver 1B,2013-08-27 16:44:00,
2013-08-27 09:45:00,97.6,61.2,29.29,West,281,4.7,6.8,30,-99.99,,,0.00,0,rob ver 1B,2013-08-27 16:45:00,
2013-08-27 09:46:00,97.5,61.2,29.26,WNW,295,3.7,5.1,30,-99.99,,,0.00,0,rob ver 1B,2013-08-27 16:46:00,
2013-08-27 09:47:00,88.0,66.1,29.32,WSW,254,4.9,6.8,48,-99.99,,,0.00,0,rob ver 1A,2013-08-27 16:47:00,
2013-08-27 09:48:00,97.5,61.2,29.26,NW,320,1.2,2.9,30,-99.99,,,0.00,0,rob ver 1B,2013-08-27 16:48:00,
2013-08-27 09:49:00,97.8,61.3,29.26,WNW,300,1.4,3.1,29,-99.99,,,0.00,0,rob ver 1B,2013-08-27 16:49:00,
2013-08-27 09:50:00,98.2,61.0,29.29,WNW,283,1.6,2.7,29,-99.99,,,0.00,0,rob ver 1B,2013-08-27 16:50:00,
2013-08-27 09:51:00,98.4,61.1,29.26,WSW,246,0.9,1.9,29,-99.99,,,0.00,0,rob ver 1B,2013-08-27 16:51:00,
2013-08-27 09:52:00,88.9,65.3,29.32,WNW,293,3.7,5.2,45,-99.99,,,0.00,0,rob ver 1A,2013-08-27 16:52:00,
2013-08-27 09:53:00,98.9,61.2,29.26,NW,310,2.6,4.5,29,-99.99,,,0.00,0,rob ver 1B,2013-08-27 16:53:00,
2013-08-27 09:54:00,98.8,61.0,29.26,NW,311,4.0,5.1,28,-99.99,,,0.00,0,rob ver 1B,2013-08-27 16:54:00,
2013-08-27 09:55:00,98.5,61.1,29.29,NW,320,3.9,5.2,29,-99.99,,,0.00,0,rob ver 1B,2013-08-27 16:55:00,
2013-08-27 09:56:00,98.3,61.0,29.29,NNW,327,2.8,4.3,29,-99.99,,,0.00,0,rob ver 1B,2013-08-27 16:56:00,
2013-08-27 09:57:00,88.9,65.0,29.32,West,271,6.0,8.1,45,-99.99,,,0.00,0,rob ver 1A,2013-08-27 16:57:00,
2013-08-27 09:58:00,98.4,60.9,29.29,NW,323,3.0,4.4,28,-99.99,,,0.00,0,rob ver 1B,2013-08-27 16:58:00,
2013-08-27 09:59:00,98.6,60.5,29.29,NW,321,2.7,3.8,28,-99.99,,,0.00,0,rob ver 1B,2013-08-27 16:59:00,
2013-08-27 10:00:00,98.6,60.5,29.29,NNW,329,2.0,2.8,28,-99.99,,,0.00,0,rob ver 1B,2013-08-27 17:00:00,
2013-08-27 10:01:00,98.7,60.7,29.29,NW,314,1.6,2.6,28,-99.99,,,0.00,0,rob ver 1B,2013-08-27 17:01:00,
2013-08-27 10:02:00,99.0,60.8,29.29,WNW,290,1.2,1.9,28,-99.99,,,0.00,0,rob ver 1B,2013-08-27 17:02:00,
2013-08-27 10:03:00,89.6,65.0,29.29,WNW,284,6.6,8.3,44,-99.99,,,0.00,0,rob ver 1A,2013-08-27 17:03:00,
2013-08-27 10:04:00,99.6,61.0,29.29,West,267,1.0,2.4,27,-99.99,,,0.00,0,rob ver 1B,2013-08-27 17:04:00,
2013-08-27 10:05:00,100.0,60.8,29.29,West,266,1.3,2.1,27,-99.99,,,0.00,0,rob ver 1B,2013-08-27 17:05:00,
2013-08-27 10:06:00,100.2,61.1,29.29,WSW,251,1.2,1.8,27,-99.99,,,0.00,0,rob ver 1B,2013-08-27 17:06:00,
2013-08-27 10:07:00,100.3,61.0,29.29,WSW,248,3.2,5.0,27,-99.99,,,0.00,0,rob ver 1B,2013-08-27 17:07:00,
2013-08-27 10:08:00,89.8,64.5,29.29,West,262,7.1,9.1,43,-99.99,,,0.00,0,rob ver 1A,2013-08-27 17:08:00,
2013-08-27 10:09:00,99.5,60.9,29.29,WSW,251,3.2,4.3,28,-99.99,,,0.00,0,rob ver 1B,2013-08-27 17:09:00,
2013-08-27 10:10:00,99.3,60.9,29.29,West,265,3.6,4.8,28,-99.99,,,0.00,0,rob ver 1B,2013-08-27 17:10:00,
2013-08-27 10:11:00,99.2,60.7,29.29,WSW,251,3.3,4.5,28,-99.99,,,0.00,0,rob ver 1B,2013-08-27 17:11:00,
2013-08-27 10:12:00,99.1,60.7,29.29,West,273,2.4,3.7,28,-99.99,,,0.00,0,rob ver 1B,2013-08-27 17:12:00,
2013-08-27 10:13:00,90.4,64.2,29.29,WSW,257,4.8,7.6,41,-99.99,,,0.00,0,rob ver 1A,2013-08-27 17:13:00,
2013-08-27 10:14:00,99.0,60.6,29.29,WNW,298,3.0,4.1,28,-99.99,,,0.00,0,rob ver 1B,2013-08-27 17:14:00,
2013-08-27 10:15:00,99.1,60.5,29.29,NW,318,1.8,3.5,28,-99.99,,,0.00,0,rob ver 1B,2013-08-27 17:15:00,
2013-08-27 10:16:00,99.2,60.4,29.29,North,354,1.3,2.4,27,-99.99,,,0.00,0,rob ver 1B,2013-08-27 17:16:00,
2013-08-27 10:17:00,99.6,60.2,29.29,East,79,1.1,2.8,27,-99.99,,,0.00,0,rob ver 1B,2013-08-27 17:17:00,
2013-08-27 10:18:00,90.5,63.5,29.29,SW,234,3.0,6.3,41,-99.99,,,0.00,0,rob ver 1A,2013-08-27 17:18:00,
2013-08-27 10:19:00,100.1,60.1,29.29,East,99,1.5,2.9,27,-99.99,,,0.00,0,rob ver 1B,2013-08-27 17:19:00,
2013-08-27 10:20:00,100.2,60.2,29.29,ENE,57,1.7,3.1,26,-99.99,,,0.00,0,rob ver 1B,2013-08-27 17:20:00,
2013-08-27 10:21:00,100.4,60.2,29.29,NNW,339,2.6,4.0,26,-99.99,,,0.00,0,rob ver 1B,2013-08-27 17:21:00,
2013-08-27 10:22:00,100.7,60.3,29.29,NW,317,1.6,2.6,26,-99.99,,,0.00,0,rob ver 1B,2013-08-27 17:22:00,
2013-08-27 10:23:00,91.3,63.6,29.29,WNW,285,7.4,8.8,39,-99.99,,,0.00,0,rob ver 1A,2013-08-27 17:23:00,
2013-08-27 10:24:00,100.6,60.0,29.29,NNE,31,1.8,3.3,26,-99.99,,,0.00,0,rob ver 1B,2013-08-27 17:24:00,
2013-08-27 10:25:00,100.7,60.1,29.29,North,356,1.7,3.7,26,-99.99,,,0.00,0,rob ver 1B,2013-08-27 17:25:00,
2013-08-27 10:26:00,100.7,60.0,29.29,NNE,21,2.7,4.7,26,-99.99,,,0.00,0,rob ver 1B,2013-08-27 17:26:00,
2013-08-27 10:27:00,100.5,60.2,29.29,North,357,3.5,4.8,26,-99.99,,,0.00,0,rob ver 1B,2013-08-27 17:27:00,
2013-08-27 10:28:00,92.2,63.3,29.29,SSW,211,3.3,7.4,37,-99.99,,,0.00,0,rob ver 1A,2013-08-27 17:28:00,
2013-08-27 10:29:00,100.8,60.3,29.29,North,351,2.7,4.5,26,-99.99,,,0.00,0,rob ver 1B,2013-08-27 17:29:00,
2013-08-27 10:30:00,100.9,60.2,29.29,North,10,1.4,2.4,26,-99.99,,,0.00,0,rob ver 1B,2013-08-27 17:30:00,
2013-08-27 10:31:00,101.4,60.5,29.29,NW,305,1.3,2.9,26,-99.99,,,0.00,0,rob ver 1B,2013-08-27 17:31:00,
2013-08-27 10:32:00,101.9,60.6,29.29,WNW,283,1.4,2.8,25,-99.99,,,0.00,0,rob ver 1B,2013-08-27 17:32:00,
2013-08-27 10:33:00,92.0,63.2,29.29,West,265,8.4,9.8,38,-99.99,,,0.00,0,rob ver 1A,2013-08-27 17:33:00,
2013-08-27 10:34:00,101.8,60.2,29.29,North,11,2.4,3.4,26,-99.99,,,0.00,0,rob ver 1B,2013-08-27 17:34:00,
2013-08-27 10:35:00,101.9,60.4,29.29,NW,314,2.4,4.3,25,-99.99,,,0.00,0,rob ver 1B,2013-08-27 17:35:00,
2013-08-27 10:36:00,102.0,60.2,29.29,WSW,239,3.1,4.5,25,-99.99,,,0.00,0,rob ver 1B,2013-08-27 17:36:00,
2013-08-27 10:37:00,101.9,60.5,29.29,WSW,246,2.6,4.1,25,-99.99,,,0.00,0,rob ver 1B,2013-08-27 17:37:00,
2013-08-27 10:38:00,92.1,62.6,29.29,WNW,297,5.6,9.9,37,-99.99,,,0.00,0,rob ver 1A,2013-08-27 17:38:00,
2013-08-27 10:39:00,101.6,60.5,29.29,WSW,254,3.3,4.1,25,-99.99,,,0.00,0,rob ver 1B,2013-08-27 17:39:00,
2013-08-27 10:40:00,101.4,60.2,29.29,SW,224,3.4,4.3,26,-99.99,,,0.00,0,rob ver 1B,2013-08-27 17:40:00,
2013-08-27 10:41:00,101.3,60.2,29.29,South,191,3.6,4.5,26,-99.99,,,0.00,0,rob ver 1B,2013-08-27 17:41:00,
2013-08-27 10:42:00,101.3,60.3,29.29,South,185,1.4,2.4,26,-99.99,,,0.00,0,rob ver 1B,2013-08-27 17:42:00,
2013-08-27 10:43:00,92.3,62.7,29.29,SW,225,4.6,8.7,37,-99.99,,,0.00,0,rob ver 1A,2013-08-27 17:43:00,
2013-08-27 10:44:00,101.6,60.1,29.29,South,175,3.0,5.8,25,-99.99,,,0.00,0,rob ver 1B,2013-08-27 17:44:00,
2013-08-27 10:45:00,101.4,60.0,29.29,SSE,147,41.9,999.9,26,-99.99,,,0.00,0,rob ver 1B,2013-08-27 17:45:00,
2013-08-27 10:46:00,101.1,60.0,29.29,ESE,109,4.4,5.8,25,-99.99,,,0.00,0,rob ver 1B,2013-08-27 17:46:00,
2013-08-27 10:47:00,101.0,59.9,29.29,ESE,114,3.7,5.4,26,-99.99,,,0.00,0,rob ver 1B,2013-08-27 17:47:00,
2013-08-27 10:48:00,101.1,59.9,29.29,SE,137,3.1,6.0,25,-99.99,,,0.00,0,rob ver 1B,2013-08-27 17:48:00,
2013-08-27 10:49:00,92.7,62.5,29.29,WSW,249,7.5,10.4,37,-99.99,,,0.00,0,rob ver 1A,2013-08-27 17:49:00,
2013-08-27 10:50:00,100.9,59.8,29.29,ESE,119,4.9,6.9,26,-99.99,,,0.00,0,rob ver 1B,2013-08-27 17:50:00,
2013-08-27 10:51:00,100.5,59.9,29.29,East,85,2.6,5.1,26,-99.99,,,0.00,0,rob ver 1B,2013-08-27 17:51:00,
2013-08-27 10:52:00,100.5,59.8,29.29,East,89,3.4,6.2,26,-99.99,,,0.00,0,rob ver 1B,2013-08-27 17:52:00,
2013-08-27 10:53:00,100.5,59.6,29.29,East,99,4.0,6.1,26,-99.99,,,0.00,0,rob ver 1B,2013-08-27 17:53:00,
2013-08-27 10:54:00,93.0,62.4,29.29,NW,320,5.4,8.0,36,-99.99,,,0.00,0,rob ver 1A,2013-08-27 17:54:00,
2013-08-27 10:55:00,100.2,59.7,29.29,East,95,1.4,2.8,26,-99.99,,,0.00,0,rob ver 1B,2013-08-27 17:55:00,
2013-08-27 10:56:00,100.6,59.6,29.29,NE,53,1.1,2.4,25,-99.99,,,0.00,0,rob ver 1B,2013-08-27 17:56:00,
2013-08-27 10:57:00,100.9,59.5,29.29,ENE,62,1.8,2.6,25,-99.99,,,0.00,0,rob ver 1B,2013-08-27 17:57:00,
2013-08-27 10:58:00,101.1,59.3,29.29,East,90,3.0,5.6,25,-99.99,,,0.00,0,rob ver 1B,2013-08-27 17:58:00,
2013-08-27 10:59:00,92.9,62.2,29.29,North,10,3.5,5.6,36,-99.99,,,0.00,0,rob ver 1A,2013-08-27 17:59:00,
2013-08-27 11:00:00,100.9,59.2,29.29,ESE,118,7.6,10.2,25,-99.99,,,0.00,0,rob ver 1B,2013-08-27 18:00:00,
2013-08-27 11:01:00,101.0,59.4,29.29,East,85,7.8,12.4,25,-99.99,,,0.00,0,rob ver 1B,2013-08-27 18:01:00,
2013-08-27 11:02:00,100.7,59.3,29.29,ENE,65,4.5,7.8,25,-99.99,,,0.00,0,rob ver 1B,2013-08-27 18:02:00,
2013-08-27 11:03:00,100.8,59.2,29.29,ENE,64,4.4,7.3,25,-99.99,,,0.00,0,rob ver 1B,2013-08-27 18:03:00,
2013-08-27 11:04:00,93.9,61.5,29.29,NW,309,4.9,7.0,34,-99.99,,,0.00,0,rob ver 1A,2013-08-27 18:04:00,
2013-08-27 11:05:00,101.1,59.5,29.29,East,88,5.6,7.2,25,-99.99,,,0.00,0,rob ver 1B,2013-08-27 18:05:00,
2013-08-27 11:06:00,101.3,59.5,29.29,ENE,57,5.6,7.5,25,-99.99,,,0.00,0,rob ver 1B,2013-08-27 18:06:00,
2013-08-27 11:07:00,101.2,59.1,29.29,NNE,21,5.7,7.9,25,-99.99,,,0.00,0,rob ver 1B,2013-08-27 18:07:00,
2013-08-27 11:08:00,100.9,59.3,29.29,NE,45,5.1,7.6,25,-99.99,,,0.00,0,rob ver 1B,2013-08-27 18:08:00,
2013-08-27 11:09:00,94.3,61.6,29.29,WNW,284,6.0,9.1,33,-99.99,,,0.00,0,rob ver 1A,2013-08-27 18:09:00,
2013-08-27 11:10:00,100.8,59.4,29.29,East,84,4.2,6.0,25,-99.99,,,0.00,0,rob ver 1B,2013-08-27 18:10:00,
2013-08-27 11:11:00,101.1,59.5,29.29,East,98,3.9,5.7,25,-99.99,,,0.00,0,rob ver 1B,2013-08-27 18:11:00,
2013-08-27 11:12:00,101.4,59.5,29.29,East,84,3.0,4.5,25,-99.99,,,0.00,0,rob ver 1B,2013-08-27 18:12:00,
2013-08-27 11:13:00,101.6,59.3,29.29,SE,144,2.1,3.1,25,-99.99,,,0.00,0,rob ver 1B,2013-08-27 18:13:00,
2013-08-27 11:14:00,94.2,61.1,29.29,WNW,299,1.3,2.5,33,-99.99,,,0.00,0,rob ver 1A,2013-08-27 18:14:00,
2013-08-27 11:15:00,102.3,60.0,29.29,SSW,209,4.0,7.4,25,-99.99,,,0.00,0,rob ver 1B,2013-08-27 18:15:00,
2013-08-27 11:16:00,102.2,60.0,29.29,SW,222,4.5,6.9,25,-99.99,,,0.00,0,rob ver 1B,2013-08-27 18:16:00,
2013-08-27 11:17:00,102.2,60.1,29.29,SW,226,5.1,9.0,25,-99.99,,,0.00,0,rob ver 1B,2013-08-27 18:17:00,
2013-08-27 11:18:00,102.1,59.6,29.29,SSW,213,8.8,9.7,24,-99.99,,,0.00,0,rob ver 1B,2013-08-27 18:18:00,
2013-08-27 11:19:00,94.6,61.2,29.29,NNW,330,4.8,7.0,32,-99.99,,,0.00,0,rob ver 1A,2013-08-27 18:19:00,
2013-08-27 11:20:00,101.7,59.7,29.29,SW,224,7.4,9.6,25,-99.99,,,0.00,0,rob ver 1B,2013-08-27 18:20:00,
2013-08-27 11:21:00,101.4,59.6,29.29,SW,230,5.8,9.2,25,-99.99,,,0.00,0,rob ver 1B,2013-08-27 18:21:00,
2013-08-27 11:22:00,101.4,59.5,29.29,SW,222,7.3,11.0,25,-99.99,,,0.00,0,rob ver 1B,2013-08-27 18:22:00,
2013-08-27 11:23:00,101.4,59.4,29.29,SSW,205,5.6,10.1,25,-99.99,,,0.00,0,rob ver 1B,2013-08-27 18:23:00,
2013-08-27 11:24:00,94.5,61.1,29.29,WNW,290,5.6,8.0,33,-99.99,,,0.00,0,rob ver 1A,2013-08-27 18:24:00,
2013-08-27 11:25:00,101.8,59.4,29.29,SW,225,5.4,6.9,24,-99.99,,,0.00,0,rob ver 1B,2013-08-27 18:25:00,
2013-08-27 11:26:00,102.1,59.3,29.29,SSW,211,5.7,7.1,24,-99.99,,,0.00,0,rob ver 1B,2013-08-27 18:26:00,
2013-08-27 11:27:00,102.2,59.3,29.29,SSW,195,6.0,7.4,24,-99.99,,,0.00,0,rob ver 1B,2013-08-27 18:27:00,
2013-08-27 11:28:00,102.3,59.2,29.29,South,180,6.3,7.4,24,-99.99,,,0.00,0,rob ver 1B,2013-08-27 18:28:00,
2013-08-27 11:29:00,94.9,61.0,29.29,South,175,4.9,7.8,33,-99.99,,,0.00,0,rob ver 1A,2013-08-27 18:29:00,
2013-08-27 11:30:00,102.2,59.2,29.29,SW,226,8.6,11.4,24,-99.99,,,0.00,0,rob ver 1B,2013-08-27 18:30:00,
2013-08-27 11:31:00,102.0,59.3,29.26,WSW,240,8.0,11.1,24,-99.99,,,0.00,0,rob ver 1B,2013-08-27 18:31:00,
2013-08-27 11:32:00,101.9,59.2,29.26,WSW,247,7.1,10.0,25,-99.99,,,0.00,0,rob ver 1B,2013-08-27 18:32:00,
2013-08-27 11:33:00,101.7,59.3,29.29,West,264,7.6,10.9,25,-99.99,,,0.00,0,rob ver 1B,2013-08-27 18:33:00,
2013-08-27 11:34:00,94.9,60.9,29.29,SW,232,6.6,8.5,32,-99.99,,,0.00,0,rob ver 1A,2013-08-27 18:34:00,
2013-08-27 11:35:00,101.4,59.3,29.26,West,275,6.4,8.5,25,-99.99,,,0.00,0,rob ver 1B,2013-08-27 18:35:00,
2013-08-27 11:36:00,101.1,59.3,29.26,West,270,5.9,7.4,25,-99.99,,,0.00,0,rob ver 1B,2013-08-27 18:36:00,
2013-08-27 11:37:00,100.9,59.5,29.29,WSW,256,5.5,6.8,25,-99.99,,,0.00,0,rob ver 1B,2013-08-27 18:37:00,
2013-08-27 11:38:00,101.0,59.7,29.29,SW,232,2.3,5.1,25,-99.99,,,0.00,0,rob ver 1B,2013-08-27 18:38:00,
2013-08-27 11:39:00,95.2,60.8,29.29,South,186,4.9,7.2,32,-99.99,,,0.00,0,rob ver 1A,2013-08-27 18:39:00,
2013-08-27 11:40:00,101.4,59.5,29.29,SW,235,2.5,4.6,25,-99.99,,,0.00,0,rob ver 1B,2013-08-27 18:40:00,
2013-08-27 11:41:00,101.6,59.6,29.26,West,265,2.2,3.6,25,-99.99,,,0.00,0,rob ver 1B,2013-08-27 18:41:00,
2013-08-27 11:42:00,101.8,59.6,29.26,NW,305,0.9,2.9,24,-99.99,,,0.00,0,rob ver 1B,2013-08-27 18:42:00,
2013-08-27 11:43:00,102.1,59.5,29.26,WSW,244,2.7,4.3,24,-99.99,,,0.00,0,rob ver 1B,2013-08-27 18:43:00,
2013-08-27 11:44:00,95.1,61.4,29.29,SW,227,4.8,7.4,32,-99.99,,,0.00,0,rob ver 1A,2013-08-27 18:44:00,
2013-08-27 11:45:00,102.3,59.7,29.26,South,185,2.4,3.8,24,-99.99,,,0.00,0,rob ver 1B,2013-08-27 18:45:00,
2013-08-27 11:46:00,102.4,59.6,29.26,South,188,6.0,9.1,24,-99.99,,,0.00,0,rob ver 1B,2013-08-27 18:46:00,
2013-08-27 11:47:00,102.4,59.4,29.26,South,179,7.2,11.1,24,-99.99,,,0.00,0,rob ver 1B,2013-08-27 18:47:00,
2013-08-27 11:48:00,102.2,59.5,29.26,South,175,5.7,9.1,24,-99.99,,,0.00,0,rob ver 1B,2013-08-27 18:48:00,
2013-08-27 11:49:00,102.3,59.5,29.26,SSW,195,6.8,9.6,24,-99.99,,,0.00,0,rob ver 1B,2013-08-27 18:49:00,
2013-08-27 11:50:00,95.7,61.2,29.26,West,278,9.5,12.1,32,-99.99,,,0.00,0,rob ver 1A,2013-08-27 18:50:00,
2013-08-27 11:51:00,102.4,59.5,29.26,SSW,197,5.4,10.1,24,-99.99,,,0.00,0,rob ver 1B,2013-08-27 18:51:00,
2013-08-27 11:52:00,102.4,59.2,29.26,SW,234,10.0,12.8,24,-99.99,,,0.00,0,rob ver 1B,2013-08-27 18:52:00,
2013-08-27 11:53:00,102.1,59.2,29.26,WSW,239,7.6,10.4,24,-99.99,,,0.00,0,rob ver 1B,2013-08-27 18:53:00,
2013-08-27 11:54:00,102.0,59.3,29.26,SW,222,7.9,11.3,24,-99.99,,,0.00,0,rob ver 1B,2013-08-27 18:54:00,
2013-08-27 11:55:00,95.8,61.1,29.26,WNW,288,7.3,10.5,31,-99.99,,,0.00,0,rob ver 1A,2013-08-27 18:55:00,
2013-08-27 11:56:00,101.9,59.3,29.26,SW,217,8.2,11.5,24,-99.99,,,0.00,0,rob ver 1B,2013-08-27 18:56:00,
2013-08-27 11:57:00,101.8,59.3,29.26,SSW,203,8.0,11.5,24,-99.99,,,0.00,0,rob ver 1B,2013-08-27 18:57:00,
2013-08-27 11:58:00,102.0,59.2,29.26,South,186,8.2,9.9,24,-99.99,,,0.00,0,rob ver 1B,2013-08-27 18:58:00,
2013-08-27 11:59:00,102.0,59.3,29.26,SSW,193,7.4,9.0,24,-99.99,,,0.00,0,rob ver 1B,2013-08-27 18:59:00,
2013-08-27 12:00:00,95.9,60.9,29.26,NE,56,3.1,4.5,31,-99.99,,,0.00,0,rob ver 1A,2013-08-27 19:00:00,
2013-08-27 12:01:00,102.6,59.3,29.26,South,179,4.7,7.9,24,-99.99,,,0.00,0,rob ver 1B,2013-08-27 19:01:00,
2013-08-27 12:02:00,103.1,59.3,29.26,South,190,5.5,9.6,23,-99.99,,,0.00,0,rob ver 1B,2013-08-27 19:02:00,
2013-08-27 12:03:00,103.5,59.2,29.26,SSW,198,5.7,7.4,23,-99.99,,,0.00,0,rob ver 1B,2013-08-27 19:03:00,
2013-08-27 12:04:00,103.5,59.3,29.26,SSE,166,8.1,10.4,23,-99.99,,,0.00,0,rob ver 1B,2013-08-27 19:04:00,
2013-08-27 12:05:00,97.0,61.3,29.26,SSE,165,3.6,5.0,30,-99.99,,,0.00,0,rob ver 1A,2013-08-27 19:05:00,
2013-08-27 12:06:00,102.8,59.3,29.26,SSE,161,8.5,11.9,24,-99.99,,,0.00,0,rob ver 1B,2013-08-27 19:06:00,
2013-08-27 12:07:00,102.5,59.2,29.26,SSE,163,6.1,8.0,24,-99.99,,,0.00,0,rob ver 1B,2013-08-27 19:07:00,
2013-08-27 12:08:00,102.5,59.5,29.26,SSW,194,8.2,11.6,24,-99.99,,,0.00,0,rob ver 1B,2013-08-27 19:08:00,
2013-08-27 12:09:00,102.7,59.1,29.26,SSW,204,10.4,13.9,24,-99.99,,,0.00,0,rob ver 1B,2013-08-27 19:09:00,
2013-08-27 12:10:00,96.8,61.1,29.26,SW,221,7.6,10.0,30,-99.99,,,0.00,0,rob ver 1A,2013-08-27 19:10:00,
2013-08-27 12:11:00,102.0,59.3,29.26,SSW,206,6.9,10.1,24,-99.99,,,0.00,0,rob ver 1B,2013-08-27 19:11:00,
2013-08-27 12:12:00,102.0,59.3,29.26,SSE,165,5.0,7.8,24,-99.99,,,0.00,0,rob ver 1B,2013-08-27 19:12:00,
2013-08-27 12:13:00,102.0,59.4,29.26,SSW,200,6.1,8.5,24,-99.99,,,0.00,0,rob ver 1B,2013-08-27 19:13:00,
2013-08-27 12:14:00,102.3,59.2,29.26,SSW,205,5.0,7.0,24,-99.99,,,0.00,0,rob ver 1B,2013-08-27 19:14:00,
2013-08-27 12:15:00,96.6,60.5,29.26,SSW,213,9.3,13.0,30,-99.99,,,0.00,0,rob ver 1A,2013-08-27 19:15:00,
2013-08-27 12:16:00,102.7,59.2,29.26,NNW,337,2.3,5.1,24,-99.99,,,0.00,0,rob ver 1B,2013-08-27 19:16:00,
2013-08-27 12:17:00,102.9,59.1,29.26,North,356,4.5,6.3,23,-99.99,,,0.00,0,rob ver 1B,2013-08-27 19:17:00,
2013-08-27 12:18:00,102.7,59.3,29.26,NNE,20,3.7,6.5,24,-99.99,,,0.00,0,rob ver 1B,2013-08-27 19:18:00,
2013-08-27 12:19:00,102.5,59.6,29.26,North,3,3.1,5.0,24,-99.99,,,0.00,0,rob ver 1B,2013-08-27 19:19:00,
2013-08-27 12:20:00,97.0,60.6,29.26,SW,226,5.0,6.9,30,-99.99,,,0.00,0,rob ver 1A,2013-08-27 19:20:00,
2013-08-27 12:21:00,103.3,59.8,29.26,SSE,158,2.8,6.5,24,-99.99,,,0.00,0,rob ver 1B,2013-08-27 19:21:00,
2013-08-27 12:22:00,103.6,60.2,29.26,South,182,8.5,11.5,24,-99.99,,,0.00,0,rob ver 1B,2013-08-27 19:22:00,
2013-08-27 12:23:00,103.5,60.1,29.26,South,180,9.5,12.0,24,-99.99,,,0.00,0,rob ver 1B,2013-08-27 19:23:00,
2013-08-27 12:24:00,103.1,60.2,29.26,South,188,5.8,8.2,24,-99.99,,,0.00,0,rob ver 1B,2013-08-27 19:24:00,
2013-08-27 12:25:00,96.8,60.5,29.26,WSW,241,6.4,8.2,30,-99.99,,,0.00,0,rob ver 1A,2013-08-27 19:25:00,
2013-08-27 12:26:00,103.2,60.2,29.26,South,175,8.3,14.5,24,-99.99,,,0.00,0,rob ver 1B,2013-08-27 19:26:00,
2013-08-27 12:27:00,103.0,60.1,29.26,SSW,204,8.6,13.5,24,-99.99,,,0.00,0,rob ver 1B,2013-08-27 19:27:00,
2013-08-27 12:28:00,103.0,60.1,29.26,SSW,193,12.7,15.8,24,-99.99,,,0.00,0,rob ver 1B,2013-08-27 19:28:00,
2013-08-27 12:29:00,102.8,60.0,29.26,South,184,8.7,14.0,25,-99.99,,,0.00,0,rob ver 1B,2013-08-27 19:29:00,
2013-08-27 12:30:00,98.5,60.8,29.26,SSE,149,2.1,5.0,28,-99.99,,,0.00,0,rob ver 1A,2013-08-27 19:30:00,
2013-08-27 12:31:00,102.7,59.9,29.26,South,171,11.5,17.6,25,-99.99,,,0.00,0,rob ver 1B,2013-08-27 19:31:00,
2013-08-27 12:32:00,102.7,59.9,29.26,South,189,12.1,15.1,24,-99.99,,,0.00,0,rob ver 1B,2013-08-27 19:32:00,
2013-08-27 12:33:00,102.9,59.9,29.26,South,181,10.6,12.7,24,-99.99,,,0.00,0,rob ver 1B,2013-08-27 19:33:00,
2013-08-27 12:34:00,103.0,59.8,29.26,South,187,10.4,14.9,24,-99.99,,,0.00,0,rob ver 1B,2013-08-27 19:34:00,
2013-08-27 12:35:00,98.2,60.6,29.26,SW,229,5.4,8.9,29,-99.99,,,0.00,0,rob ver 1A,2013-08-27 19:35:00,
2013-08-27 12:36:00,102.7,59.9,29.26,SSW,194,6.4,9.5,24,-99.99,,,0.00,0,rob ver 1B,2013-08-27 19:36:00,
2013-08-27 12:37:00,102.6,60.0,29.26,SE,139,5.2,7.0,25,-99.99,,,0.00,0,rob ver 1B,2013-08-27 19:37:00,
2013-08-27 12:38:00,102.6,60.0,29.26,South,185,8.5,12.1,24,-99.99,,,0.00,0,rob ver 1B,2013-08-27 19:38:00,
2013-08-27 12:39:00,102.9,59.9,29.26,SSW,192,10.5,12.8,24,-99.99,,,0.00,0,rob ver 1B,2013-08-27 19:39:00,
2013-08-27 12:40:00,98.1,60.6,29.26,South,173,5.2,8.5,29,-99.99,,,0.00,0,rob ver 1A,2013-08-27 19:40:00,
2013-08-27 12:41:00,103.0,59.9,29.26,SSW,192,6.6,7.8,24,-99.99,,,0.00,0,rob ver 1B,2013-08-27 19:41:00,
2013-08-27 12:42:00,103.4,60.0,29.26,SE,144,7.2,9.2,24,-99.99,,,0.00,0,rob ver 1B,2013-08-27 19:42:00,
2013-08-27 12:43:00,103.9,59.8,29.26,SSE,167,8.3,13.5,23,-99.99,,,0.00,0,rob ver 1B,2013-08-27 19:43:00,
2013-08-27 12:44:00,103.7,59.7,29.26,SSE,162,9.5,12.3,24,-99.99,,,0.00,0,rob ver 1B,2013-08-27 19:44:00,
2013-08-27 12:45:00,98.3,60.5,29.26,SSE,147,8.6,13.0,29,-99.99,,,0.00,0,rob ver 1A,2013-08-27 19:45:00,
2013-08-27 12:46:00,102.8,60.0,29.26,ESE,113,3.6,6.9,24,-99.99,,,0.00,0,rob ver 1B,2013-08-27 19:46:00,
2013-08-27 12:47:00,103.0,59.9,29.26,SSE,164,5.6,13.2,24,-99.99,,,0.00,0,rob ver 1B,2013-08-27 19:47:00,
2013-08-27 12:48:00,103.4,60.0,29.26,South,189,9.1,12.5,24,-99.99,,,0.00,0,rob ver 1B,2013-08-27 19:48:00,
2013-08-27 12:49:00,103.6,60.0,29.26,South,191,6.9,10.7,24,-99.99,,,0.00,0,rob ver 1B,2013-08-27 19:49:00,
2013-08-27 12:50:00,103.7,59.7,29.26,SSW,192,12.1,18.8,23,-99.99,,,0.00,0,rob ver 1B,2013-08-27 19:50:00,
2013-08-27 12:51:00,97.1,60.5,29.26,SE,130,6.8,11.1,29,-99.99,,,0.00,0,rob ver 1A,2013-08-27 19:51:00,
2013-08-27 12:52:00,103.1,59.6,29.26,SSE,160,12.0,15.2,24,-99.99,,,0.00,0,rob ver 1B,2013-08-27 19:52:00,
2013-08-27 12:53:00,102.8,59.7,29.26,South,172,10.7,13.9,24,-99.99,,,0.00,0,rob ver 1B,2013-08-27 19:53:00,
2013-08-27 12:54:00,102.8,59.7,29.26,South,189,7.5,10.5,24,-99.99,,,0.00,0,rob ver 1B,2013-08-27 19:54:00,
2013-08-27 12:55:00,102.8,59.6,29.26,South,191,6.2,8.5,24,-99.99,,,0.00,0,rob ver 1B,2013-08-27 19:55:00,
2013-08-27 12:56:00,97.2,60.4,29.26,NE,35,3.4,6.1,29,-99.99,,,0.00,0,rob ver 1A,2013-08-27 19:56:00,
2013-08-27 12:57:00,102.8,59.5,29.26,ESE,120,6.6,9.4,24,-99.99,,,0.00,0,rob ver 1B,2013-08-27 19:57:00,
2013-08-27 12:58:00,102.7,59.5,29.26,SSE,163,5.2,7.1,24,-99.99,,,0.00,0,rob ver 1B,2013-08-27 19:58:00,
2013-08-27 12:59:00,102.8,59.5,29.26,South,184,6.3,8.8,24,-99.99,,,0.00,0,rob ver 1B,2013-08-27 19:59:00,
2013-08-27 13:00:00,103.2,59.4,29.26,South,173,3.0,4.1,23,-99.99,,,0.00,0,rob ver 1B,2013-08-27 20:00:00,
2013-08-27 13:01:00,99.4,60.4,29.26,South,176,5.9,8.0,28,-99.99,,,0.00,0,rob ver 1A,2013-08-27 20:01:00,
2013-08-27 13:02:00,104.1,59.0,29.26,SSW,204,9.4,11.2,22,-99.99,,,0.00,0,rob ver 1B,2013-08-27 20:02:00,
2013-08-27 13:03:00,104.0,58.9,29.26,SW,215,7.8,10.5,23,-99.99,,,0.00,0,rob ver 1B,2013-08-27 20:03:00,
2013-08-27 13:04:00,103.9,59.0,29.26,South,176,3.9,8.0,23,-99.99,,,0.00,0,rob ver 1B,2013-08-27 20:04:00,
2013-08-27 13:05:00,103.9,59.2,29.26,South,186,4.8,10.0,23,-99.99,,,0.00,0,rob ver 1B,2013-08-27 20:05:00,
2013-08-27 13:06:00,98.5,60.5,29.26,SSW,200,3.2,4.9,28,-99.99,,,0.00,0,rob ver 1A,2013-08-27 20:06:00,
2013-08-27 13:07:00,103.7,59.8,29.26,SSE,156,8.4,10.8,24,-99.99,,,0.00,0,rob ver 1B,2013-08-27 20:07:00,
2013-08-27 13:08:00,103.2,60.0,29.26,SSE,158,5.2,7.2,24,-99.99,,,0.00,0,rob ver 1B,2013-08-27 20:08:00,
2013-08-27 13:09:00,102.9,60.2,29.26,SSE,148,5.7,8.6,25,-99.99,,,0.00,0,rob ver 1B,2013-08-27 20:09:00,
2013-08-27 13:10:00,102.8,60.1,29.26,SE,134,4.3,7.8,24,-99.99,,,0.00,0,rob ver 1B,2013-08-27 20:10:00,
2013-08-27 13:11:00,99.0,60.2,29.26,ENE,68,4.8,6.5,28,-99.99,,,0.00,0,rob ver 1A,2013-08-27 20:11:00,
2013-08-27 13:12:00,102.5,59.5,29.26,NNE,25,3.4,7.1,24,-99.99,,,0.00,0,rob ver 1B,2013-08-27 20:12:00,
2013-08-27 13:13:00,102.3,59.1,29.23,North,3,5.3,6.8,24,-99.99,,,0.00,0,rob ver 1B,2013-08-27 20:13:00,
2013-08-27 13:14:00,102.4,59.5,29.23,NE,35,4.2,6.5,24,-99.99,,,0.00,0,rob ver 1B,2013-08-27 20:14:00,
2013-08-27 13:15:00,102.7,59.7,29.23,ESE,120,2.4,7.3,24,-99.99,,,0.00,0,rob ver 1B,2013-08-27 20:15:00,
2013-08-27 13:16:00,99.0,60.3,29.26,SW,231,3.6,6.8,27,-99.99,,,0.00,0,rob ver 1A,2013-08-27 20:16:00,
2013-08-27 13:17:00,103.5,60.3,29.26,SSW,203,5.9,9.4,24,-99.99,,,0.00,0,rob ver 1B,2013-08-27 20:17:00,
2013-08-27 13:18:00,104.0,60.4,29.23,South,184,5.5,8.5,23,-99.99,,,0.00,0,rob ver 1B,2013-08-27 20:18:00,
2013-08-27 13:19:00,104.4,60.3,29.23,SSW,203,13.2,18.6,23,-99.99,,,0.00,0,rob ver 1B,2013-08-27 20:19:00,
2013-08-27 13:20:00,104.0,60.4,29.23,SSW,205,7.5,10.9,24,-99.99,,,0.00,0,rob ver 1B,2013-08-27 20:20:00,
2013-08-27 13:21:00,98.8,60.2,29.26,SSW,193,11.3,14.4,28,-99.99,,,0.00,0,rob ver 1A,2013-08-27 20:21:00,
2013-08-27 13:22:00,104.1,60.3,29.23,SE,129,13.0,15.5,24,-99.99,,,0.00,0,rob ver 1B,2013-08-27 20:22:00,
2013-08-27 13:23:00,103.6,60.2,29.23,ESE,121,11.1,14.3,24,-99.99,,,0.00,0,rob ver 1B,2013-08-27 20:23:00,
2013-08-27 13:24:00,103.1,60.2,29.23,ESE,109,8.3,12.3,24,-99.99,,,0.00,0,rob ver 1B,2013-08-27 20:24:00,
2013-08-27 13:25:00,102.8,60.1,29.23,East,95,4.7,7.1,24,-99.99,,,0.00,0,rob ver 1B,2013-08-27 20:25:00,
2013-08-27 13:26:00,99.0,60.3,29.26,SSW,200,7.4,10.4,27,-99.99,,,0.00,0,rob ver 1A,2013-08-27 20:26:00,
2013-08-27 13:27:00,102.9,60.2,29.23,South,176,1.9,5.1,24,-99.99,,,0.00,0,rob ver 1B,2013-08-27 20:27:00,
2013-08-27 13:28:00,103.2,60.2,29.23,SSE,147,6.0,8.8,24,-99.99,,,0.00,0,rob ver 1B,2013-08-27 20:28:00,
2013-08-27 13:29:00,103.3,60.2,29.23,South,169,6.7,10.1,24,-99.99,,,0.00,0,rob ver 1B,2013-08-27 20:29:00,
2013-08-27 13:30:00,103.6,60.2,29.23,South,183,7.2,9.8,24,-99.99,,,0.00,0,rob ver 1B,2013-08-27 20:30:00,
2013-08-27 13:31:00,103.7,60.1,29.23,South,172,8.4,11.4,24,-99.99,,,0.00,0,rob ver 1B,2013-08-27 20:31:00,
2013-08-27 13:32:00,99.2,60.3,29.23,WSW,240,9.1,12.4,27,-99.99,,,0.00,0,rob ver 1A,2013-08-27 20:32:00,
2013-08-27 13:33:00,104.1,60.0,29.23,SE,137,11.0,13.3,23,-99.99,,,0.00,0,rob ver 1B,2013-08-27 20:33:00,
2013-08-27 13:34:00,103.7,60.1,29.23,SE,142,7.7,10.5,24,-99.99,,,0.00,0,rob ver 1B,2013-08-27 20:34:00,
2013-08-27 13:35:00,103.5,60.2,29.23,South,170,4.5,7.0,24,-99.99,,,0.00,0,rob ver 1B,2013-08-27 20:35:00,
2013-08-27 13:36:00,103.5,60.0,29.23,SE,146,11.5,15.0,24,-99.99,,,0.00,0,rob ver 1B,2013-08-27 20:36:00,
2013-08-27 13:37:00,99.1,60.1,29.23,ESE,115,0.5,1.2,27,-99.99,,,0.00,0,rob ver 1A,2013-08-27 20:37:00,
2013-08-27 13:38:00,103.0,59.8,29.23,SE,141,6.6,12.2,24,-99.99,,,0.00,0,rob ver 1B,2013-08-27 20:38:00,
2013-08-27 13:39:00,103.2,59.8,29.23,SE,131,9.0,12.8,24,-99.99,,,0.00,0,rob ver 1B,2013-08-27 20:39:00,
2013-08-27 13:40:00,103.1,59.8,29.23,SE,131,6.7,8.0,24,-99.99,,,0.00,0,rob ver 1B,2013-08-27 20:40:00,
2013-08-27 13:41:00,103.2,59.9,29.23,SE,138,6.5,11.1,24,-99.99,,,0.00,0,rob ver 1B,2013-08-27 20:41:00,
2013-08-27 13:42:00,99.9,59.9,29.23,WNW,296,4.8,7.3,26,-99.99,,,0.00,0,rob ver 1A,2013-08-27 20:42:00,
2013-08-27 13:43:00,103.8,59.7,29.23,South,174,7.2,9.6,23,-99.99,,,0.00,0,rob ver 1B,2013-08-27 20:43:00,
2013-08-27 13:44:00,104.5,59.5,29.23,SSW,194,6.9,10.8,22,-99.99,,,0.00,0,rob ver 1B,2013-08-27 20:44:00,
2013-08-27 13:45:00,104.6,59.4,29.23,SW,214,5.0,7.7,23,-99.99,,,0.00,0,rob ver 1B,2013-08-27 20:45:00,
2013-08-27 13:46:00,104.8,59.6,29.23,SSE,158,6.9,10.9,23,-99.99,,,0.00,0,rob ver 1B,2013-08-27 20:46:00,
2013-08-27 13:47:00,100.4,60.3,29.23,SSE,148,1.9,2.7,26,-99.99,,,0.00,0,rob ver 1A,2013-08-27 20:47:00,
2013-08-27 13:48:00,104.4,59.6,29.23,SSE,158,9.0,14.0,23,-99.99,,,0.00,0,rob ver 1B,2013-08-27 20:48:00,
2013-08-27 13:49:00,104.6,59.4,29.23,South,179,10.4,13.8,23,-99.99,,,0.00,0,rob ver 1B,2013-08-27 20:49:00,
2013-08-27 13:50:00,104.3,59.6,29.23,South,190,8.8,12.3,23,-99.99,,,0.00,0,rob ver 1B,2013-08-27 20:50:00,
2013-08-27 13:51:00,104.1,59.5,29.23,South,186,10.2,13.4,23,-99.99,,,0.00,0,rob ver 1B,2013-08-27 20:51:00,
2013-08-27 13:52:00,100.2,59.8,29.23,SSE,156,3.4,5.1,26,-99.99,,,0.00,0,rob ver 1A,2013-08-27 20:52:00,
2013-08-27 13:53:00,103.7,59.4,29.23,SE,139,6.2,10.2,23,-99.99,,,0.00,0,rob ver 1B,2013-08-27 20:53:00,
2013-08-27 13:54:00,103.2,59.3,29.23,East,101,5.1,7.6,23,-99.99,,,0.00,0,rob ver 1B,2013-08-27 20:54:00,
2013-08-27 13:55:00,103.3,59.3,29.23,SE,142,3.2,4.7,23,-99.99,,,0.00,0,rob ver 1B,2013-08-27 20:55:00,
2013-08-27 13:56:00,103.8,59.2,29.23,SSW,209,8.0,12.9,23,-99.99,,,0.00,0,rob ver 1B,2013-08-27 20:56:00,
2013-08-27 13:57:00,100.0,59.7,29.23,NE,38,2.6,3.8,26,-99.99,,,0.00,0,rob ver 1A,2013-08-27 20:57:00,
2013-08-27 13:58:00,103.9,59.2,29.23,SSW,203,11.7,15.0,23,-99.99,,,0.00,0,rob ver 1B,2013-08-27 20:58:00,
2013-08-27 13:59:00,103.9,59.2,29.23,WSW,247,8.7,13.9,23,-99.99,,,0.00,0,rob ver 1B,2013-08-27 20:59:00,
2013-08-27 14:00:00,103.5,59.3,29.23,West,259,4.8,6.8,23,-99.99,,,0.00,0,rob ver 1B,2013-08-27 21:00:00,
2013-08-27 14:01:00,103.5,59.3,29.23,WSW,251,3.8,6.8,23,-99.99,,,0.00,0,rob ver 1B,2013-08-27 21:01:00,
2013-08-27 14:02:00,99.2,59.6,29.23,NE,48,4.9,8.3,27,-99.99,,,0.00,0,rob ver 1A,2013-08-27 21:02:00,
2013-08-27 14:03:00,103.6,59.1,29.23,SSE,164,9.4,14.8,23,-99.99,,,0.00,0,rob ver 1B,2013-08-27 21:03:00,
2013-08-27 14:04:00,103.7,59.1,29.23,SSE,149,9.4,12.2,23,-99.99,,,0.00,0,rob ver 1B,2013-08-27 21:04:00,
2013-08-27 14:05:00,103.8,59.1,29.23,SE,144,11.0,13.6,23,-99.99,,,0.00,0,rob ver 1B,2013-08-27 21:05:00,
2013-08-27 14:06:00,103.7,59.1,29.23,SE,140,12.2,17.9,23,-99.99,,,0.00,0,rob ver 1B,2013-08-27 21:06:00,
2013-08-27 14:07:00,99.2,59.4,29.23,ENE,57,5.7,9.4,27,-99.99,,,0.00,0,rob ver 1A,2013-08-27 21:07:00,
2013-08-27 14:08:00,103.8,59.1,29.23,SSE,149,10.7,12.4,23,-99.99,,,0.00,0,rob ver 1B,2013-08-27 21:08:00,
2013-08-27 14:09:00,104.3,58.9,29.23,South,185,10.3,12.2,22,-99.99,,,0.00,0,rob ver 1B,2013-08-27 21:09:00,
2013-08-27 14:10:00,104.6,59.0,29.23,SSE,167,9.2,11.7,22,-99.99,,,0.00,0,rob ver 1B,2013-08-27 21:10:00,
2013-08-27 14:11:00,104.4,59.1,29.23,South,172,5.1,7.4,22,-99.99,,,0.00,0,rob ver 1B,2013-08-27 21:11:00,
2013-08-27 14:12:00,100.1,59.4,29.23,NE,38,6.0,8.6,26,-99.99,,,0.00,0,rob ver 1A,2013-08-27 21:12:00,
2013-08-27 14:13:00,104.8,58.8,29.23,SSW,202,11.2,14.4,22,-99.99,,,0.00,0,rob ver 1B,2013-08-27 21:13:00,
2013-08-27 14:14:00,105.0,58.7,29.23,SSW,200,10.6,13.3,22,-99.99,,,0.00,0,rob ver 1B,2013-08-27 21:14:00,
2013-08-27 14:15:00,104.9,58.8,29.23,South,172,10.4,12.0,22,-99.99,,,0.00,0,rob ver 1B,2013-08-27 21:15:00,
2013-08-27 14:16:00,104.5,58.9,29.23,SSE,147,6.7,9.7,22,-99.99,,,0.00,0,rob ver 1B,2013-08-27 21:16:00,
2013-08-27 14:17:00,104.1,58.9,29.23,SSW,194,9.6,13.4,22,-99.99,,,0.00,0,rob ver 1B,2013-08-27 21:17:00,
2013-08-27 14:18:00,104.0,58.9,29.23,South,188,6.9,9.6,23,-99.99,,,0.00,0,rob ver 1B,2013-08-27 21:18:00,
2013-08-27 14:19:00,104.1,58.9,29.23,SSW,192,8.1,15.8,22,-99.99,,,0.00,0,rob ver 1B,2013-08-27 21:19:00,
2013-08-27 14:20:00,100.8,59.9,29.23,WSW,238,1.1,2.7,26,-99.99,,,0.00,0,rob ver 1A,2013-08-27 21:20:00,
2013-08-27 14:21:00,105.0,58.7,29.23,South,186,11.0,14.0,21,-99.99,,,0.00,0,rob ver 1B,2013-08-27 21:21:00,
2013-08-27 14:22:00,105.3,58.6,29.23,SSW,197,12.1,14.3,21,-99.99,,,0.00,0,rob ver 1B,2013-08-27 21:22:00,
2013-08-27 14:23:00,104.9,58.8,29.23,SSW,213,5.0,9.5,22,-99.99,,,0.00,0,rob ver 1B,2013-08-27 21:23:00,
2013-08-27 14:24:00,104.6,58.9,29.23,West,264,4.8,10.1,22,-99.99,,,0.00,0,rob ver 1B,2013-08-27 21:24:00,
2013-08-27 14:25:00,104.4,58.9,29.23,West,263,3.1,6.3,22,-99.99,,,0.00,0,rob ver 1B,2013-08-27 21:25:00,
2013-08-27 14:26:00,104.6,58.9,29.23,SW,221,3.7,8.0,22,-99.99,,,0.00,0,rob ver 1B,2013-08-27 21:26:00,
2013-08-27 14:27:00,104.8,59.0,29.23,South,173,9.2,13.2,22,-99.99,,,0.00,0,rob ver 1B,2013-08-27 21:27:00,
2013-08-27 14:28:00,101.6,60.0,29.23,SW,221,5.3,8.9,25,-99.99,,,0.00,0,rob ver 1A,2013-08-27 21:28:00,
2013-08-27 14:29:00,104.9,59.2,29.23,SW,235,11.2,14.2,22,-99.99,,,0.00,0,rob ver 1B,2013-08-27 21:29:00,
2013-08-27 14:30:00,104.4,59.3,29.23,SW,228,10.9,14.4,23,-99.99,,,0.00,0,rob ver 1B,2013-08-27 21:30:00,
2013-08-27 14:31:00,104.2,59.2,29.23,WSW,237,10.8,14.5,23,-99.99,,,0.00,0,rob ver 1B,2013-08-27 21:31:00,
2013-08-27 14:32:00,103.9,59.3,29.23,WSW,247,4.7,9.3,23,-99.99,,,0.00,0,rob ver 1B,2013-08-27 21:32:00,
2013-08-27 14:33:00,101.2,59.8,29.21,West,272,7.9,12.1,25,-99.99,,,0.00,0,rob ver 1A,2013-08-27 21:33:00,
2013-08-27 14:34:00,104.4,58.9,29.23,SSW,213,11.0,13.0,22,-99.99,,,0.00,0,rob ver 1B,2013-08-27 21:34:00,
2013-08-27 14:35:00,104.2,59.1,29.23,SW,225,8.2,12.0,22,-99.99,,,0.00,0,rob ver 1B,2013-08-27 21:35:00,
2013-08-27 14:36:00,104.2,58.9,29.23,SW,220,4.9,10.2,22,-99.99,,,0.00,0,rob ver 1B,2013-08-27 21:36:00,
2013-08-27 14:37:00,104.4,58.9,29.23,South,178,1.7,5.4,22,-99.99,,,0.00,0,rob ver 1B,2013-08-27 21:37:00,
2013-08-27 14:38:00,104.7,58.9,29.23,SSE,161,4.4,8.0,22,-99.99,,,0.00,0,rob ver 1B,2013-08-27 21:38:00,
2013-08-27 14:39:00,100.4,59.5,29.21,WNW,286,3.9,6.4,26,-99.99,,,0.00,0,rob ver 1A,2013-08-27 21:39:00,
2013-08-27 14:40:00,105.0,59.0,29.23,WSW,257,6.9,10.6,22,-99.99,,,0.00,0,rob ver 1B,2013-08-27 21:40:00,
2013-08-27 14:41:00,105.1,59.0,29.23,WSW,252,12.3,15.9,22,-99.99,,,0.00,0,rob ver 1B,2013-08-27 21:41:00,
2013-08-27 14:42:00,104.7,59.0,29.23,WSW,256,13.2,16.7,22,-99.99,,,0.00,0,rob ver 1B,2013-08-27 21:42:00,
2013-08-27 14:43:00,104.6,59.1,29.23,West,266,11.0,13.6,22,-99.99,,,0.00,0,rob ver 1B,2013-08-27 21:43:00,
2013-08-27 14:44:00,104.6,61.0,29.21,WNW,294,16.2,22.3,24,-99.99,,,0.00,0,rob ver 1B,2013-08-27 21:44:00,
2013-08-27 14:45:00,101.1,59.7,29.21,SW,215,3.6,5.6,25,-99.99,,,0.00,0,rob ver 1A,2013-08-27 21:45:00,
2013-08-27 14:46:00,102.9,60.7,29.21,NW,314,19.3,23.5,25,-99.99,,,0.00,0,rob ver 1B,2013-08-27 21:46:00,
2013-08-27 14:47:00,102.9,60.5,29.21,NW,306,18.1,23.1,24,-99.99,,,0.00,0,rob ver 1B,2013-08-27 21:47:00,
2013-08-27 14:48:00,102.8,60.5,29.21,WNW,290,21.4,25.0,25,-99.99,,,0.00,0,rob ver 1B,2013-08-27 21:48:00,
2013-08-27 14:49:00,102.5,60.6,29.21,NW,304,20.3,25.0,25,-99.99,,,0.00,0,rob ver 1B,2013-08-27 21:49:00,
2013-08-27 14:50:00,101.6,59.5,29.21,West,279,3.4,6.8,25,-99.99,,,0.00,0,rob ver 1A,2013-08-27 21:50:00,
2013-08-27 14:51:00,102.2,60.5,29.21,NW,315,20.0,26.9,25,-99.99,,,0.00,0,rob ver 1B,2013-08-27 21:51:00,
2013-08-27 14:52:00,102.3,60.4,29.21,NW,316,20.2,24.5,25,-99.99,,,0.00,0,rob ver 1B,2013-08-27 21:52:00,
2013-08-27 14:53:00,102.1,60.4,29.21,NW,310,22.9,27.9,25,-99.99,,,0.00,0,rob ver 1B,2013-08-27 21:53:00,
2013-08-27 14:54:00,101.7,60.2,29.21,NW,305,21.5,27.1,25,-99.99,,,0.00,0,rob ver 1B,2013-08-27 21:54:00,
2013-08-27 14:55:00,101.1,59.6,29.21,WSW,245,9.8,12.3,25,-99.99,,,0.00,0,rob ver 1A,2013-08-27 21:55:00,
2013-08-27 14:56:00,101.8,60.2,29.21,NW,319,18.9,22.9,25,-99.99,,,0.00,0,rob ver 1B,2013-08-27 21:56:00,
2013-08-27 14:57:00,102.0,60.1,29.21,NW,322,18.7,24.4,25,-99.99,,,0.00,0,rob ver 1B,2013-08-27 21:57:00,
2013-08-27 14:58:00,102.2,60.1,29.21,NW,320,16.9,20.2,25,-99.99,,,0.00,0,rob ver 1B,2013-08-27 21:58:00,
2013-08-27 14:59:00,102.1,60.0,29.21,NNW,331,15.8,22.3,25,-99.99,,,0.00,0,rob ver 1B,2013-08-27 21:59:00,
2013-08-27 15:00:00,100.6,59.7,29.21,NNW,342,2.4,4.3,26,-99.99,,,0.00,0,rob ver 1A,2013-08-27 22:00:00,
2013-08-27 15:01:00,102.3,59.9,29.23,NNW,333,13.0,17.0,25,-99.99,,,0.00,0,rob ver 1B,2013-08-27 22:01:00,
2013-08-27 15:02:00,102.6,59.8,29.21,NW,322,14.3,19.1,24,-99.99,,,0.00,0,rob ver 1B,2013-08-27 22:02:00,
2013-08-27 15:03:00,102.4,59.8,29.21,NW,319,13.6,18.0,24,-99.99,,,0.00,0,rob ver 1B,2013-08-27 22:03:00,
2013-08-27 15:04:00,102.4,59.6,29.21,NW,324,15.9,19.7,25,-99.99,,,0.00,0,rob ver 1B,2013-08-27 22:04:00,
2013-08-27 15:05:00,101.9,59.8,29.21,NW,325,17.5,22.3,25,-99.99,,,0.00,0,rob ver 1B,2013-08-27 22:05:00,
2013-08-27 15:06:00,101.4,59.8,29.21,WSW,242,7.8,9.8,25,-99.99,,,0.00,0,rob ver 1A,2013-08-27 22:06:00,
2013-08-27 15:07:00,101.9,60.0,29.21,NW,316,18.6,22.5,25,-99.99,,,0.00,0,rob ver 1B,2013-08-27 22:07:00,
2013-08-27 15:08:00,102.0,59.8,29.21,NW,307,18.6,21.9,25,-99.99,,,0.00,0,rob ver 1B,2013-08-27 22:08:00,
2013-08-27 15:09:00,102.5,59.8,29.21,NW,320,18.3,21.8,24,-99.99,,,0.00,0,rob ver 1B,2013-08-27 22:09:00,
2013-08-27 15:10:00,102.5,59.8,29.21,NW,309,16.9,20.1,25,-99.99,,,0.00,0,rob ver 1B,2013-08-27 22:10:00,
2013-08-27 15:11:00,101.6,59.6,29.21,SSW,213,6.3,10.9,25,-99.99,,,0.00,0,rob ver 1A,2013-08-27 22:11:00,
2013-08-27 15:12:00,102.3,59.7,29.21,NNW,334,16.6,19.8,25,-99.99,,,0.00,0,rob ver 1B,2013-08-27 22:12:00,
2013-08-27 15:13:00,102.2,59.7,29.21,NW,326,17.1,21.9,25,-99.99,,,0.00,0,rob ver 1B,2013-08-27 22:13:00,
2013-08-27 15:14:00,102.0,59.8,29.21,NNW,327,18.2,23.8,25,-99.99,,,0.00,0,rob ver 1B,2013-08-27 22:14:00,
2013-08-27 15:15:00,101.5,60.1,29.21,NW,323,18.1,24.5,26,-99.99,,,0.00,0,rob ver 1B,2013-08-27 22:15:00,
2013-08-27 15:16:00,101.9,59.5,29.21,SSW,212,10.0,13.1,25,-99.99,,,0.00,0,rob ver 1A,2013-08-27 22:16:00,
2013-08-27 15:17:00,101.7,60.3,29.21,NNW,336,18.0,20.8,26,-99.99,,,0.00,0,rob ver 1B,2013-08-27 22:17:00,
2013-08-27 15:18:00,101.2,60.5,29.21,NNW,327,17.4,20.1,26,-99.99,,,0.00,0,rob ver 1B,2013-08-27 22:18:00,
2013-08-27 15:19:00,100.6,60.6,29.21,NNW,329,13.6,18.6,27,-99.99,,,0.00,0,rob ver 1B,2013-08-27 22:19:00,
2013-08-27 15:20:00,100.7,60.5,29.21,NW,322,11.4,14.9,26,-99.99,,,0.00,0,rob ver 1B,2013-08-27 22:20:00,
2013-08-27 15:21:00,101.0,59.5,29.21,SW,220,6.5,9.3,25,-99.99,,,0.00,0,rob ver 1A,2013-08-27 22:21:00,
2013-08-27 15:22:00,101.1,60.4,29.21,NW,326,11.1,14.0,26,-99.99,,,0.00,0,rob ver 1B,2013-08-27 22:22:00,
2013-08-27 15:23:00,101.1,60.2,29.21,NNW,335,8.4,14.8,26,-99.99,,,0.00,0,rob ver 1B,2013-08-27 22:23:00,
2013-08-27 15:24:00,101.2,60.2,29.21,NNW,331,9.0,11.5,26,-99.99,,,0.00,0,rob ver 1B,2013-08-27 22:24:00,
2013-08-27 15:25:00,101.4,59.8,29.21,NW,314,8.7,12.8,25,-99.99,,,0.00,0,rob ver 1B,2013-08-27 22:25:00,
2013-08-27 15:26:00,101.7,59.5,29.21,SSW,203,5.2,10.5,25,-99.99,,,0.00,0,rob ver 1A,2013-08-27 22:26:00,
2013-08-27 15:27:00,102.0,59.8,29.21,NW,323,8.7,12.0,25,-99.99,,,0.00,0,rob ver 1B,2013-08-27 22:27:00,
2013-08-27 15:28:00,102.1,60.2,29.21,NW,326,6.5,9.4,25,-99.99,,,0.00,0,rob ver 1B,2013-08-27 22:28:00,
2013-08-27 15:29:00,102.5,60.0,29.21,NW,310,12.1,15.9,25,-99.99,,,0.00,0,rob ver 1B,2013-08-27 22:29:00,
2013-08-27 15:30:00,102.5,60.2,29.21,NW,315,8.9,11.5,25,-99.99,,,0.00,0,rob ver 1B,2013-08-27 22:30:00,
2013-08-27 15:31:00,101.6,59.4,29.21,SSW,202,9.0,13.4,25,-99.99,,,0.00,0,rob ver 1A,2013-08-27 22:31:00,
2013-08-27 15:32:00,102.8,59.8,29.21,NNW,332,12.1,14.7,24,-99.99,,,0.00,0,rob ver 1B,2013-08-27 22:32:00,
2013-08-27 15:33:00,102.7,59.6,29.21,NW,318,11.4,14.6,24,-99.99,,,0.00,0,rob ver 1B,2013-08-27 22:33:00,
2013-08-27 15:34:00,102.6,59.4,29.21,NW,310,10.3,15.3,24,-99.99,,,0.00,0,rob ver 1B,2013-08-27 22:34:00,
2013-08-27 15:35:00,102.8,59.4,29.21,NW,318,10.9,15.2,24,-99.99,,,0.00,0,rob ver 1B,2013-08-27 22:35:00,
2013-08-27 15:36:00,101.5,59.3,29.21,SSW,196,7.3,9.2,25,-99.99,,,0.00,0,rob ver 1A,2013-08-27 22:36:00,
2013-08-27 15:37:00,103.1,59.4,29.21,WNW,302,11.4,16.0,23,-99.99,,,0.00,0,rob ver 1B,2013-08-27 22:37:00,
2013-08-27 15:38:00,103.3,59.3,29.21,WNW,287,10.2,13.9,23,-99.99,,,0.00,0,rob ver 1B,2013-08-27 22:38:00,
2013-08-27 15:39:00,103.2,59.6,29.21,West,262,16.6,20.5,24,-99.99,,,0.00,0,rob ver 1B,2013-08-27 22:39:00,
2013-08-27 15:40:00,102.7,59.8,29.21,WSW,257,17.7,24.5,24,-99.99,,,0.00,0,rob ver 1B,2013-08-27 22:40:00,
2013-08-27 15:41:00,101.1,59.3,29.21,ESE,113,1.9,3.8,25,-99.99,,,0.00,0,rob ver 1A,2013-08-27 22:41:00,
2013-08-27 15:42:00,102.4,59.6,29.21,WSW,253,16.8,21.5,24,-99.99,,,0.00,0,rob ver 1B,2013-08-27 22:42:00,
2013-08-27 15:43:00,102.2,59.6,29.21,WSW,258,19.2,23.7,24,-99.99,,,0.00,0,rob ver 1B,2013-08-27 22:43:00,
2013-08-27 15:44:00,101.9,59.6,29.21,West,269,16.2,19.5,24,-99.99,,,0.00,0,rob ver 1B,2013-08-27 22:44:00,
2013-08-27 15:45:00,102.2,59.3,29.21,West,273,16.1,19.2,24,-99.99,,,0.00,0,rob ver 1B,2013-08-27 22:45:00,
2013-08-27 15:46:00,101.4,59.2,29.21,West,274,2.9,3.8,25,-99.99,,,0.00,0,rob ver 1A,2013-08-27 22:46:00,
2013-08-27 15:47:00,102.0,59.2,29.21,West,277,11.2,14.3,24,-99.99,,,0.00,0,rob ver 1B,2013-08-27 22:47:00,
2013-08-27 15:48:00,102.1,58.9,29.21,WNW,285,11.7,15.3,23,-99.99,,,0.00,0,rob ver 1B,2013-08-27 22:48:00,
2013-08-27 15:49:00,102.1,58.7,29.21,WNW,295,12.2,14.4,24,-99.99,,,0.00,0,rob ver 1B,2013-08-27 22:49:00,
2013-08-27 15:50:00,102.2,58.9,29.21,WNW,298,10.8,12.6,24,-99.99,,,0.00,0,rob ver 1B,2013-08-27 22:50:00,
2013-08-27 15:51:00,101.9,59.2,29.18,SSW,193,5.6,9.1,24,-99.99,,,0.00,0,rob ver 1A,2013-08-27 22:51:00,
2013-08-27 15:52:00,102.7,58.8,29.21,WNW,294,10.1,12.7,23,-99.99,,,0.00,0,rob ver 1B,2013-08-27 22:52:00,
2013-08-27 15:53:00,102.6,58.9,29.21,WNW,282,11.0,15.0,24,-99.99,,,0.00,0,rob ver 1B,2013-08-27 22:53:00,
2013-08-27 15:54:00,102.6,59.0,29.21,WNW,285,9.3,12.0,23,-99.99,,,0.00,0,rob ver 1B,2013-08-27 22:54:00,
2013-08-27 15:55:00,102.9,59.0,29.21,West,275,11.5,16.8,23,-99.99,,,0.00,0,rob ver 1B,2013-08-27 22:55:00,
2013-08-27 15:56:00,102.7,59.2,29.18,SW,229,7.7,11.5,24,-99.99,,,0.00,0,rob ver 1A,2013-08-27 22:56:00,
2013-08-27 15:57:00,102.7,59.1,29.21,WSW,256,4.3,6.2,24,-99.99,,,0.00,0,rob ver 1B,2013-08-27 22:57:00,
2013-08-27 15:58:00,103.1,59.0,29.21,WSW,257,8.8,14.6,22,-99.99,,,0.00,0,rob ver 1B,2013-08-27 22:58:00,
2013-08-27 15:59:00,103.6,58.2,29.21,West,268,13.6,19.6,22,-99.99,,,0.00,0,rob ver 1B,2013-08-27 22:59:00,
2013-08-27 16:00:00,103.8,57.4,29.21,West,272,19.1,23.2,22,-99.99,,,0.00,0,rob ver 1B,2013-08-27 23:00:00,
2013-08-27 16:01:00,103.5,57.7,29.21,West,265,14.2,18.3,22,-99.99,,,0.00,0,rob ver 1B,2013-08-27 23:01:00,
2013-08-27 16:02:00,101.4,58.9,29.18,West,273,6.0,9.8,24,-99.99,,,0.00,0,rob ver 1A,2013-08-27 23:02:00,
2013-08-27 16:03:00,102.8,57.9,29.21,WNW,283,10.3,12.5,22,-99.99,,,0.00,0,rob ver 1B,2013-08-27 23:03:00,
2013-08-27 16:04:00,102.9,57.9,29.21,West,278,9.2,11.9,22,-99.99,,,0.00,0,rob ver 1B,2013-08-27 23:04:00,
2013-08-27 16:05:00,103.2,58.1,29.21,West,272,13.4,16.4,22,-99.99,,,0.00,0,rob ver 1B,2013-08-27 23:05:00,
2013-08-27 16:06:00,103.2,58.1,29.21,West,279,12.7,17.3,23,-99.99,,,0.00,0,rob ver 1B,2013-08-27 23:06:00,
2013-08-27 16:07:00,101.9,58.9,29.18,SW,216,9.0,11.0,24,-99.99,,,0.00,0,rob ver 1A,2013-08-27 23:07:00,
2013-08-27 16:08:00,103.2,57.3,29.21,West,269,14.8,18.7,22,-99.99,,,0.00,0,rob ver 1B,2013-08-27 23:08:00,
2013-08-27 16:09:00,103.6,57.5,29.21,West,269,15.7,20.7,22,-99.99,,,0.00,0,rob ver 1B,2013-08-27 23:09:00,
2013-08-27 16:10:00,103.4,58.4,29.21,WNW,285,14.5,18.4,22,-99.99,,,0.00,0,rob ver 1B,2013-08-27 23:10:00,
2013-08-27 16:11:00,103.1,57.7,29.21,WNW,287,12.8,15.4,21,-99.99,,,0.00,0,rob ver 1B,2013-08-27 23:11:00,
2013-08-27 16:12:00,101.6,58.9,29.18,SW,232,5.2,9.0,24,-99.99,,,0.00,0,rob ver 1A,2013-08-27 23:12:00,
2013-08-27 16:13:00,103.0,57.2,29.21,West,261,7.4,9.0,22,-99.99,,,0.00,0,rob ver 1B,2013-08-27 23:13:00,
2013-08-27 16:14:00,103.3,57.2,29.21,West,265,10.0,13.9,21,-99.99,,,0.00,0,rob ver 1B,2013-08-27 23:14:00,
2013-08-27 16:15:00,103.6,57.0,29.21,West,268,11.3,15.1,21,-99.99,,,0.00,0,rob ver 1B,2013-08-27 23:15:00,
2013-08-27 16:16:00,103.4,57.0,29.21,West,278,12.5,14.7,21,-99.99,,,0.00,0,rob ver 1B,2013-08-27 23:16:00,
2013-08-27 16:17:00,101.9,58.8,29.18,WNW,291,5.0,8.0,24,-99.99,,,0.00,0,rob ver 1A,2013-08-27 23:17:00,
2013-08-27 16:18:00,103.2,57.0,29.21,WNW,287,9.5,11.8,22,-99.99,,,0.00,0,rob ver 1B,2013-08-27 23:18:00,
2013-08-27 16:19:00,103.0,57.3,29.21,West,277,12.6,15.3,22,-99.99,,,0.00,0,rob ver 1B,2013-08-27 23:19:00,
2013-08-27 16:20:00,102.9,57.5,29.21,West,274,11.9,14.2,22,-99.99,,,0.00,0,rob ver 1B,2013-08-27 23:20:00,
2013-08-27 16:21:00,102.8,57.6,29.21,West,279,7.7,11.0,22,-99.99,,,0.00,0,rob ver 1B,2013-08-27 23:21:00,
2013-08-27 16:22:00,101.6,58.7,29.18,NNW,339,3.7,6.2,24,-99.99,,,0.00,0,rob ver 1A,2013-08-27 23:22:00,
2013-08-27 16:23:00,103.5,58.0,29.21,WSW,244,10.8,14.0,22,-99.99,,,0.00,0,rob ver 1B,2013-08-27 23:23:00,
2013-08-27 16:24:00,103.4,58.2,29.21,WSW,255,10.7,14.6,22,-99.99,,,0.00,0,rob ver 1B,2013-08-27 23:24:00,
2013-08-27 16:25:00,103.1,58.3,29.21,WSW,252,8.1,10.1,23,-99.99,,,0.00,0,rob ver 1B,2013-08-27 23:25:00,
2013-08-27 16:26:00,103.0,58.4,29.21,WSW,255,10.7,14.7,23,-99.99,,,0.00,0,rob ver 1B,2013-08-27 23:26:00,
2013-08-27 16:27:00,102.2,59.0,29.18,SW,227,7.3,11.2,24,-99.99,,,0.00,0,rob ver 1A,2013-08-27 23:27:00,
2013-08-27 16:28:00,103.2,58.1,29.21,West,267,11.4,12.8,22,-99.99,,,0.00,0,rob ver 1B,2013-08-27 23:28:00,
2013-08-27 16:29:00,103.1,58.2,29.21,West,261,10.1,12.1,23,-99.99,,,0.00,0,rob ver 1B,2013-08-27 23:29:00,
2013-08-27 16:30:00,102.8,58.4,29.21,West,269,8.8,11.9,23,-99.99,,,0.00,0,rob ver 1B,2013-08-27 23:30:00,
2013-08-27 16:31:00,102.6,58.6,29.21,WNW,283,10.3,13.9,23,-99.99,,,0.00,0,rob ver 1B,2013-08-27 23:31:00,
2013-08-27 16:32:00,102.1,59.0,29.18,West,262,4.3,6.5,24,-99.99,,,0.00,0,rob ver 1A,2013-08-27 23:32:00,
2013-08-27 16:33:00,102.8,57.6,29.21,WSW,249,12.4,14.9,22,-99.99,,,0.00,0,rob ver 1B,2013-08-27 23:33:00,
2013-08-27 16:34:00,103.1,57.7,29.21,WSW,244,12.0,14.7,22,-99.99,,,0.00,0,rob ver 1B,2013-08-27 23:34:00,
2013-08-27 16:35:00,103.5,57.6,29.21,WSW,252,11.0,14.3,22,-99.99,,,0.00,0,rob ver 1B,2013-08-27 23:35:00,
2013-08-27 16:36:00,103.4,57.8,29.21,WSW,247,8.8,12.2,22,-99.99,,,0.00,0,rob ver 1B,2013-08-27 23:36:00,
2013-08-27 16:37:00,102.0,58.7,29.18,SE,131,8.4,9.5,24,-99.99,,,0.00,0,rob ver 1A,2013-08-27 23:37:00,
2013-08-27 16:38:00,103.5,58.1,29.21,WSW,255,10.0,14.4,22,-99.99,,,0.00,0,rob ver 1B,2013-08-27 23:38:00,
2013-08-27 16:39:00,103.7,58.2,29.21,West,260,12.9,17.9,22,-99.99,,,0.00,0,rob ver 1B,2013-08-27 23:39:00,
2013-08-27 16:40:00,103.4,58.3,29.21,WSW,252,13.1,16.6,23,-99.99,,,0.00,0,rob ver 1B,2013-08-27 23:40:00,
2013-08-27 16:41:00,103.3,58.5,29.21,West,259,13.2,16.5,22,-99.99,,,0.00,0,rob ver 1B,2013-08-27 23:41:00,
2013-08-27 16:42:00,101.9,59.2,29.18,South,172,8.7,11.6,24,-99.99,,,0.00,0,rob ver 1A,2013-08-27 23:42:00,
2013-08-27 16:43:00,103.3,58.3,29.21,West,274,15.1,18.4,23,-99.99,,,0.00,0,rob ver 1B,2013-08-27 23:43:00,
2013-08-27 16:44:00,103.1,58.3,29.21,West,278,18.3,20.4,23,-99.99,,,0.00,0,rob ver 1B,2013-08-27 23:44:00,
2013-08-27 16:45:00,102.7,58.6,29.21,WNW,284,16.9,20.8,23,-99.99,,,0.00,0,rob ver 1B,2013-08-27 23:45:00,
2013-08-27 16:46:00,102.5,58.9,29.21,West,280,17.9,20.9,23,-99.99,,,0.00,0,rob ver 1B,2013-08-27 23:46:00,
2013-08-27 16:47:00,102.3,58.6,29.21,WNW,290,15.1,18.2,23,-99.99,,,0.00,0,rob ver 1B,2013-08-27 23:47:00,
2013-08-27 16:48:00,102.3,58.9,29.18,SW,219,8.2,10.3,24,-99.99,,,0.00,0,rob ver 1A,2013-08-27 23:48:00,
2013-08-27 16:49:00,102.7,59.3,29.21,WNW,282,17.1,20.6,24,-99.99,,,0.00,0,rob ver 1B,2013-08-27 23:49:00,
2013-08-27 16:50:00,102.3,60.2,29.21,WNW,284,18.6,22.4,25,-99.99,,,0.00,0,rob ver 1B,2013-08-27 23:50:00,
2013-08-27 16:51:00,101.8,60.2,29.21,West,280,18.3,21.0,25,-99.99,,,0.00,0,rob ver 1B,2013-08-27 23:51:00,
2013-08-27 16:52:00,101.3,60.2,29.21,WNW,285,16.7,20.0,26,-99.99,,,0.00,0,rob ver 1B,2013-08-27 23:52:00,
2013-08-27 16:53:00,102.2,58.9,29.18,SW,215,2.5,5.8,24,-99.99,,,0.00,0,rob ver 1A,2013-08-27 23:53:00,
2013-08-27 16:54:00,101.3,60.0,29.21,WNW,287,13.5,18.1,25,-99.99,,,0.00,0,rob ver 1B,2013-08-27 23:54:00,
2013-08-27 16:55:00,101.5,60.1,29.21,West,281,13.1,16.4,25,-99.99,,,0.00,0,rob ver 1B,2013-08-27 23:55:00,
2013-08-27 16:56:00,101.6,59.5,29.21,WNW,285,14.0,16.9,25,-99.99,,,0.00,0,rob ver 1B,2013-08-27 23:56:00,
2013-08-27 16:57:00,101.3,60.0,29.21,West,279,13.1,17.2,25,-99.99,,,0.00,0,rob ver 1B,2013-08-27 23:57:00,
2013-08-27 16:58:00,102.1,58.7,29.18,SSW,199,10.5,13.9,24,-99.99,,,0.00,2624,rob ver 1A,2013-08-27 23:58:00,
2013-08-27 16:59:00,101.2,59.6,29.21,WNW,284,13.5,15.5,26,-99.99,,,0.00,0,rob ver 1B,2013-08-27 23:59:00,
2013-08-27 17:00:00,100.9,60.1,29.21,WNW,288,12.0,14.4,26,-99.99,,,0.00,0,rob ver 1B,2013-08-28 00:00:00,
2013-08-27 17:01:00,100.8,59.9,29.21,WNW,293,12.7,14.5,26,-99.99,,,0.00,0,rob ver 1B,2013-08-28 00:01:00,
2013-08-27 17:02:00,100.7,60.1,29.21,WNW,295,11.3,13.1,26,-99.99,,,0.00,0,rob ver 1B,2013-08-28 00:02:00,
2013-08-27 17:03:00,102.0,58.7,29.18,WNW,299,1.5,2.7,24,-99.99,,,0.00,2515,rob ver 1A,2013-08-28 00:03:00,
2013-08-27 17:04:00,101.1,60.0,29.21,WNW,288,10.5,12.7,25,-99.99,,,0.00,0,rob ver 1B,2013-08-28 00:04:00,
2013-08-27 17:05:00,101.5,59.8,29.21,WNW,282,9.6,13.1,25,-99.99,,,0.00,0,rob ver 1B,2013-08-28 00:05:00,
2013-08-27 17:06:00,101.8,59.4,29.21,West,280,11.6,15.4,24,-99.99,,,0.00,0,rob ver 1B,2013-08-28 00:06:00,
2013-08-27 17:07:00,101.8,59.1,29.21,WNW,284,11.3,13.1,24,-99.99,,,0.00,2663,rob ver 1B,2013-08-28 00:07:00,
2013-08-27 17:08:00,102.2,58.6,29.18,SSW,202,3.9,5.5,24,-99.99,,,0.00,2388,rob ver 1A,2013-08-28 00:08:00,
2013-08-27 17:09:00,101.3,59.1,29.21,WNW,287,9.9,12.8,24,-99.99,,,0.00,2573,rob ver 1B,2013-08-28 00:09:00,
2013-08-27 17:10:00,101.5,59.2,29.21,West,278,9.9,11.8,25,-99.99,,,0.00,2565,rob ver 1B,2013-08-28 00:10:00,
2013-08-27 17:11:00,101.7,59.5,29.21,WNW,284,10.0,12.4,25,-99.99,,,0.00,2538,rob ver 1B,2013-08-28 00:11:00,
2013-08-27 17:12:00,101.6,59.5,29.21,WNW,284,9.9,12.3,25,-99.99,,,0.00,2537,rob ver 1B,2013-08-28 00:12:00,
2013-08-27 17:13:00,101.9,58.8,29.18,SSE,150,3.2,4.3,24,-99.99,,,0.00,2271,rob ver 1A,2013-08-28 00:13:00,
2013-08-27 17:14:00,101.7,59.4,29.21,West,274,11.1,13.4,24,-99.99,,,0.00,2503,rob ver 1B,2013-08-28 00:14:00,
2013-08-27 17:15:00,101.5,59.3,29.21,West,271,10.6,12.4,24,-99.99,,,0.00,2471,rob ver 1B,2013-08-28 00:15:00,
2013-08-27 17:16:00,101.4,59.2,29.21,West,276,7.3,9.3,25,-99.99,,,0.00,2436,rob ver 1B,2013-08-28 00:16:00,
2013-08-27 17:17:00,101.5,59.4,29.21,WNW,292,7.3,10.3,25,-99.99,,,0.00,2398,rob ver 1B,2013-08-28 00:17:00,
2013-08-27 17:18:00,102.4,58.6,29.18,SW,218,7.4,10.1,23,-99.99,,,0.00,2149,rob ver 1A,2013-08-28 00:18:00,
2013-08-27 17:19:00,101.2,59.3,29.21,West,274,8.3,11.1,25,-99.99,,,0.00,2358,rob ver 1B,2013-08-28 00:19:00,
2013-08-27 17:20:00,101.2,59.1,29.21,West,273,8.3,12.4,24,-99.99,,,0.00,2344,rob ver 1B,2013-08-28 00:20:00,
2013-08-27 17:21:00,101.5,58.9,29.21,West,267,8.7,11.2,24,-99.99,,,0.00,2323,rob ver 1B,2013-08-28 00:21:00,
2013-08-27 17:22:00,101.6,59.1,29.21,WNW,287,7.8,12.5,24,-99.99,,,0.00,2311,rob ver 1B,2013-08-28 00:22:00,
2013-08-27 17:23:00,102.0,58.5,29.18,SSW,210,7.0,8.6,24,-99.99,,,0.00,2032,rob ver 1A,2013-08-28 00:23:00,
2013-08-27 17:24:00,101.8,59.2,29.21,WNW,294,8.5,11.7,24,-99.99,,,0.00,2262,rob ver 1B,2013-08-28 00:24:00,
2013-08-27 17:25:00,101.6,59.1,29.21,WNW,297,8.7,12.9,24,-99.99,,,0.00,2236,rob ver 1B,2013-08-28 00:25:00,
2013-08-27 17:26:00,101.7,59.1,29.21,WNW,295,11.2,14.4,24,-99.99,,,0.00,2206,rob ver 1B,2013-08-28 00:26:00,
2013-08-27 17:27:00,101.5,59.2,29.21,WNW,297,9.1,12.1,24,-99.99,,,0.00,2169,rob ver 1B,2013-08-28 00:27:00,
2013-08-27 17:28:00,102.6,58.7,29.18,SSE,161,4.6,8.3,23,-99.99,,,0.00,1911,rob ver 1A,2013-08-28 00:28:00,
2013-08-27 17:29:00,101.4,59.0,29.21,WNW,302,11.6,14.3,24,-99.99,,,0.00,2085,rob ver 1B,2013-08-28 00:29:00,
2013-08-27 17:30:00,101.5,59.0,29.21,WNW,302,9.8,12.0,24,-99.99,,,0.00,2082,rob ver 1B,2013-08-28 00:30:00,
2013-08-27 17:31:00,101.6,58.9,29.21,WNW,297,10.0,13.2,24,-99.99,,,0.00,2066,rob ver 1B,2013-08-28 00:31:00,
2013-08-27 17:32:00,101.6,58.8,29.21,WNW,299,9.1,12.7,24,-99.99,,,0.00,2056,rob ver 1B,2013-08-28 00:32:00,
2013-08-27 17:33:00,101.9,58.5,29.18,SE,134,6.8,8.4,24,-99.99,,,0.00,1788,rob ver 1A,2013-08-28 00:33:00,
2013-08-27 17:34:00,101.9,58.9,29.21,WNW,282,9.2,11.8,24,-99.99,,,0.00,2038,rob ver 1B,2013-08-28 00:34:00,
2013-08-27 17:35:00,102.1,58.8,29.21,West,272,9.4,11.5,24,-99.99,,,0.00,2021,rob ver 1B,2013-08-28 00:35:00,
2013-08-27 17:36:00,102.0,58.9,29.21,West,274,7.0,9.4,24,-99.99,,,0.00,1998,rob ver 1B,2013-08-28 00:36:00,
2013-08-27 17:37:00,102.0,58.9,29.21,WNW,288,9.3,14.3,24,-99.99,,,0.00,1967,rob ver 1B,2013-08-28 00:37:00,
2013-08-27 17:38:00,101.9,58.7,29.21,WNW,299,9.5,12.2,24,-99.99,,,0.00,1946,rob ver 1B,2013-08-28 00:38:00,
2013-08-27 17:39:00,101.6,58.4,29.18,SSE,151,2.8,3.7,24,-99.99,,,0.00,1652,rob ver 1A,2013-08-28 00:39:00,
2013-08-27 17:40:00,101.8,58.2,29.21,WNW,295,11.2,13.4,23,-99.99,,,0.00,1897,rob ver 1B,2013-08-28 00:40:00,
2013-08-27 17:41:00,101.8,58.1,29.21,WNW,294,9.1,10.5,24,-99.99,,,0.00,1882,rob ver 1B,2013-08-28 00:41:00,
2013-08-27 17:42:00,101.6,58.3,29.21,WNW,292,7.5,11.0,24,-99.99,,,0.00,1864,rob ver 1B,2013-08-28 00:42:00,
2013-08-27 17:43:00,101.5,58.3,29.21,WNW,286,10.4,12.0,24,-99.99,,,0.00,1845,rob ver 1B,2013-08-28 00:43:00,
2013-08-27 17:44:00,102.3,58.3,29.18,SW,231,2.3,4.5,23,-99.99,,,0.00,1535,rob ver 1A,2013-08-28 00:44:00,
2013-08-27 17:45:00,101.6,58.1,29.21,WNW,292,7.5,9.3,23,-99.99,,,0.00,1800,rob ver 1B,2013-08-28 00:45:00,
2013-08-27 17:46:00,101.8,58.2,29.21,WNW,294,8.0,10.2,23,-99.99,,,0.00,1777,rob ver 1B,2013-08-28 00:46:00,
2013-08-27 17:47:00,101.9,58.0,29.21,NW,313,7.6,9.9,23,-99.99,,,0.00,1744,rob ver 1B,2013-08-28 00:47:00,
2013-08-27 17:48:00,101.9,57.9,29.21,NW,304,5.9,8.6,23,-99.99,,,0.00,1700,rob ver 1B,2013-08-28 00:48:00,
2013-08-27 17:49:00,102.2,58.7,29.18,West,261,8.3,10.6,24,-99.99,,,0.00,1416,rob ver 1A,2013-08-28 00:49:00,
2013-08-27 17:50:00,102.1,58.2,29.21,WNW,300,8.0,10.5,23,-99.99,,,0.00,1612,rob ver 1B,2013-08-28 00:50:00,
2013-08-27 17:51:00,102.0,58.2,29.21,WNW,291,9.4,13.0,23,-99.99,,,0.00,1572,rob ver 1B,2013-08-28 00:51:00,
2013-08-27 17:52:00,102.1,58.1,29.21,WNW,288,9.0,11.3,23,-99.99,,,0.00,1534,rob ver 1B,2013-08-28 00:52:00,
2013-08-27 17:53:00,101.9,58.1,29.21,WNW,296,7.8,11.0,23,-99.99,,,0.00,1506,rob ver 1B,2013-08-28 00:53:00,
2013-08-27 17:54:00,102.0,58.7,29.18,SW,215,6.4,7.8,24,-99.99,,,0.00,1303,rob ver 1A,2013-08-28 00:54:00,
2013-08-27 17:55:00,101.9,58.1,29.21,NW,307,6.9,9.9,23,-99.99,,,0.00,1431,rob ver 1B,2013-08-28 00:55:00,
2013-08-27 17:56:00,101.9,58.0,29.21,NW,304,8.0,10.6,23,-99.99,,,0.00,1395,rob ver 1B,2013-08-28 00:56:00,
2013-08-27 17:57:00,101.9,58.0,29.21,NW,304,8.0,9.6,23,-99.99,,,0.00,1361,rob ver 1B,2013-08-28 00:57:00,
2013-08-27 17:58:00,101.8,57.8,29.21,WNW,296,9.0,11.1,23,-99.99,,,0.00,1335,rob ver 1B,2013-08-28 00:58:00,
2013-08-27 17:59:00,101.7,58.6,29.18,WSW,258,6.5,8.0,24,-99.99,,,0.00,1195,rob ver 1A,2013-08-28 00:59:00,
2013-08-27 18:00:00,101.7,57.9,29.21,WNW,286,10.1,12.1,23,-99.99,,,0.00,1274,rob ver 1B,2013-08-28 01:00:00,
2013-08-27 18:01:00,101.9,57.9,29.21,WNW,290,9.2,13.0,23,-99.99,,,0.00,1239,rob ver 1B,2013-08-28 01:01:00,
2013-08-27 18:02:00,102.0,57.9,29.21,WNW,286,10.5,12.8,23,-99.99,,,0.00,1226,rob ver 1B,2013-08-28 01:02:00,
2013-08-27 18:03:00,101.9,58.1,29.21,WNW,287,7.3,9.4,23,-99.99,,,0.00,1207,rob ver 1B,2013-08-28 01:03:00,
2013-08-27 18:04:00,101.4,58.6,29.18,WSW,242,2.5,3.6,24,-99.99,,,0.00,1084,rob ver 1A,2013-08-28 01:04:00,
2013-08-27 18:05:00,102.1,57.7,29.21,West,269,8.0,10.1,23,-99.99,,,0.00,1143,rob ver 1B,2013-08-28 01:05:00,
2013-08-27 18:06:00,102.3,57.7,29.21,West,275,8.3,10.7,22,-99.99,,,0.00,1124,rob ver 1B,2013-08-28 01:06:00,
2013-08-27 18:07:00,102.4,57.5,29.21,West,278,7.7,10.3,23,-99.99,,,0.00,1104,rob ver 1B,2013-08-28 01:07:00,
2013-08-27 18:08:00,102.2,57.3,29.21,West,267,9.7,12.8,22,-99.99,,,0.00,1078,rob ver 1B,2013-08-28 01:08:00,
2013-08-27 18:09:00,101.8,58.7,29.18,South,189,4.6,6.7,24,-99.99,,,0.00,971,rob ver 1A,2013-08-28 01:09:00,
2013-08-27 18:10:00,102.0,57.3,29.21,West,271,8.3,11.5,23,-99.99,,,0.00,1044,rob ver 1B,2013-08-28 01:10:00,
2013-08-27 18:11:00,102.0,57.4,29.21,West,281,10.1,12.5,23,-99.99,,,0.00,1027,rob ver 1B,2013-08-28 01:11:00,
2013-08-27 18:12:00,101.9,57.5,29.21,WNW,288,8.6,11.0,23,-99.99,,,0.00,1009,rob ver 1B,2013-08-28 01:12:00,
2013-08-27 18:13:00,102.0,57.5,29.21,West,266,9.8,13.1,23,-99.99,,,0.00,987,rob ver 1B,2013-08-28 01:13:00,
2013-08-27 18:14:00,102.1,57.5,29.21,West,267,7.9,10.6,23,-99.99,,,0.00,960,rob ver 1B,2013-08-28 01:14:00,
2013-08-27 18:15:00,101.5,58.7,29.18,SSW,211,7.6,9.3,24,-99.99,,,0.00,855,rob ver 1A,2013-08-28 01:15:00,
2013-08-27 18:16:00,102.0,57.5,29.21,West,263,7.8,10.5,23,-99.99,,,0.00,917,rob ver 1B,2013-08-28 01:16:00,
2013-08-27 18:17:00,102.0,57.4,29.21,WSW,258,6.1,8.6,23,-99.99,,,0.00,902,rob ver 1B,2013-08-28 01:17:00,
2013-08-27 18:18:00,102.1,57.5,29.21,West,262,5.5,7.5,22,-99.99,,,0.00,889,rob ver 1B,2013-08-28 01:18:00,
2013-08-27 18:19:00,102.1,57.2,29.21,WNW,285,6.9,8.5,22,-99.99,,,0.00,873,rob ver 1B,2013-08-28 01:19:00,
2013-08-27 18:20:00,101.1,58.7,29.18,South,186,9.7,11.3,24,-99.99,,,0.00,749,rob ver 1A,2013-08-28 01:20:00,
2013-08-27 18:21:00,102.0,57.4,29.21,WNW,285,8.4,10.1,23,-99.99,,,0.00,850,rob ver 1B,2013-08-28 01:21:00,
2013-08-27 18:22:00,101.9,57.3,29.21,WNW,283,6.4,7.7,23,-99.99,,,0.00,855,rob ver 1B,2013-08-28 01:22:00,
2013-08-27 18:23:00,101.9,57.2,29.21,WNW,283,5.7,6.7,23,-99.99,,,0.00,850,rob ver 1B,2013-08-28 01:23:00,
2013-08-27 18:24:00,101.9,57.1,29.21,WNW,295,5.9,8.5,22,-99.99,,,0.00,840,rob ver 1B,2013-08-28 01:24:00,
2013-08-27 18:25:00,100.7,58.7,29.18,South,186,6.0,7.0,25,-99.99,,,0.00,570,rob ver 1A,2013-08-28 01:25:00,
2013-08-27 18:26:00,102.0,57.4,29.21,West,270,4.4,5.9,23,-99.99,,,0.00,805,rob ver 1B,2013-08-28 01:26:00,
2013-08-27 18:27:00,102.1,57.3,29.21,SW,229,3.2,4.4,22,-99.99,,,0.00,779,rob ver 1B,2013-08-28 01:27:00,
2013-08-27 18:28:00,102.2,57.6,29.23,SW,232,6.5,7.8,23,-99.99,,,0.00,749,rob ver 1B,2013-08-28 01:28:00,
2013-08-27 18:29:00,102.1,57.9,29.21,WSW,241,6.1,7.9,23,-99.99,,,0.00,623.9,rob ver 1B,2013-08-28 01:29:00,
2013-08-27 18:30:00,100.7,58.6,29.18,SSW,198,4.3,6.4,25,-99.99,,,0.00,564.1,rob ver 1A,2013-08-28 01:30:00,
2013-08-27 18:31:00,101.9,57.7,29.21,SW,230,6.0,7.7,23,-99.99,,,0.00,524,rob ver 1B,2013-08-28 01:31:00,
2013-08-27 18:32:00,101.7,57.7,29.23,SW,233,5.0,6.6,23,-99.99,,,0.00,421.1,rob ver 1B,2013-08-28 01:32:00,
2013-08-27 18:33:00,101.6,57.8,29.23,West,262,5.7,7.6,23,-99.99,,,0.00,492.9,rob ver 1B,2013-08-28 01:33:00,
2013-08-27 18:34:00,101.6,58.0,29.23,West,270,7.7,9.5,23,-99.99,,,0.00,576.9,rob ver 1B,2013-08-28 01:34:00,
2013-08-27 18:35:00,100.9,58.6,29.18,South,176,8.9,10.8,25,-99.99,,,0.00,476.1,rob ver 1A,2013-08-28 01:35:00,
2013-08-27 18:36:00,101.6,58.1,29.23,West,270,4.5,5.5,23,-99.99,,,0.00,596.7,rob ver 1B,2013-08-28 01:36:00,
2013-08-27 18:37:00,101.6,57.9,29.23,WNW,282,5.0,6.6,23,-99.99,,,0.00,570.3,rob ver 1B,2013-08-28 01:37:00,
2013-08-27 18:38:00,101.7,57.7,29.23,WNW,285,4.7,6.8,23,-99.99,,,0.00,470.3,rob ver 1B,2013-08-28 01:38:00,
2013-08-27 18:39:00,101.7,57.5,29.23,West,278,6.3,7.5,23,-99.99,,,0.00,449.4,rob ver 1B,2013-08-28 01:39:00,
2013-08-27 18:40:00,100.4,58.7,29.18,SSW,213,7.1,8.3,25,-99.99,,,0.00,392.1,rob ver 1A,2013-08-28 01:40:00,
2013-08-27 18:41:00,101.6,57.7,29.23,West,270,6.7,8.2,23,-99.99,,,0.00,412.5,rob ver 1B,2013-08-28 01:41:00,
2013-08-27 18:42:00,101.6,57.6,29.23,WSW,258,6.5,8.3,23,-99.99,,,0.00,407.9,rob ver 1B,2013-08-28 01:42:00,
2013-08-27 18:43:00,101.6,57.6,29.23,West,264,6.5,7.8,23,-99.99,,,0.00,447.8,rob ver 1B,2013-08-28 01:43:00,
2013-08-27 18:44:00,101.5,57.6,29.23,West,263,4.8,6.0,23,-99.99,,,0.00,477.7,rob ver 1B,2013-08-28 01:44:00,
2013-08-27 18:45:00,101.5,57.7,29.23,West,261,4.1,5.9,23,-99.99,,,0.00,478.4,rob ver 1B,2013-08-28 01:45:00,
2013-08-27 18:46:00,100.3,58.7,29.18,SSW,209,7.8,9.2,25,-99.99,,,0.00,301.3,rob ver 1A,2013-08-28 01:46:00,
2013-08-27 18:47:00,101.6,57.5,29.23,West,259,6.8,8.8,23,-99.99,,,0.00,429.6,rob ver 1B,2013-08-28 01:47:00,
2013-08-27 18:48:00,101.5,57.5,29.23,West,272,7.5,8.5,23,-99.99,,,0.00,403.3,rob ver 1B,2013-08-28 01:48:00,
2013-08-27 18:49:00,101.5,57.5,29.23,West,277,5.8,7.2,23,-99.99,,,0.00,383.5,rob ver 1B,2013-08-28 01:49:00,
2013-08-27 18:50:00,101.5,57.5,29.23,West,264,5.0,6.0,23,-99.99,,,0.00,369.7,rob ver 1B,2013-08-28 01:50:00,
2013-08-27 18:51:00,100.1,58.6,29.18,SSW,202,6.6,7.4,25,-99.99,,,0.00,230.6,rob ver 1A,2013-08-28 01:51:00,
2013-08-27 18:52:00,101.6,57.4,29.23,WSW,248,4.6,6.8,23,-99.99,,,0.00,345.3,rob ver 1B,2013-08-28 01:52:00,
2013-08-27 18:53:00,101.5,57.4,29.23,WSW,246,4.3,5.6,23,-99.99,,,0.00,329.2,rob ver 1B,2013-08-28 01:53:00,
2013-08-27 18:54:00,101.5,57.4,29.23,WSW,252,3.0,4.1,23,-99.99,,,0.00,311.7,rob ver 1B,2013-08-28 01:54:00,
2013-08-27 18:55:00,101.5,57.3,29.23,WSW,254,3.9,4.9,23,-99.99,,,0.00,293.9,rob ver 1B,2013-08-28 01:55:00,
2013-08-27 18:56:00,99.8,58.6,29.18,SSW,209,8.6,10.2,26,-99.99,,,0.00,167.1,rob ver 1A,2013-08-28 01:56:00,
2013-08-27 18:57:00,101.6,57.3,29.23,WSW,241,3.8,5.1,23,-99.99,,,0.00,266.9,rob ver 1B,2013-08-28 01:57:00,
2013-08-27 18:58:00,101.5,57.4,29.23,SW,230,4.1,4.8,23,-99.99,,,0.00,257,rob ver 1B,2013-08-28 01:58:00,
2013-08-27 18:59:00,101.4,57.3,29.23,SW,224,4.0,4.9,23,-99.99,,,0.00,251.4,rob ver 1B,2013-08-28 01:59:00,
2013-08-27 19:00:00,101.4,57.3,29.23,SW,227,3.5,5.8,23,-99.99,,,0.00,244.6,rob ver 1B,2013-08-28 02:00:00,
2013-08-27 19:01:00,101.4,57.3,29.23,West,275,4.5,6.2,23,-99.99,,,0.00,232.9,rob ver 1B,2013-08-28 02:01:00,
2013-08-27 19:02:00,99.4,58.8,29.18,SW,220,8.1,9.7,26,-99.99,,,0.00,105.1,rob ver 1A,2013-08-28 02:02:00,
2013-08-27 19:03:00,101.4,57.4,29.23,WNW,290,1.4,2.4,23,-99.99,,,0.00,205.3,rob ver 1B,2013-08-28 02:03:00,
2013-08-27 19:04:00,101.4,57.3,29.23,WNW,289,1.9,2.6,23,-99.99,,,0.00,185.8,rob ver 1B,2013-08-28 02:04:00,
2013-08-27 19:05:00,101.4,57.3,29.23,WSW,241,1.7,2.5,23,-99.99,,,0.00,167.4,rob ver 1B,2013-08-28 02:05:00,
2013-08-27 19:06:00,101.3,57.3,29.23,SSW,212,3.7,5.2,23,-99.99,,,0.00,154.2,rob ver 1B,2013-08-28 02:06:00,
2013-08-27 19:07:00,98.9,59.0,29.18,SW,217,9.7,11.3,26,-99.99,,,0.00,40.53,rob ver 1A,2013-08-28 02:07:00,
2013-08-27 19:08:00,101.4,57.5,29.23,South,180,8.9,14.7,24,-99.99,,,0.00,132.8,rob ver 1B,2013-08-28 02:08:00,
2013-08-27 19:09:00,100.9,61.1,29.23,South,178,15.0,18.1,28,-99.99,,,0.00,121.9,rob ver 1B,2013-08-28 02:09:00,
2013-08-27 19:10:00,99.5,61.7,29.23,South,173,12.1,13.8,29,-99.99,,,0.00,110.1,rob ver 1B,2013-08-28 02:10:00,
2013-08-27 19:11:00,98.5,61.7,29.26,South,176,10.6,12.9,30,-99.99,,,0.00,99.8,rob ver 1B,2013-08-28 02:11:00,
2013-08-27 19:12:00,98.5,58.9,29.18,SSW,203,9.8,11.0,27,-99.99,,,0.00,22.08,rob ver 1A,2013-08-28 02:12:00,
2013-08-27 19:13:00,97.7,60.7,29.26,SSE,156,14.9,17.6,29,-99.99,,,0.00,81.4,rob ver 1B,2013-08-28 02:13:00,
2013-08-27 19:14:00,97.4,60.2,29.26,SSE,152,17.6,25.7,29,-99.99,,,0.00,71.8,rob ver 1B,2013-08-28 02:14:00,
2013-08-27 19:15:00,97.0,60.0,29.26,SSE,155,21.3,25.0,29,-99.99,,,0.00,63.59,rob ver 1B,2013-08-28 02:15:00,
2013-08-27 19:16:00,96.7,59.8,29.26,SSE,150,19.3,24.4,29,-99.99,,,0.00,56.67,rob ver 1B,2013-08-28 02:16:00,
2013-08-27 19:17:00,98.4,58.8,29.18,SSW,208,9.5,11.0,27,-99.99,,,0.00,10.87,rob ver 1A,2013-08-28 02:17:00,
2013-08-27 19:18:00,96.4,59.7,29.26,SE,143,17.2,20.5,29,-99.99,,,0.00,40.86,rob ver 1B,2013-08-28 02:18:00,
2013-08-27 19:19:00,96.4,59.7,29.26,SE,137,17.2,19.7,29,-99.99,,,0.00,31.8,rob ver 1B,2013-08-28 02:19:00,
2013-08-27 19:20:00,96.5,59.7,29.26,ESE,122,17.3,22.5,29,-99.99,,,0.00,24.71,rob ver 1B,2013-08-28 02:20:00,
2013-08-27 19:21:00,96.5,60.5,29.26,ESE,103,17.6,24.0,32,-99.99,,,0.00,18.45,rob ver 1B,2013-08-28 02:21:00,
2013-08-27 19:22:00,95.8,63.8,29.26,East,99,18.9,23.7,36,-99.99,,,0.00,13.34,rob ver 1B,2013-08-28 02:22:00,
2013-08-27 19:23:00,98.3,59.0,29.18,SSW,205,8.1,9.6,27,-99.99,,,0.00,4.613,rob ver 1A,2013-08-28 02:23:00,
2013-08-27 19:24:00,94.4,65.3,29.26,East,98,18.2,25.9,39,-99.99,,,0.00,6.59,rob ver 1B,2013-08-28 02:24:00,
2013-08-27 19:25:00,93.8,65.8,29.26,East,87,19.0,26.9,40,-99.99,,,0.00,4.613,rob ver 1B,2013-08-28 02:25:00,
2013-08-27 19:26:00,93.6,66.0,29.26,East,95,18.7,23.8,40,-99.99,,,0.00,2.801,rob ver 1B,2013-08-28 02:26:00,
2013-08-27 19:27:00,93.4,66.0,29.26,East,99,18.8,24.0,40,-99.99,,,0.00,1.977,rob ver 1B,2013-08-28 02:27:00,
2013-08-27 19:28:00,98.2,59.2,29.18,SSW,205,8.9,11.2,27,-99.99,,,0.00,1.318,rob ver 1A,2013-08-28 02:28:00,
2013-08-27 19:29:00,93.1,65.9,29.26,ESE,106,20.0,23.4,40,-99.99,,,0.00,.659,rob ver 1B,2013-08-28 02:29:00,
2013-08-27 19:30:00,93.1,65.8,29.26,ESE,106,22.5,27.7,40,-99.99,,,0.00,.659,rob ver 1B,2013-08-28 02:30:00,
2013-08-27 19:31:00,93.1,65.9,29.26,ESE,106,22.1,27.6,41,-99.99,,,0.00,.165,rob ver 1B,2013-08-28 02:31:00,
2013-08-27 19:32:00,93.0,66.2,29.26,ESE,103,20.3,25.4,41,-99.99,,,0.00,0,rob ver 1B,2013-08-28 02:32:00,
2013-08-27 19:33:00,98.0,59.1,29.18,SSW,194,9.7,11.5,27,-99.99,,,0.00,.33,rob ver 1A,2013-08-28 02:33:00,
2013-08-27 19:34:00,93.1,66.3,29.26,ESE,109,22.5,27.5,41,-99.99,,,0.00,0,rob ver 1B,2013-08-28 02:34:00,
2013-08-27 19:35:00,93.1,66.4,29.26,ESE,108,20.0,26.0,41,-99.99,,,0.00,0,rob ver 1B,2013-08-28 02:35:00,
2013-08-27 19:36:00,93.1,66.6,29.26,ESE,110,19.5,26.3,41,-99.99,,,0.00,0,rob ver 1B,2013-08-28 02:36:00,
2013-08-27 19:37:00,93.0,66.8,29.26,ESE,114,20.8,26.3,42,-99.99,,,0.00,0,rob ver 1B,2013-08-28 02:37:00,
2013-08-27 19:38:00,93.0,66.8,29.29,ESE,117,17.3,24.1,42,-99.99,,,0.00,0,rob ver 1B,2013-08-28 02:38:00,
2013-08-27 19:39:00,97.8,59.1,29.18,South,190,8.1,10.1,27,-99.99,,,0.00,0,rob ver 1A,2013-08-28 02:39:00,
2013-08-27 19:40:00,92.6,67.2,29.26,ESE,120,18.7,22.8,43,-99.99,,,0.00,0,rob ver 1B,2013-08-28 02:40:00,
2013-08-27 19:41:00,92.5,67.2,29.26,ESE,118,21.5,26.2,43,-99.99,,,0.00,0,rob ver 1B,2013-08-28 02:41:00,
2013-08-27 19:42:00,92.3,67.2,29.26,ESE,119,20.7,26.1,44,-99.99,,,0.00,0,rob ver 1B,2013-08-28 02:42:00,
2013-08-27 19:43:00,92.1,67.3,29.29,ESE,118,20.3,24.8,44,-99.99,,,0.00,0,rob ver 1B,2013-08-28 02:43:00,
2013-08-27 19:44:00,91.9,67.3,29.26,ESE,116,20.7,25.1,44,-99.99,,,0.00,0,rob ver 1B,2013-08-28 02:44:00,
2013-08-27 19:45:00,97.5,59.3,29.18,South,190,8.1,10.2,28,-99.99,,,0.00,0,rob ver 1A,2013-08-28 02:45:00,
2013-08-27 19:46:00,91.9,67.2,29.29,ESE,119,16.9,21.4,44,-99.99,,,0.00,0,rob ver 1B,2013-08-28 02:46:00,
2013-08-27 19:47:00,91.7,67.3,29.29,ESE,103,16.5,20.9,45,-99.99,,,0.00,0,rob ver 1B,2013-08-28 02:47:00,
2013-08-27 19:48:00,91.6,67.6,29.29,East,101,16.6,20.6,45,-99.99,,,0.00,0,rob ver 1B,2013-08-28 02:48:00,
2013-08-27 19:49:00,91.6,67.8,29.29,ESE,109,16.0,20.2,45,-99.99,,,0.00,0,rob ver 1B,2013-08-28 02:49:00,
2013-08-27 19:50:00,97.3,59.3,29.18,South,189,8.4,10.9,28,-99.99,,,0.00,0,rob ver 1A,2013-08-28 02:50:00,
2013-08-27 19:51:00,91.3,68.2,29.29,ESE,115,13.8,19.3,47,-99.99,,,0.00,0,rob ver 1B,2013-08-28 02:51:00,
2013-08-27 19:52:00,91.1,68.4,29.29,ESE,116,15.7,20.2,47,-99.99,,,0.00,0,rob ver 1B,2013-08-28 02:52:00,
2013-08-27 19:53:00,90.6,68.7,29.29,SE,129,15.2,18.1,49,-99.99,,,0.00,0,rob ver 1B,2013-08-28 02:53:00,
2013-08-27 19:54:00,90.2,68.9,29.29,SE,125,15.8,19.5,50,-99.99,,,0.00,0,rob ver 1B,2013-08-28 02:54:00,
2013-08-27 19:55:00,89.8,69.0,29.29,SE,129,13.5,16.5,50,-99.99,,,0.00,0,rob ver 1B,2013-08-28 02:55:00,
2013-08-27 19:56:00,97.2,59.3,29.18,South,188,8.1,10.2,28,-99.99,,,0.00,0,rob ver 1A,2013-08-28 02:56:00,
2013-08-27 19:57:00,89.2,68.7,29.29,SE,127,11.7,14.0,51,-99.99,,,0.00,0,rob ver 1B,2013-08-28 02:57:00,
2013-08-27 19:58:00,89.1,68.7,29.29,SE,133,11.6,14.5,51,-99.99,,,0.00,0,rob ver 1B,2013-08-28 02:58:00,
2013-08-27 19:59:00,88.9,68.9,29.29,SE,135,11.0,12.8,52,-99.99,,,0.00,0,rob ver 1B,2013-08-28 02:59:00,
2013-08-27 20:00:00,88.8,69.2,29.29,SE,138,10.4,14.2,52,-99.99,,,0.00,0,rob ver 1B,2013-08-28 03:00:00,
2013-08-27 20:01:00,97.2,59.5,29.18,South,187,7.3,9.0,28,-99.99,,,0.00,0,rob ver 1A,2013-08-28 03:01:00,
2013-08-27 20:02:00,88.7,69.2,29.29,SE,133,12.7,15.8,52,-99.99,,,0.00,0,rob ver 1B,2013-08-28 03:02:00,
2013-08-27 20:03:00,88.7,69.1,29.29,SE,130,12.0,14.2,52,-99.99,,,0.00,0,rob ver 1B,2013-08-28 03:03:00,
2013-08-27 20:04:00,88.7,69.0,29.29,SE,139,12.1,14.1,52,-99.99,,,0.00,0,rob ver 1B,2013-08-28 03:04:00,
2013-08-27 20:05:00,88.8,69.1,29.29,SE,139,10.7,15.4,52,-99.99,,,0.00,0,rob ver 1B,2013-08-28 03:05:00,
2013-08-27 20:06:00,97.1,59.7,29.18,South,181,8.2,10.2,29,-99.99,,,0.00,0,rob ver 1A,2013-08-28 03:06:00,
2013-08-27 20:07:00,88.9,69.7,29.29,SSE,163,11.2,14.0,53,-99.99,,,0.00,0,rob ver 1B,2013-08-28 03:07:00,
2013-08-27 20:08:00,88.6,69.6,29.29,SSE,154,12.8,16.4,53,-99.99,,,0.00,0,rob ver 1B,2013-08-28 03:08:00,
2013-08-27 20:09:00,88.3,69.7,29.29,SSE,163,11.6,15.2,54,-99.99,,,0.00,0,rob ver 1B,2013-08-28 03:09:00,
2013-08-27 20:10:00,88.2,69.8,29.29,SSE,162,9.8,12.1,54,-99.99,,,0.00,0,rob ver 1B,2013-08-28 03:10:00,
2013-08-27 20:11:00,96.9,60.2,29.18,South,182,8.2,9.8,29,-99.99,,,0.00,0,rob ver 1A,2013-08-28 03:11:00,
2013-08-27 20:12:00,88.0,69.6,29.29,SSE,151,10.1,13.6,54,-99.99,,,0.00,0,rob ver 1B,2013-08-28 03:12:00,
2013-08-27 20:13:00,87.9,69.2,29.29,SE,138,11.9,14.1,54,-99.99,,,0.00,0,rob ver 1B,2013-08-28 03:13:00,
2013-08-27 20:14:00,87.8,69.3,29.29,SE,137,9.8,12.6,54,-99.99,,,0.00,0,rob ver 1B,2013-08-28 03:14:00,
2013-08-27 20:15:00,87.8,69.4,29.29,SE,145,9.7,11.3,54,-99.99,,,0.00,0,rob ver 1B,2013-08-28 03:15:00,
2013-08-27 20:16:00,96.6,60.3,29.18,South,175,7.8,9.1,30,-99.99,,,0.00,0,rob ver 1A,2013-08-28 03:16:00,
2013-08-27 20:17:00,87.6,69.2,29.29,SE,136,10.7,12.9,55,-99.99,,,0.00,0,rob ver 1B,2013-08-28 03:17:00,
2013-08-27 20:18:00,87.5,69.1,29.29,SE,141,11.2,13.9,54,-99.99,,,0.00,0,rob ver 1B,2013-08-28 03:18:00,
2013-08-27 20:19:00,87.4,69.2,29.29,SE,142,10.0,12.3,55,-99.99,,,0.00,0,rob ver 1B,2013-08-28 03:19:00,
2013-08-27 20:20:00,87.3,69.4,29.29,SE,138,11.6,14.1,55,-99.99,,,0.00,0,rob ver 1B,2013-08-28 03:20:00,
2013-08-27 20:21:00,96.5,60.3,29.18,South,178,7.6,9.0,30,-99.99,,,0.00,0,rob ver 1A,2013-08-28 03:21:00,
2013-08-27 20:22:00,87.3,69.5,29.29,SE,140,10.3,14.3,55,-99.99,,,0.00,0,rob ver 1B,2013-08-28 03:22:00,
2013-08-27 20:23:00,87.3,69.2,29.29,SE,137,11.6,14.0,54,-99.99,,,0.00,0,rob ver 1B,2013-08-28 03:23:00,
2013-08-27 20:24:00,87.3,68.9,29.29,SE,139,10.0,12.7,54,-99.99,,,0.00,0,rob ver 1B,2013-08-28 03:24:00,
2013-08-27 20:25:00,87.3,68.8,29.29,SE,135,10.0,12.5,54,-99.99,,,0.00,0,rob ver 1B,2013-08-28 03:25:00,
2013-08-27 20:26:00,96.4,60.5,29.18,South,180,7.2,8.8,30,-99.99,,,0.00,0,rob ver 1A,2013-08-28 03:26:00,
2013-08-27 20:27:00,87.3,69.1,29.29,SE,140,8.8,11.1,55,-99.99,,,0.00,0,rob ver 1B,2013-08-28 03:27:00,
2013-08-27 20:28:00,87.1,68.9,29.29,SE,132,9.5,11.5,54,-99.99,,,0.00,0,rob ver 1B,2013-08-28 03:28:00,
2013-08-27 20:29:00,86.9,68.9,29.29,SE,131,7.5,9.8,55,-99.99,,,0.00,0,rob ver 1B,2013-08-28 03:29:00,
2013-08-27 20:30:00,86.8,68.8,29.29,SE,127,7.4,9.0,55,-99.99,,,0.00,0,rob ver 1B,2013-08-28 03:30:00,
2013-08-27 20:31:00,96.3,60.5,29.21,South,185,6.9,8.4,30,-99.99,,,0.00,0,rob ver 1A,2013-08-28 03:31:00,
2013-08-27 20:32:00,86.8,68.3,29.29,SE,124,9.1,11.9,54,-99.99,,,0.00,0,rob ver 1B,2013-08-28 03:32:00,
2013-08-27 20:33:00,86.8,67.7,29.29,SE,125,8.9,11.9,51,-99.99,,,0.00,0,rob ver 1B,2013-08-28 03:33:00,
2013-08-27 20:34:00,87.1,67.4,29.29,SE,128,8.7,10.9,52,-99.99,,,0.00,0,rob ver 1B,2013-08-28 03:34:00,
2013-08-27 20:35:00,87.2,67.5,29.29,SE,137,8.9,10.2,52,-99.99,,,0.00,0,rob ver 1B,2013-08-28 03:35:00,
2013-08-27 20:36:00,87.2,67.6,29.29,SE,139,8.7,10.5,52,-99.99,,,0.00,0,rob ver 1B,2013-08-28 03:36:00,
2013-08-27 20:37:00,96.2,60.4,29.21,South,190,7.6,10.6,30,-99.99,,,0.00,0,rob ver 1A,2013-08-28 03:37:00,
2013-08-27 20:38:00,87.0,67.3,29.29,SE,140,8.2,9.5,52,-99.99,,,0.00,0,rob ver 1B,2013-08-28 03:38:00,
2013-08-27 20:39:00,86.9,67.5,29.29,SE,140,7.5,10.0,53,-99.99,,,0.00,0,rob ver 1B,2013-08-28 03:39:00,
2013-08-27 20:40:00,87.0,67.3,29.29,SE,139,8.0,10.0,52,-99.99,,,0.00,0,rob ver 1B,2013-08-28 03:40:00,
2013-08-27 20:41:00,87.1,67.1,29.29,SE,141,8.9,11.3,50,-99.99,,,0.00,0,rob ver 1B,2013-08-28 03:41:00,
2013-08-27 20:42:00,95.9,60.9,29.21,SSW,192,8.3,10.1,31,-99.99,,,0.00,0,rob ver 1A,2013-08-28 03:42:00,
2013-08-27 20:43:00,87.2,66.7,29.29,SE,140,9.1,10.7,49,-99.99,,,0.00,0,rob ver 1B,2013-08-28 03:43:00,
2013-08-27 20:44:00,87.4,66.1,29.29,SE,144,9.3,11.8,48,-99.99,,,0.00,0,rob ver 1B,2013-08-28 03:44:00,
2013-08-27 20:45:00,87.5,65.9,29.29,SSE,147,10.5,12.0,48,-99.99,,,0.00,0,rob ver 1B,2013-08-28 03:45:00,
2013-08-27 20:46:00,87.5,65.8,29.29,SE,143,11.2,13.3,48,-99.99,,,0.00,0,rob ver 1B,2013-08-28 03:46:00,
2013-08-27 20:47:00,95.6,61.4,29.21,South,184,8.0,10.4,32,-99.99,,,0.00,0,rob ver 1A,2013-08-28 03:47:00,
2013-08-27 20:48:00,87.5,65.6,29.29,SE,138,10.0,12.4,48,-99.99,,,0.00,0,rob ver 1B,2013-08-28 03:48:00,
2013-08-27 20:49:00,87.6,65.6,29.29,SE,137,8.9,10.4,47,-99.99,,,0.00,0,rob ver 1B,2013-08-28 03:49:00,
2013-08-27 20:50:00,87.7,65.5,29.32,SE,133,8.0,10.2,47,-99.99,,,0.00,0,rob ver 1B,2013-08-28 03:50:00,
2013-08-27 20:51:00,87.7,65.4,29.32,SE,132,9.0,10.3,47,-99.99,,,0.00,0,rob ver 1B,2013-08-28 03:51:00,
2013-08-27 20:52:00,95.2,61.9,29.21,SSW,195,9.9,12.4,33,-99.99,,,0.00,0,rob ver 1A,2013-08-28 03:52:00,
2013-08-27 20:53:00,87.8,65.6,29.32,ESE,104,9.2,11.4,47,-99.99,,,0.00,0,rob ver 1B,2013-08-28 03:53:00,
2013-08-27 20:54:00,87.7,65.6,29.32,ESE,105,9.8,11.2,47,-99.99,,,0.00,0,rob ver 1B,2013-08-28 03:54:00,
2013-08-27 20:55:00,87.7,65.7,29.32,ESE,109,8.4,11.3,47,-99.99,,,0.00,0,rob ver 1B,2013-08-28 03:55:00,
2013-08-27 20:56:00,87.7,65.6,29.32,ESE,102,8.9,10.9,48,-99.99,,,0.00,0,rob ver 1B,2013-08-28 03:56:00,
2013-08-27 20:57:00,94.8,62.0,29.21,SSW,197,9.1,11.7,33,-99.99,,,0.00,0,rob ver 1A,2013-08-28 03:57:00,
2013-08-27 20:58:00,87.8,65.3,29.32,East,100,7.5,9.3,47,-99.99,,,0.00,0,rob ver 1B,2013-08-28 03:58:00,
2013-08-27 20:59:00,87.9,65.0,29.32,East,97,7.4,9.1,46,-99.99,,,0.00,0,rob ver 1B,2013-08-28 03:59:00,
2013-08-27 21:00:00,88.0,64.5,29.32,ESE,105,8.5,10.3,45,-99.99,,,0.00,0,rob ver 1B,2013-08-28 04:00:00,
2013-08-27 21:01:00,94.6,62.2,29.21,SSW,195,9.0,10.7,34,-99.99,,,0.00,0,rob ver 1A,2013-08-28 04:01:00,
2013-08-27 21:02:00,94.5,62.3,29.21,SSW,197,10.1,11.2,34,-99.99,,,0.00,0,rob ver 1A,2013-08-28 04:02:00,
2013-08-27 21:03:00,94.4,62.3,29.21,SSW,195,8.5,10.7,34,-99.99,,,0.00,0,rob ver 1A,2013-08-28 04:03:00,
2013-08-27 21:04:00,88.4,63.9,29.32,East,97,9.3,11.8,44,-99.99,,,0.00,0,rob ver 1B,2013-08-28 04:04:00,
2013-08-27 21:05:00,88.4,63.6,29.32,East,100,9.3,12.1,43,-99.99,,,0.00,0,rob ver 1B,2013-08-28 04:05:00,
2013-08-27 21:06:00,88.4,63.6,29.32,ESE,102,9.6,11.5,43,-99.99,,,0.00,0,rob ver 1B,2013-08-28 04:06:00,
2013-08-27 21:07:00,88.3,63.6,29.32,ESE,104,8.5,11.1,43,-99.99,,,0.00,0,rob ver 1B,2013-08-28 04:07:00,
2013-08-27 21:08:00,94.3,62.4,29.21,SSW,192,8.9,10.9,34,-99.99,,,0.00,0,rob ver 1A,2013-08-28 04:08:00,
2013-08-27 21:09:00,88.5,61.9,29.32,ESE,104,13.5,17.7,40,-99.99,,,0.00,0,rob ver 1B,2013-08-28 04:09:00,
2013-08-27 21:10:00,88.9,61.5,29.32,ESE,109,12.8,16.8,39,-99.99,,,0.00,0,rob ver 1B,2013-08-28 04:10:00,
2013-08-27 21:11:00,89.3,61.5,29.32,ESE,106,11.0,13.2,39,-99.99,,,0.00,0,rob ver 1B,2013-08-28 04:11:00,
2013-08-27 21:12:00,89.4,61.7,29.32,East,99,9.0,11.0,39,-99.99,,,0.00,0,rob ver 1B,2013-08-28 04:12:00,
2013-08-27 21:13:00,94.1,62.6,29.21,SSW,194,9.5,11.3,35,-99.99,,,0.00,0,rob ver 1A,2013-08-28 04:13:00,
2013-08-27 21:14:00,89.4,61.7,29.32,ESE,116,7.9,10.8,39,-99.99,,,0.00,0,rob ver 1B,2013-08-28 04:14:00,
2013-08-27 21:15:00,89.4,61.8,29.32,ESE,121,6.9,9.0,39,-99.99,,,0.00,0,rob ver 1B,2013-08-28 04:15:00,
2013-08-27 21:16:00,89.4,61.9,29.32,ESE,114,7.4,9.9,40,-99.99,,,0.00,0,rob ver 1B,2013-08-28 04:16:00,
2013-08-27 21:17:00,94.0,63.2,29.21,South,191,9.0,10.8,36,-99.99,,,0.00,0,rob ver 1A,2013-08-28 04:17:00,
2013-08-27 21:18:00,89.2,62.5,29.32,SE,136,7.0,11.0,41,-99.99,,,0.00,0,rob ver 1B,2013-08-28 04:18:00,
2013-08-27 21:19:00,89.1,62.3,29.32,SE,127,8.9,11.9,41,-99.99,,,0.00,0,rob ver 1B,2013-08-28 04:19:00,
2013-08-27 21:20:00,89.0,62.4,29.32,SE,128,9.4,13.7,41,-99.99,,,0.00,0,rob ver 1B,2013-08-28 04:20:00,
2013-08-27 21:21:00,88.7,62.6,29.32,SE,127,9.2,12.9,42,-99.99,,,0.00,0,rob ver 1B,2013-08-28 04:21:00,
2013-08-27 21:22:00,88.5,62.7,29.32,ESE,116,8.7,10.9,42,-99.99,,,0.00,0,rob ver 1B,2013-08-28 04:22:00,
2013-08-27 21:23:00,93.7,63.7,29.21,SSW,194,8.9,11.0,37,-99.99,,,0.00,0,rob ver 1A,2013-08-28 04:23:00,
2013-08-27 21:24:00,88.5,62.0,29.32,East,87,6.6,9.4,41,-99.99,,,0.00,0,rob ver 1B,2013-08-28 04:24:00,
2013-08-27 21:25:00,88.5,62.2,29.32,East,85,8.4,12.0,41,-99.99,,,0.00,0,rob ver 1B,2013-08-28 04:25:00,
2013-08-27 21:26:00,88.5,62.2,29.32,East,88,8.7,10.6,41,-99.99,,,0.00,0,rob ver 1B,2013-08-28 04:26:00,
2013-08-27 21:27:00,88.4,62.3,29.32,East,82,9.4,12.1,41,-99.99,,,0.00,0,rob ver 1B,2013-08-28 04:27:00,
2013-08-27 21:28:00,93.4,64.2,29.21,SSW,195,7.8,9.3,38,-99.99,,,0.00,0,rob ver 1A,2013-08-28 04:28:00,
2013-08-27 21:29:00,88.4,62.3,29.32,East,101,8.9,11.4,41,-99.99,,,0.00,0,rob ver 1B,2013-08-28 04:29:00,
2013-08-27 21:30:00,88.3,62.3,29.32,East,101,8.1,9.8,41,-99.99,,,0.00,0,rob ver 1B,2013-08-28 04:30:00,
2013-08-27 21:31:00,88.3,62.3,29.32,East,96,7.6,9.6,41,-99.99,,,0.00,0,rob ver 1B,2013-08-28 04:31:00,
2013-08-27 21:32:00,88.3,62.2,29.32,East,97,6.8,8.1,41,-99.99,,,0.00,0,rob ver 1B,2013-08-28 04:32:00,
2013-08-27 21:33:00,93.2,64.6,29.21,SSW,192,6.7,8.7,39,-99.99,,,0.00,0,rob ver 1A,2013-08-28 04:33:00,
2013-08-27 21:34:00,88.3,62.2,29.32,East,88,7.4,9.6,41,-99.99,,,0.00,0,rob ver 1B,2013-08-28 04:34:00,
2013-08-27 21:35:00,88.3,62.2,29.32,East,79,8.9,11.2,41,-99.99,,,0.00,0,rob ver 1B,2013-08-28 04:35:00,
2013-08-27 21:36:00,88.2,62.1,29.32,East,82,8.4,10.5,41,-99.99,,,0.00,0,rob ver 1B,2013-08-28 04:36:00,
2013-08-27 21:37:00,88.2,62.0,29.35,East,94,9.9,12.2,41,-99.99,,,0.00,0,rob ver 1B,2013-08-28 04:37:00,
2013-08-27 21:38:00,92.9,64.9,29.21,South,191,6.2,7.8,39,-99.99,,,0.00,0,rob ver 1A,2013-08-28 04:38:00,
2013-08-27 21:39:00,88.0,61.9,29.32,ESE,118,10.7,12.9,41,-99.99,,,0.00,0,rob ver 1B,2013-08-28 04:39:00,
2013-08-27 21:40:00,87.8,61.9,29.32,ESE,114,10.3,12.4,42,-99.99,,,0.00,0,rob ver 1B,2013-08-28 04:40:00,
2013-08-27 21:41:00,87.7,62.2,29.35,ESE,123,7.4,9.6,44,-99.99,,,0.00,0,rob ver 1B,2013-08-28 04:41:00,
2013-08-27 21:42:00,87.6,63.6,29.35,SSE,148,6.3,7.9,45,-99.99,,,0.00,0,rob ver 1B,2013-08-28 04:42:00,
2013-08-27 21:43:00,92.7,65.2,29.21,South,188,5.5,6.9,40,-99.99,,,0.00,0,rob ver 1A,2013-08-28 04:43:00,
2013-08-27 21:44:00,86.8,62.8,29.32,ESE,117,7.2,9.7,43,-99.99,,,0.00,0,rob ver 1B,2013-08-28 04:44:00,
2013-08-27 21:45:00,87.0,62.2,29.32,ESE,108,8.1,9.7,43,-99.99,,,0.00,0,rob ver 1B,2013-08-28 04:45:00,
2013-08-27 21:46:00,87.3,62.2,29.32,ESE,108,7.3,9.0,42,-99.99,,,0.00,0,rob ver 1B,2013-08-28 04:46:00,
2013-08-27 21:47:00,87.5,62.1,29.32,ESE,120,8.4,11.3,42,-99.99,,,0.00,0,rob ver 1B,2013-08-28 04:47:00,
2013-08-27 21:48:00,92.6,65.3,29.21,South,185,4.3,5.3,40,-99.99,,,0.00,0,rob ver 1A,2013-08-28 04:48:00,
2013-08-27 21:49:00,87.6,62.2,29.32,SE,124,6.3,9.7,42,-99.99,,,0.00,0,rob ver 1B,2013-08-28 04:49:00,
2013-08-27 21:50:00,87.6,62.2,29.32,ESE,120,10.6,13.3,42,-99.99,,,0.00,0,rob ver 1B,2013-08-28 04:50:00,
2013-08-27 21:51:00,87.6,62.2,29.35,SE,124,10.8,12.9,43,-99.99,,,0.00,0,rob ver 1B,2013-08-28 04:51:00,
2013-08-27 21:52:00,87.5,62.3,29.35,ESE,114,9.6,11.8,43,-99.99,,,0.00,0,rob ver 1B,2013-08-28 04:52:00,
2013-08-27 21:53:00,92.4,65.4,29.21,South,183,4.6,5.4,41,-99.99,,,0.00,0,rob ver 1A,2013-08-28 04:53:00,
2013-08-27 21:54:00,87.2,64.3,29.32,SSE,151,7.4,9.0,47,-99.99,,,0.00,0,rob ver 1B,2013-08-28 04:54:00,
2013-08-27 21:55:00,86.8,64.3,29.35,SSE,151,7.1,8.9,47,-99.99,,,0.00,0,rob ver 1B,2013-08-28 04:55:00,
2013-08-27 21:56:00,86.4,64.5,29.35,SSE,150,7.1,8.2,48,-99.99,,,0.00,0,rob ver 1B,2013-08-28 04:56:00,
2013-08-27 21:57:00,86.2,64.3,29.35,SSE,148,6.5,8.2,48,-99.99,,,0.00,0,rob ver 1B,2013-08-28 04:57:00,
2013-08-27 21:58:00,92.3,65.5,29.21,SSW,197,4.4,5.2,41,-99.99,,,0.00,0,rob ver 1A,2013-08-28 04:58:00,
2013-08-27 21:59:00,86.1,64.1,29.35,SE,138,6.9,8.8,48,-99.99,,,0.00,0,rob ver 1B,2013-08-28 04:59:00,
2013-08-27 22:00:00,86.1,64.3,29.35,SE,138,6.3,7.8,48,-99.99,,,0.00,0,rob ver 1B,2013-08-28 05:00:00,
2013-08-27 22:01:00,86.1,64.2,29.35,SE,134,6.1,7.1,47,-99.99,,,0.00,0,rob ver 1B,2013-08-28 05:01:00,
2013-08-27 22:02:00,86.2,63.6,29.35,ESE,116,5.6,6.8,46,-99.99,,,0.00,0,rob ver 1B,2013-08-28 05:02:00,
2013-08-27 22:03:00,86.4,64.0,29.35,ESE,121,5.0,6.3,46,-99.99,,,0.00,0,rob ver 1B,2013-08-28 05:03:00,
2013-08-27 22:04:00,92.3,65.5,29.21,SSW,192,3.7,4.6,41,-99.99,,,0.00,0,rob ver 1A,2013-08-28 05:04:00,
2013-08-27 22:05:00,86.4,63.3,29.35,East,85,6.2,7.3,46,-99.99,,,0.00,0,rob ver 1B,2013-08-28 05:05:00,
2013-08-27 22:06:00,86.3,63.4,29.35,East,85,6.3,7.5,46,-99.99,,,0.00,0,rob ver 1B,2013-08-28 05:06:00,
2013-08-27 22:07:00,86.1,63.4,29.35,East,84,5.6,7.6,46,-99.99,,,0.00,0,rob ver 1B,2013-08-28 05:07:00,
2013-08-27 22:08:00,86.0,63.4,29.35,ENE,72,4.5,6.1,47,-99.99,,,0.00,0,rob ver 1B,2013-08-28 05:08:00,
2013-08-27 22:09:00,92.2,65.4,29.21,SSW,203,3.8,4.7,41,-99.99,,,0.00,0,rob ver 1A,2013-08-28 05:09:00,
2013-08-27 22:10:00,86.0,63.4,29.35,ENE,66,4.4,5.9,46,-99.99,,,0.00,0,rob ver 1B,2013-08-28 05:10:00,
2013-08-27 22:11:00,86.0,63.4,29.35,NE,54,4.3,5.9,46,-99.99,,,0.00,0,rob ver 1B,2013-08-28 05:11:00,
2013-08-27 22:12:00,86.0,63.5,29.35,NE,51,3.9,5.9,47,-99.99,,,0.00,0,rob ver 1B,2013-08-28 05:12:00,
2013-08-27 22:13:00,86.1,63.6,29.35,ENE,69,6.1,7.6,47,-99.99,,,0.00,0,rob ver 1B,2013-08-28 05:13:00,
2013-08-27 22:14:00,92.2,65.5,29.21,SSW,198,2.9,3.7,41,-99.99,,,0.00,0,rob ver 1A,2013-08-28 05:14:00,
2013-08-27 22:15:00,85.9,63.9,29.35,NE,47,8.5,10.6,48,-99.99,,,0.00,0,rob ver 1B,2013-08-28 05:15:00,
2013-08-27 22:16:00,85.8,64.0,29.35,NE,52,8.9,11.0,48,-99.99,,,0.00,0,rob ver 1B,2013-08-28 05:16:00,
2013-08-27 22:17:00,85.7,64.1,29.35,NE,53,8.8,11.4,48,-99.99,,,0.00,0,rob ver 1B,2013-08-28 05:17:00,
2013-08-27 22:18:00,85.7,64.2,29.35,NE,55,9.1,11.9,48,-99.99,,,0.00,0,rob ver 1B,2013-08-28 05:18:00,
2013-08-27 22:19:00,92.2,65.6,29.21,SSW,195,3.8,4.6,41,-99.99,,,0.00,0,rob ver 1A,2013-08-28 05:19:00,
2013-08-27 22:20:00,85.7,64.3,29.35,ENE,58,7.3,10.1,48,-99.99,,,0.00,0,rob ver 1B,2013-08-28 05:20:00,
2013-08-27 22:21:00,85.8,64.3,29.35,ENE,58,7.7,11.2,48,-99.99,,,0.00,0,rob ver 1B,2013-08-28 05:21:00,
2013-08-27 22:22:00,85.9,64.4,29.35,NE,56,7.0,9.7,48,-99.99,,,0.00,0,rob ver 1B,2013-08-28 05:22:00,
2013-08-27 22:23:00,85.9,64.6,29.35,NE,53,7.5,10.8,49,-99.99,,,0.00,0,rob ver 1B,2013-08-28 05:23:00,
2013-08-27 22:24:00,92.1,65.8,29.21,South,187,3.6,4.7,42,-99.99,,,0.00,0,rob ver 1A,2013-08-28 05:24:00,
2013-08-27 22:25:00,85.7,65.1,29.35,ENE,65,8.7,12.1,50,-99.99,,,0.00,0,rob ver 1B,2013-08-28 05:25:00,
2013-08-27 22:26:00,85.6,65.4,29.35,ENE,61,8.8,13.0,51,-99.99,,,0.00,0,rob ver 1B,2013-08-28 05:26:00,
2013-08-27 22:27:00,85.5,65.7,29.35,ENE,63,9.9,13.4,51,-99.99,,,0.00,0,rob ver 1B,2013-08-28 05:27:00,
2013-08-27 22:28:00,85.3,65.8,29.35,ENE,64,8.9,12.4,52,-99.99,,,0.00,0,rob ver 1B,2013-08-28 05:28:00,
2013-08-27 22:29:00,91.9,66.0,29.21,South,186,4.0,4.6,42,-99.99,,,0.00,0,rob ver 1A,2013-08-28 05:29:00,
2013-08-27 22:30:00,85.0,66.0,29.35,ENE,75,9.4,10.9,53,-99.99,,,0.00,0,rob ver 1B,2013-08-28 05:30:00,
2013-08-27 22:31:00,85.0,66.0,29.35,ENE,70,8.2,10.8,53,-99.99,,,0.00,0,rob ver 1B,2013-08-28 05:31:00,
2013-08-27 22:32:00,85.0,66.0,29.35,ENE,73,8.2,10.6,53,-99.99,,,0.00,0,rob ver 1B,2013-08-28 05:32:00,
2013-08-27 22:33:00,85.0,66.1,29.35,ENE,71,9.1,10.5,53,-99.99,,,0.00,0,rob ver 1B,2013-08-28 05:33:00,
2013-08-27 22:34:00,91.8,66.0,29.21,South,182,4.1,5.3,42,-99.99,,,0.00,0,rob ver 1A,2013-08-28 05:34:00,
2013-08-27 22:35:00,84.9,66.1,29.35,ENE,63,7.3,9.4,53,-99.99,,,0.00,0,rob ver 1B,2013-08-28 05:35:00,
2013-08-27 22:36:00,84.9,66.2,29.35,ENE,57,8.3,10.4,53,-99.99,,,0.00,0,rob ver 1B,2013-08-28 05:36:00,
2013-08-27 22:37:00,84.9,66.3,29.35,ENE,57,8.2,10.1,53,-99.99,,,0.00,0,rob ver 1B,2013-08-28 05:37:00,
2013-08-27 22:38:00,84.8,66.2,29.35,ENE,66,7.9,9.7,53,-99.99,,,0.00,0,rob ver 1B,2013-08-28 05:38:00,
2013-08-27 22:39:00,91.7,66.1,29.21,South,176,4.5,5.2,43,-99.99,,,0.00,0,rob ver 1A,2013-08-28 05:39:00,
2013-08-27 22:40:00,84.8,66.2,29.35,ENE,69,7.5,9.3,53,-99.99,,,0.00,0,rob ver 1B,2013-08-28 05:40:00,
2013-08-27 22:41:00,84.9,66.3,29.35,ENE,66,7.6,10.4,53,-99.99,,,0.00,0,rob ver 1B,2013-08-28 05:41:00,
2013-08-27 22:42:00,85.0,66.4,29.35,ENE,68,7.4,11.0,54,-99.99,,,0.00,0,rob ver 1B,2013-08-28 05:42:00,
2013-08-27 22:43:00,85.0,66.7,29.35,ENE,71,9.3,11.2,54,-99.99,,,0.00,0,rob ver 1B,2013-08-28 05:43:00,
2013-08-27 22:44:00,91.5,66.3,29.21,South,186,4.0,4.7,43,-99.99,,,0.00,0,rob ver 1A,2013-08-28 05:44:00,
2013-08-27 22:45:00,84.8,66.7,29.35,ENE,61,9.1,10.8,54,-99.99,,,0.00,0,rob ver 1B,2013-08-28 05:45:00,
2013-08-27 22:46:00,84.8,66.8,29.35,ENE,66,8.2,11.9,55,-99.99,,,0.00,0,rob ver 1B,2013-08-28 05:46:00,
2013-08-27 22:47:00,84.7,66.9,29.35,ENE,64,9.7,12.3,55,-99.99,,,0.00,0,rob ver 1B,2013-08-28 05:47:00,
2013-08-27 22:48:00,84.6,67.0,29.35,ENE,71,10.7,13.5,55,-99.99,,,0.00,0,rob ver 1B,2013-08-28 05:48:00,
2013-08-27 22:49:00,91.5,66.2,29.21,SSW,192,3.7,4.5,43,-99.99,,,0.00,0,rob ver 1A,2013-08-28 05:49:00,
2013-08-27 22:50:00,84.4,67.0,29.35,ENE,73,9.5,11.8,56,-99.99,,,0.00,0,rob ver 1B,2013-08-28 05:50:00,
2013-08-27 22:51:00,84.3,67.1,29.35,ENE,74,10.0,12.8,56,-99.99,,,0.00,0,rob ver 1B,2013-08-28 05:51:00,
2013-08-27 22:52:00,84.3,67.1,29.35,ENE,76,10.0,12.7,56,-99.99,,,0.00,0,rob ver 1B,2013-08-28 05:52:00,
2013-08-27 22:53:00,84.3,67.1,29.35,ENE,77,10.9,12.8,56,-99.99,,,0.00,0,rob ver 1B,2013-08-28 05:53:00,
2013-08-27 22:54:00,84.3,67.1,29.35,East,81,10.2,13.0,56,-99.99,,,0.00,0,rob ver 1B,2013-08-28 05:54:00,
2013-08-27 22:55:00,91.5,66.2,29.21,SSW,195,4.5,5.4,43,-99.99,,,0.00,0,rob ver 1A,2013-08-28 05:55:00,
2013-08-27 22:56:00,84.4,67.7,29.35,East,89,8.6,11.3,58,-99.99,,,0.00,0,rob ver 1B,2013-08-28 05:56:00,
2013-08-27 22:57:00,84.4,68.4,29.35,East,95,8.5,9.4,58,-99.99,,,0.00,0,rob ver 1B,2013-08-28 05:57:00,
2013-08-27 22:58:00,84.3,68.4,29.35,East,93,7.1,8.8,59,-99.99,,,0.00,0,rob ver 1B,2013-08-28 05:58:00,
2013-08-27 22:59:00,84.1,68.3,29.35,East,91,5.9,7.1,60,-99.99,,,0.00,0,rob ver 1B,2013-08-28 05:59:00,
2013-08-27 23:00:00,91.5,66.0,29.21,SSW,195,4.5,5.2,43,-99.99,,,0.00,0,rob ver 1A,2013-08-28 06:00:00,
2013-08-27 23:01:00,84.0,69.4,29.35,East,80,4.9,6.3,61,-99.99,,,0.00,0,rob ver 1B,2013-08-28 06:01:00,
2013-08-27 23:02:00,84.0,69.3,29.35,ENE,71,4.7,5.9,62,-99.99,,,0.00,0,rob ver 1B,2013-08-28 06:02:00,
2013-08-27 23:03:00,84.0,69.6,29.35,NE,55,5.9,7.2,64,-99.99,,,0.00,0,rob ver 1B,2013-08-28 06:03:00,
2013-08-27 23:04:00,84.0,71.0,29.35,NE,43,7.5,9.2,66,-99.99,,,0.00,0,rob ver 1B,2013-08-28 06:04:00,
2013-08-27 23:05:00,91.6,65.9,29.21,SSW,192,5.3,6.5,42,-99.99,,,0.00,0,rob ver 1A,2013-08-28 06:05:00,
2013-08-27 23:06:00,83.7,71.4,29.35,NNE,32,11.1,13.6,66,-99.99,,,0.00,0,rob ver 1B,2013-08-28 06:06:00,
2013-08-27 23:07:00,83.6,71.6,29.38,NNE,28,12.3,14.5,67,-99.99,,,0.00,0,rob ver 1B,2013-08-28 06:07:00,
2013-08-27 23:08:00,83.4,71.5,29.38,NNE,33,13.1,15.8,66,-99.99,,,0.00,0,rob ver 1B,2013-08-28 06:08:00,
2013-08-27 23:09:00,82.9,71.2,29.38,NNE,32,10.3,13.5,70,-99.99,,,0.00,0,rob ver 1B,2013-08-28 06:09:00,
2013-08-27 23:10:00,91.6,65.9,29.21,SSW,203,4.9,5.7,42,-99.99,,,0.00,0,rob ver 1A,2013-08-28 06:10:00,
2013-08-27 23:11:00,82.7,69.8,29.35,NNE,25,15.1,18.2,64,-99.99,,,0.00,0,rob ver 1B,2013-08-28 06:11:00,
2013-08-27 23:12:00,82.7,70.2,29.35,NNE,32,16.7,19.8,66,-99.99,,,0.00,0,rob ver 1B,2013-08-28 06:12:00,
2013-08-27 23:13:00,82.4,70.4,29.35,NE,35,14.8,16.9,67,-99.99,,,0.00,0,rob ver 1B,2013-08-28 06:13:00,
2013-08-27 23:14:00,82.1,70.9,29.35,NE,37,13.1,15.1,70,-99.99,,,0.00,0,rob ver 1B,2013-08-28 06:14:00,
2013-08-27 23:15:00,91.6,65.8,29.21,SSW,206,3.9,4.5,42,-99.99,,,0.00,0,rob ver 1A,2013-08-28 06:15:00,
2013-08-27 23:16:00,81.7,70.8,29.35,NE,37,14.5,18.0,68,-99.99,,,0.00,0,rob ver 1B,2013-08-28 06:16:00,
2013-08-27 23:17:00,81.6,70.8,29.35,NNE,32,16.3,19.5,70,-99.99,,,0.00,0,rob ver 1B,2013-08-28 06:17:00,
2013-08-27 23:18:00,81.5,71.4,29.35,NNE,31,15.8,20.2,71,-99.99,,,0.01,0,rob ver 1B,2013-08-28 06:18:00,
2013-08-27 23:19:00,81.3,71.3,29.38,NE,39,16.8,19.5,71,-99.99,,,0.01,0,rob ver 1B,2013-08-28 06:19:00,
2013-08-27 23:20:00,91.5,65.8,29.21,SSW,200,4.1,4.7,42,-99.99,,,0.00,0,rob ver 1A,2013-08-28 06:20:00,
2013-08-27 23:21:00,81.2,71.2,29.38,NE,50,13.5,17.4,71,-99.99,,,0.01,0,rob ver 1B,2013-08-28 06:21:00,
2013-08-27 23:22:00,81.2,71.3,29.38,NE,49,11.9,14.8,71,-99.99,,,0.01,0,rob ver 1B,2013-08-28 06:22:00,
2013-08-27 23:23:00,81.2,71.0,29.38,NE,49,12.9,16.6,71,-99.99,,,0.01,0,rob ver 1B,2013-08-28 06:23:00,
2013-08-27 23:24:00,81.3,71.1,29.38,NE,50,12.3,15.9,71,-99.99,,,0.01,0,rob ver 1B,2013-08-28 06:24:00,
2013-08-27 23:25:00,91.4,65.8,29.21,South,188,3.5,4.6,43,-99.99,,,0.00,0,rob ver 1A,2013-08-28 06:25:00,
2013-08-27 23:26:00,81.4,70.6,29.38,NE,55,12.9,16.7,69,-99.99,,,0.01,0,rob ver 1B,2013-08-28 06:26:00,
2013-08-27 23:27:00,81.4,70.5,29.38,ENE,58,12.0,15.3,69,-99.99,,,0.01,0,rob ver 1B,2013-08-28 06:27:00,
2013-08-27 23:28:00,81.5,70.2,29.38,ENE,60,14.6,19.1,68,-99.99,,,0.01,0,rob ver 1B,2013-08-28 06:28:00,
2013-08-27 23:29:00,81.6,70.1,29.38,ENE,57,14.2,19.4,68,-99.99,,,0.01,0,rob ver 1B,2013-08-28 06:29:00,
2013-08-27 23:30:00,91.2,66.3,29.21,South,177,3.3,4.1,44,-99.99,,,0.00,0,rob ver 1A,2013-08-28 06:30:00,
2013-08-27 23:31:00,81.6,70.5,29.38,NE,47,14.6,18.3,69,-99.99,,,0.01,0,rob ver 1B,2013-08-28 06:31:00,
2013-08-27 23:32:00,81.6,70.8,29.38,NE,41,14.4,18.1,70,-99.99,,,0.01,0,rob ver 1B,2013-08-28 06:32:00,
2013-08-27 23:33:00,81.5,70.8,29.38,NE,36,14.7,19.8,70,-99.99,,,0.01,0,rob ver 1B,2013-08-28 06:33:00,
2013-08-27 23:34:00,81.5,71.0,29.38,NE,40,13.6,18.8,69,-99.99,,,0.01,0,rob ver 1B,2013-08-28 06:34:00,
2013-08-27 23:35:00,91.0,66.5,29.21,South,182,3.2,3.8,44,-99.99,,,0.00,0,rob ver 1A,2013-08-28 06:35:00,
2013-08-27 23:36:00,81.6,70.8,29.38,NE,39,15.3,18.6,69,-99.99,,,0.01,0,rob ver 1B,2013-08-28 06:36:00,
2013-08-27 23:37:00,81.6,71.0,29.38,NE,35,14.3,18.7,70,-99.99,,,0.01,0,rob ver 1B,2013-08-28 06:37:00,
2013-08-27 23:38:00,81.5,71.1,29.38,NE,34,15.2,18.0,71,-99.99,,,0.01,0,rob ver 1B,2013-08-28 06:38:00,
2013-08-27 23:39:00,81.4,71.6,29.38,NE,34,13.1,16.4,71,-99.99,,,0.01,0,rob ver 1B,2013-08-28 06:39:00,
2013-08-27 23:40:00,81.3,71.1,29.38,NE,37,14.8,18.5,70,-99.99,,,0.01,0,rob ver 1B,2013-08-28 06:40:00,
2013-08-27 23:41:00,90.8,66.6,29.21,South,186,2.1,3.2,45,-99.99,,,0.00,0,rob ver 1A,2013-08-28 06:41:00,
2013-08-27 23:42:00,81.5,71.2,29.38,NE,37,13.5,15.9,71,-99.99,,,0.01,0,rob ver 1B,2013-08-28 06:42:00,
2013-08-27 23:43:00,81.5,71.2,29.38,NE,39,12.2,16.8,69,-99.99,,,0.01,0,rob ver 1B,2013-08-28 06:43:00,
2013-08-27 23:44:00,81.5,71.0,29.38,NE,39,12.7,14.9,70,-99.99,,,0.01,0,rob ver 1B,2013-08-28 06:44:00,
2013-08-27 23:45:00,81.6,71.2,29.38,NE,36,12.2,14.6,70,-99.99,,,0.01,0,rob ver 1B,2013-08-28 06:45:00,
2013-08-27 23:46:00,90.6,66.7,29.21,South,183,2.9,3.4,45,-99.99,,,0.00,0,rob ver 1A,2013-08-28 06:46:00,
2013-08-27 23:47:00,81.6,70.6,29.38,NE,43,13.2,18.3,67,-99.99,,,0.01,0,rob ver 1B,2013-08-28 06:47:00,
2013-08-27 23:48:00,81.8,70.1,29.38,NE,41,16.7,21.3,68,-99.99,,,0.01,0,rob ver 1B,2013-08-28 06:48:00,
2013-08-27 23:49:00,81.8,70.0,29.38,NE,40,18.6,23.1,67,-99.99,,,0.01,0,rob ver 1B,2013-08-28 06:49:00,
2013-08-27 23:50:00,81.7,70.3,29.38,NE,42,16.9,20.3,68,-99.99,,,0.01,0,rob ver 1B,2013-08-28 06:50:00,
2013-08-27 23:51:00,90.5,66.5,29.21,SSW,197,4.2,5.3,45,-99.99,,,0.00,0,rob ver 1A,2013-08-28 06:51:00,
2013-08-27 23:52:00,81.3,71.0,29.38,NE,44,15.2,19.6,71,-99.99,,,0.01,0,rob ver 1B,2013-08-28 06:52:00,
2013-08-27 23:53:00,81.0,71.6,29.38,NE,45,12.8,18.8,73,-99.99,,,0.01,0,rob ver 1B,2013-08-28 06:53:00,
2013-08-27 23:54:00,80.7,71.5,29.38,NE,46,15.2,19.8,74,-99.99,,,0.01,0,rob ver 1B,2013-08-28 06:54:00,
2013-08-27 23:55:00,80.5,71.8,29.38,NE,48,12.9,20.1,74,-99.99,,,0.01,0,rob ver 1B,2013-08-28 06:55:00,
2013-08-27 23:56:00,90.4,66.6,29.21,South,191,3.5,4.7,45,-99.99,,,0.00,0,rob ver 1A,2013-08-28 06:56:00,
2013-08-27 23:57:00,80.1,71.7,29.38,NE,51,12.5,16.7,76,-99.99,,,0.01,0,rob ver 1B,2013-08-28 06:57:00,
2013-08-27 23:58:00,80.0,71.8,29.38,NE,53,12.4,16.4,76,-99.99,,,0.01,0,rob ver 1B,2013-08-28 06:58:00,
2013-08-27 23:59:00,79.8,71.9,29.38,NE,47,12.8,17.6,77,-99.99,,,0.02,0,rob ver 1B,2013-08-28 06:59:00,